<?xml version="1.0" encoding="UTF-8" standalone="yes"?>
<gpx
 xmlns="http://www.topografix.com/GPX/1/1"
 creator="OziExplorer Version 3956f - http://www.oziexplorer.com"
 version="1.1"
 xmlns:xsi="http://www.w3.org/2001/XMLSchema-instance"
 xsi:schemaLocation="http://www.topografix.com/GPX/1/1 http://www.topografix.com/GPX/1/1/gpx.xsd">
<metadata>
 <time>2019-12-10T16:33:48Z</time>
 <bounds minlat="31.305320" minlon="35.243220" maxlat="31.379760" maxlon="35.300220"/>
</metadata>
<wpt lat="31.3053800" lon="35.2686340">
 <ele>321.000031</ele>
 <time>2019-12-10T18:31:48.467Z</time>
 <name>1-START</name>
 <cmt>1- Nachalo marshruta</cmt>
 <desc>1- Nachalo marshruta</desc>
 <sym>Navaid, Red</sym>
</wpt>
<wpt lat="31.3072200" lon="35.2694600">
 <ele>311.000000</ele>
 <time>2019-12-10T18:31:48.488Z</time>
 <name>3-BLACK</name>
 <cmt>3 - Nachalo chernoy razmetka mershruta</cmt>
 <desc>3 - Nachalo chernoy razmetka mershruta</desc>
 <sym>Navaid, Red</sym>
</wpt>
<wpt lat="31.3380300" lon="35.2759300">
 <ele>211.000000</ele>
 <time>2019-12-10T18:31:48.488Z</time>
 <name>33BR-TSFIRA</name>
 <cmt>33- Basseini (gevim) nahalya Seelim, nachalo peshehodnogo marshruta</cmt>
 <desc>33- Basseini (gevim) nahalya Seelim, nachalo peshehodnogo marshruta</desc>
 <sym>Navaid, Red</sym>
</wpt>
<wpt lat="31.3411000" lon="35.2769700">
 <ele>238.000000</ele>
 <time>2019-12-10T18:31:48.489Z</time>
 <name>40-TATSPIT</name>
 <cmt>40 - Vidovaya ploshadka na nahal Seelim</cmt>
 <desc>40 - Vidovaya ploshadka na nahal Seelim</desc>
 <sym>Navaid, Red</sym>
</wpt>
<wpt lat="31.3494100" lon="35.2601200">
 <ele>322.000000</ele>
 <time>2019-12-10T18:31:48.490Z</time>
 <name>78Sokr-St</name>
 <cmt>78</cmt>
 <desc>78</desc>
 <sym>Navaid, Red</sym>
</wpt>
<wpt lat="31.3664300" lon="35.2439600">
 <ele>462.000000</ele>
 <time>2019-12-10T18:31:48.491Z</time>
 <name>98-MAX</name>
 <cmt>98 - Maximal'naya otmetka marshruta 470m</cmt>
 <desc>98 - Maximal'naya otmetka marshruta 470m</desc>
 <sym>Navaid, Red</sym>
</wpt>
<wpt lat="31.3793400" lon="35.2792800">
 <ele>339.000000</ele>
 <time>2019-12-10T18:31:48.491Z</time>
 <name>138-RED</name>
 <cmt>138- Nachalo krasnoy razmetka mershruta</cmt>
 <desc>138- Nachalo krasnoy razmetka mershruta</desc>
 <sym>Navaid, Red</sym>
</wpt>
<wpt lat="31.3668580" lon="35.2896650">
 <ele>318.000000</ele>
 <time>2019-12-10T18:31:48.492Z</time>
 <name>150-PRIVAL1</name>
 <cmt>150 - Tenistoe mesto dlya vozmojnogo privala</cmt>
 <desc>150 - Tenistoe mesto dlya vozmojnogo privala</desc>
 <sym>Navaid, Red</sym>
</wpt>
<wpt lat="31.3641780" lon="35.2930300">
 <ele>315.000000</ele>
 <time>2019-12-10T18:31:48.493Z</time>
 <name>153-PRIVAL2</name>
 <cmt>153 - Tenistoe mesto dlya vozmojnogo privala</cmt>
 <desc>153 - Tenistoe mesto dlya vozmojnogo privala</desc>
 <sym>Navaid, Red</sym>
</wpt>
<wpt lat="31.3579900" lon="35.3002200">
 <ele>314.000000</ele>
 <time>2019-12-10T18:31:48.494Z</time>
 <name>159-TATSPIT</name>
 <cmt>159 - Vidovaya ploshadka na Mertvoe more i nahal Seelim</cmt>
 <desc>159 - Vidovaya ploshadka na Mertvoe more i nahal Seelim</desc>
 <sym>Navaid, Red</sym>
</wpt>
<wpt lat="31.3577300" lon="35.2972800">
 <ele>337.999969</ele>
 <time>2019-12-10T18:31:48.494Z</time>
 <name>160BLUE</name>
 <cmt>160 - Nachalo goluboy razmetki marshruta</cmt>
 <desc>160 - Nachalo goluboy razmetki marshruta</desc>
 <sym>Navaid, Red</sym>
</wpt>
<wpt lat="31.3509700" lon="35.2840800">
 <ele>350.000000</ele>
 <time>2019-12-10T18:31:48.495Z</time>
 <name>171PESH-ST</name>
 <cmt>171 - Nachalo peshehodnogo ucastka marshruta</cmt>
 <desc>171 - Nachalo peshehodnogo ucastka marshruta</desc>
 <sym>Navaid, Red</sym>
</wpt>
<wpt lat="31.3504900" lon="35.2754600">
 <ele>221.000000</ele>
 <time>2019-12-10T18:31:48.496Z</time>
 <name>182PESH-FIN</name>
 <cmt>182 - Kones peshehodnogo ucastka marshruta</cmt>
 <desc>182 - Kones peshehodnogo ucastka marshruta</desc>
 <sym>Navaid, Red</sym>
</wpt>
<wpt lat="31.3411400" lon="35.2768600">
 <ele>244.000015</ele>
 <time>2019-12-10T18:31:48.496Z</time>
 <name>194-BLACK</name>
 <cmt>194 - Nachalo chernoy razmetki mershruta</cmt>
 <desc>194 - Nachalo chernoy razmetki mershruta</desc>
 <sym>Navaid, Red</sym>
</wpt>
<wpt lat="31.3053800" lon="35.2685500">
 <ele>322.000000</ele>
 <time>2019-12-10T18:31:48.497Z</time>
 <name>236-FINISH</name>
 <cmt>236 - Okonchanie marshruta</cmt>
 <desc>236 - Okonchanie marshruta</desc>
 <sym>Navaid, Red</sym>
</wpt>
<wpt lat="31.3308571" lon="35.2758872">
 <ele>295.000000</ele>
 <time>2019-12-10T18:31:48.498Z</time>
 <name>Vpravo</name>
 <sym>Navaid, Red</sym>
</wpt>
<trk>
 <name>Nokdim-Seelim,Var1,32km</name>
 <desc>Nokdim-Seelim,Var1,32km</desc>
<trkseg>
<trkpt lat="31.3054000" lon="35.2686100">
<ele>322.000000</ele>
<time>2010-01-01T00:00:00.000Z</time>
</trkpt>
<trkpt lat="31.3057800" lon="35.2687900">
<ele>321.000031</ele>
<time>2010-01-01T00:00:16.000Z</time>
</trkpt>
<trkpt lat="31.3060505" lon="35.2689188">
<ele>321.000031</ele>
<time>2010-01-01T00:00:28.000Z</time>
</trkpt>
<trkpt lat="31.3062797" lon="35.2690047">
<ele>320.000000</ele>
<time>2010-01-01T00:00:37.000Z</time>
</trkpt>
<trkpt lat="31.3064800" lon="35.2691400">
<ele>318.000000</ele>
<time>2010-01-01T00:00:46.000Z</time>
</trkpt>
<trkpt lat="31.3069259" lon="35.2693480">
<ele>315.000000</ele>
<time>2010-01-01T00:01:06.000Z</time>
</trkpt>
<trkpt lat="31.3072200" lon="35.2694600">
<ele>311.000000</ele>
<time>2010-01-01T00:01:18.000Z</time>
</trkpt>
<trkpt lat="31.3073700" lon="35.2694900">
<ele>310.000000</ele>
<time>2010-01-01T00:01:24.000Z</time>
</trkpt>
<trkpt lat="31.3078000" lon="35.2694400">
<ele>312.999969</ele>
<time>2010-01-01T00:01:41.000Z</time>
</trkpt>
<trkpt lat="31.3079600" lon="35.2694000">
<ele>314.000000</ele>
<time>2010-01-01T00:01:48.000Z</time>
</trkpt>
<trkpt lat="31.3082700" lon="35.2693800">
<ele>316.000000</ele>
<time>2010-01-01T00:02:00.000Z</time>
</trkpt>
<trkpt lat="31.3084800" lon="35.2694600">
<ele>317.000000</ele>
<time>2010-01-01T00:02:09.000Z</time>
</trkpt>
<trkpt lat="31.3087900" lon="35.2696400">
<ele>320.000000</ele>
<time>2010-01-01T00:02:23.000Z</time>
</trkpt>
<trkpt lat="31.3090700" lon="35.2697800">
<ele>323.000000</ele>
<time>2010-01-01T00:02:35.000Z</time>
</trkpt>
<trkpt lat="31.3093100" lon="35.2698100">
<ele>323.000000</ele>
<time>2010-01-01T00:02:45.000Z</time>
</trkpt>
<trkpt lat="31.3096700" lon="35.2696600">
<ele>323.999969</ele>
<time>2010-01-01T00:03:00.000Z</time>
</trkpt>
<trkpt lat="31.3101200" lon="35.2696700">
<ele>326.000000</ele>
<time>2010-01-01T00:03:18.000Z</time>
</trkpt>
<trkpt lat="31.3104700" lon="35.2698300">
<ele>326.000000</ele>
<time>2010-01-01T00:03:33.000Z</time>
</trkpt>
<trkpt lat="31.3106900" lon="35.2702200">
<ele>326.999969</ele>
<time>2010-01-01T00:03:49.000Z</time>
</trkpt>
<trkpt lat="31.3108800" lon="35.2706400">
<ele>323.999969</ele>
<time>2010-01-01T00:04:06.000Z</time>
</trkpt>
<trkpt lat="31.3111100" lon="35.2711600">
<ele>320.000000</ele>
<time>2010-01-01T00:04:26.000Z</time>
</trkpt>
<trkpt lat="31.3113600" lon="35.2716900">
<ele>319.000000</ele>
<time>2010-01-01T00:04:46.000Z</time>
</trkpt>
<trkpt lat="31.3115500" lon="35.2721100">
<ele>316.000000</ele>
<time>2010-01-01T00:05:03.000Z</time>
</trkpt>
<trkpt lat="31.3116400" lon="35.2723400">
<ele>314.000000</ele>
<time>2010-01-01T00:05:11.000Z</time>
</trkpt>
<trkpt lat="31.3117900" lon="35.2725400">
<ele>312.000000</ele>
<time>2010-01-01T00:05:20.000Z</time>
</trkpt>
<trkpt lat="31.3119300" lon="35.2727000">
<ele>311.000000</ele>
<time>2010-01-01T00:05:28.000Z</time>
</trkpt>
<trkpt lat="31.3121600" lon="35.2728800">
<ele>309.000000</ele>
<time>2010-01-01T00:05:39.000Z</time>
</trkpt>
<trkpt lat="31.3123700" lon="35.2729600">
<ele>308.000000</ele>
<time>2010-01-01T00:05:48.000Z</time>
</trkpt>
<trkpt lat="31.3124400" lon="35.2729700">
<ele>308.000000</ele>
<time>2010-01-01T00:05:51.000Z</time>
</trkpt>
<trkpt lat="31.3126300" lon="35.2729900">
<ele>308.000000</ele>
<time>2010-01-01T00:05:59.000Z</time>
</trkpt>
<trkpt lat="31.3130800" lon="35.2731300">
<ele>310.000000</ele>
<time>2010-01-01T00:06:17.000Z</time>
</trkpt>
<trkpt lat="31.3132200" lon="35.2731400">
<ele>311.000000</ele>
<time>2010-01-01T00:06:23.000Z</time>
</trkpt>
<trkpt lat="31.3133200" lon="35.2731800">
<ele>312.000000</ele>
<time>2010-01-01T00:06:27.000Z</time>
</trkpt>
<trkpt lat="31.3133800" lon="35.2732100">
<ele>312.000000</ele>
<time>2010-01-01T00:06:30.000Z</time>
</trkpt>
<trkpt lat="31.3137100" lon="35.2732900">
<ele>312.999969</ele>
<time>2010-01-01T00:06:43.000Z</time>
</trkpt>
<trkpt lat="31.3141800" lon="35.2734100">
<ele>312.999969</ele>
<time>2010-01-01T00:07:02.000Z</time>
</trkpt>
<trkpt lat="31.3145600" lon="35.2734900">
<ele>314.000000</ele>
<time>2010-01-01T00:07:18.000Z</time>
</trkpt>
<trkpt lat="31.3147000" lon="35.2735300">
<ele>315.000000</ele>
<time>2010-01-01T00:07:24.000Z</time>
</trkpt>
<trkpt lat="31.3150600" lon="35.2736700">
<ele>316.000000</ele>
<time>2010-01-01T00:07:39.000Z</time>
</trkpt>
<trkpt lat="31.3156000" lon="35.2737700">
<ele>316.000000</ele>
<time>2010-01-01T00:08:01.000Z</time>
</trkpt>
<trkpt lat="31.3161900" lon="35.2739300">
<ele>315.000000</ele>
<time>2010-01-01T00:08:25.000Z</time>
</trkpt>
<trkpt lat="31.3164600" lon="35.2739300">
<ele>315.000000</ele>
<time>2010-01-01T00:08:36.000Z</time>
</trkpt>
<trkpt lat="31.3166400" lon="35.2740000">
<ele>315.000000</ele>
<time>2010-01-01T00:08:43.000Z</time>
</trkpt>
<trkpt lat="31.3170900" lon="35.2741400">
<ele>318.000000</ele>
<time>2010-01-01T00:09:02.000Z</time>
</trkpt>
<trkpt lat="31.3173400" lon="35.2742100">
<ele>319.000000</ele>
<time>2010-01-01T00:09:12.000Z</time>
</trkpt>
<trkpt lat="31.3176200" lon="35.2743000">
<ele>321.000031</ele>
<time>2010-01-01T00:09:24.000Z</time>
</trkpt>
<trkpt lat="31.3179700" lon="35.2743900">
<ele>323.000000</ele>
<time>2010-01-01T00:09:38.000Z</time>
</trkpt>
<trkpt lat="31.3184600" lon="35.2744800">
<ele>323.000000</ele>
<time>2010-01-01T00:09:58.000Z</time>
</trkpt>
<trkpt lat="31.3189300" lon="35.2745800">
<ele>323.000000</ele>
<time>2010-01-01T00:10:17.000Z</time>
</trkpt>
<trkpt lat="31.3191000" lon="35.2746300">
<ele>323.000000</ele>
<time>2010-01-01T00:10:24.000Z</time>
</trkpt>
<trkpt lat="31.3194800" lon="35.2746900">
<ele>323.999969</ele>
<time>2010-01-01T00:10:40.000Z</time>
</trkpt>
<trkpt lat="31.3197300" lon="35.2747200">
<ele>325.000000</ele>
<time>2010-01-01T00:10:50.000Z</time>
</trkpt>
<trkpt lat="31.3200400" lon="35.2748100">
<ele>323.999969</ele>
<time>2010-01-01T00:11:02.000Z</time>
</trkpt>
<trkpt lat="31.3205400" lon="35.2749600">
<ele>323.000000</ele>
<time>2010-01-01T00:11:23.000Z</time>
</trkpt>
<trkpt lat="31.3208300" lon="35.2750600">
<ele>322.000000</ele>
<time>2010-01-01T00:11:35.000Z</time>
</trkpt>
<trkpt lat="31.3209900" lon="35.2750800">
<ele>323.000000</ele>
<time>2010-01-01T00:11:42.000Z</time>
</trkpt>
<trkpt lat="31.3211200" lon="35.2751300">
<ele>323.000000</ele>
<time>2010-01-01T00:11:47.000Z</time>
</trkpt>
<trkpt lat="31.3213000" lon="35.2752800">
<ele>322.000000</ele>
<time>2010-01-01T00:11:56.000Z</time>
</trkpt>
<trkpt lat="31.3218200" lon="35.2755600">
<ele>323.999969</ele>
<time>2010-01-01T00:12:19.000Z</time>
</trkpt>
<trkpt lat="31.3223100" lon="35.2757200">
<ele>323.999969</ele>
<time>2010-01-01T00:12:39.000Z</time>
</trkpt>
<trkpt lat="31.3224900" lon="35.2758100">
<ele>323.999969</ele>
<time>2010-01-01T00:12:47.000Z</time>
</trkpt>
<trkpt lat="31.3226600" lon="35.2758300">
<ele>323.999969</ele>
<time>2010-01-01T00:12:54.000Z</time>
</trkpt>
<trkpt lat="31.3230600" lon="35.2759800">
<ele>323.999969</ele>
<time>2010-01-01T00:13:11.000Z</time>
</trkpt>
<trkpt lat="31.3235400" lon="35.2761000">
<ele>325.000000</ele>
<time>2010-01-01T00:13:30.000Z</time>
</trkpt>
<trkpt lat="31.3240900" lon="35.2762300">
<ele>326.999969</ele>
<time>2010-01-01T00:13:53.000Z</time>
</trkpt>
<trkpt lat="31.3245100" lon="35.2763300">
<ele>325.000000</ele>
<time>2010-01-01T00:14:10.000Z</time>
</trkpt>
<trkpt lat="31.3246300" lon="35.2763600">
<ele>325.000000</ele>
<time>2010-01-01T00:14:15.000Z</time>
</trkpt>
<trkpt lat="31.3248300" lon="35.2764600">
<ele>323.999969</ele>
<time>2010-01-01T00:14:24.000Z</time>
</trkpt>
<trkpt lat="31.3251500" lon="35.2766400">
<ele>323.000000</ele>
<time>2010-01-01T00:14:38.000Z</time>
</trkpt>
<trkpt lat="31.3252100" lon="35.2766700">
<ele>322.000000</ele>
<time>2010-01-01T00:14:40.000Z</time>
</trkpt>
<trkpt lat="31.3256900" lon="35.2768500">
<ele>320.000000</ele>
<time>2010-01-01T00:15:01.000Z</time>
</trkpt>
<trkpt lat="31.3259800" lon="35.2769700">
<ele>317.000000</ele>
<time>2010-01-01T00:15:13.000Z</time>
</trkpt>
<trkpt lat="31.3261300" lon="35.2770400">
<ele>314.000000</ele>
<time>2010-01-01T00:15:19.000Z</time>
</trkpt>
<trkpt lat="31.3265200" lon="35.2771700">
<ele>314.000000</ele>
<time>2010-01-01T00:15:36.000Z</time>
</trkpt>
<trkpt lat="31.3266800" lon="35.2772100">
<ele>312.999969</ele>
<time>2010-01-01T00:15:42.000Z</time>
</trkpt>
<trkpt lat="31.3268400" lon="35.2772400">
<ele>312.999969</ele>
<time>2010-01-01T00:15:49.000Z</time>
</trkpt>
<trkpt lat="31.3274200" lon="35.2771600">
<ele>310.000000</ele>
<time>2010-01-01T00:16:12.000Z</time>
</trkpt>
<trkpt lat="31.3280100" lon="35.2772200">
<ele>308.000000</ele>
<time>2010-01-01T00:16:36.000Z</time>
</trkpt>
<trkpt lat="31.3280900" lon="35.2772500">
<ele>307.000000</ele>
<time>2010-01-01T00:16:39.000Z</time>
</trkpt>
<trkpt lat="31.3283000" lon="35.2773200">
<ele>307.000000</ele>
<time>2010-01-01T00:16:48.000Z</time>
</trkpt>
<trkpt lat="31.3283900" lon="35.2773300">
<ele>306.000000</ele>
<time>2010-01-01T00:16:51.000Z</time>
</trkpt>
<trkpt lat="31.3284900" lon="35.2773500">
<ele>306.000000</ele>
<time>2010-01-01T00:16:55.000Z</time>
</trkpt>
<trkpt lat="31.3290800" lon="35.2774900">
<ele>307.000000</ele>
<time>2010-01-01T00:17:20.000Z</time>
</trkpt>
<trkpt lat="31.3292700" lon="35.2777800">
<ele>304.000000</ele>
<time>2010-01-01T00:17:32.000Z</time>
</trkpt>
<trkpt lat="31.3293400" lon="35.2777900">
<ele>303.000000</ele>
<time>2010-01-01T00:17:35.000Z</time>
</trkpt>
<trkpt lat="31.3294200" lon="35.2777900">
<ele>303.000000</ele>
<time>2010-01-01T00:17:38.000Z</time>
</trkpt>
<trkpt lat="31.3295200" lon="35.2778100">
<ele>302.000000</ele>
<time>2010-01-01T00:17:42.000Z</time>
</trkpt>
<trkpt lat="31.3296100" lon="35.2778100">
<ele>302.000000</ele>
<time>2010-01-01T00:17:46.000Z</time>
</trkpt>
<trkpt lat="31.3299500" lon="35.2778500">
<ele>300.000000</ele>
<time>2010-01-01T00:17:59.000Z</time>
</trkpt>
<trkpt lat="31.3302000" lon="35.2779700">
<ele>299.000000</ele>
<time>2010-01-01T00:18:10.000Z</time>
</trkpt>
<trkpt lat="31.3303600" lon="35.2781200">
<ele>297.000000</ele>
<time>2010-01-01T00:18:18.000Z</time>
</trkpt>
<trkpt lat="31.3304100" lon="35.2781700">
<ele>297.000000</ele>
<time>2010-01-01T00:18:21.000Z</time>
</trkpt>
<trkpt lat="31.3305200" lon="35.2783000">
<ele>295.000000</ele>
<time>2010-01-01T00:18:27.000Z</time>
</trkpt>
<trkpt lat="31.3306800" lon="35.2783900">
<ele>295.000000</ele>
<time>2010-01-01T00:18:34.000Z</time>
</trkpt>
<trkpt lat="31.3310700" lon="35.2782400">
<ele>296.000000</ele>
<time>2010-01-01T00:18:51.000Z</time>
</trkpt>
<trkpt lat="31.3311000" lon="35.2782200">
<ele>296.000000</ele>
<time>2010-01-01T00:18:52.000Z</time>
</trkpt>
<trkpt lat="31.3314800" lon="35.2778600">
<ele>291.000000</ele>
<time>2010-01-01T00:19:12.000Z</time>
</trkpt>
<trkpt lat="31.3315400" lon="35.2778100">
<ele>291.000000</ele>
<time>2010-01-01T00:19:15.000Z</time>
</trkpt>
<trkpt lat="31.3315700" lon="35.2776200">
<ele>292.000000</ele>
<time>2010-01-01T00:19:21.000Z</time>
</trkpt>
<trkpt lat="31.3314600" lon="35.2772700">
<ele>295.000000</ele>
<time>2010-01-01T00:19:34.000Z</time>
</trkpt>
<trkpt lat="31.3312300" lon="35.2766800">
<ele>298.000000</ele>
<time>2010-01-01T00:19:56.000Z</time>
</trkpt>
<trkpt lat="31.3310200" lon="35.2761600">
<ele>296.000000</ele>
<time>2010-01-01T00:20:16.000Z</time>
</trkpt>
<trkpt lat="31.3309200" lon="35.2758800">
<ele>295.000000</ele>
<time>2010-01-01T00:20:26.000Z</time>
</trkpt>
<trkpt lat="31.3309900" lon="35.2757300">
<ele>297.000000</ele>
<time>2010-01-01T00:20:32.000Z</time>
</trkpt>
<trkpt lat="31.3311500" lon="35.2756600">
<ele>299.000000</ele>
<time>2010-01-01T00:20:39.000Z</time>
</trkpt>
<trkpt lat="31.3313600" lon="35.2754400">
<ele>301.000000</ele>
<time>2010-01-01T00:20:50.000Z</time>
</trkpt>
<trkpt lat="31.3316200" lon="35.2752000">
<ele>304.000000</ele>
<time>2010-01-01T00:21:04.000Z</time>
</trkpt>
<trkpt lat="31.3318200" lon="35.2750100">
<ele>305.000000</ele>
<time>2010-01-01T00:21:14.000Z</time>
</trkpt>
<trkpt lat="31.3319900" lon="35.2748000">
<ele>306.000000</ele>
<time>2010-01-01T00:21:24.000Z</time>
</trkpt>
<trkpt lat="31.3320500" lon="35.2744400">
<ele>310.000000</ele>
<time>2010-01-01T00:21:36.000Z</time>
</trkpt>
<trkpt lat="31.3320400" lon="35.2743200">
<ele>312.000000</ele>
<time>2010-01-01T00:21:40.000Z</time>
</trkpt>
<trkpt lat="31.3319900" lon="35.2740200">
<ele>316.000000</ele>
<time>2010-01-01T00:21:51.000Z</time>
</trkpt>
<trkpt lat="31.3319700" lon="35.2737600">
<ele>318.000000</ele>
<time>2010-01-01T00:22:00.000Z</time>
</trkpt>
<trkpt lat="31.3319400" lon="35.2734500">
<ele>318.000000</ele>
<time>2010-01-01T00:22:11.000Z</time>
</trkpt>
<trkpt lat="31.3319500" lon="35.2731400">
<ele>317.000000</ele>
<time>2010-01-01T00:22:21.000Z</time>
</trkpt>
<trkpt lat="31.3320100" lon="35.2728600">
<ele>317.000000</ele>
<time>2010-01-01T00:22:31.000Z</time>
</trkpt>
<trkpt lat="31.3320700" lon="35.2726800">
<ele>316.000000</ele>
<time>2010-01-01T00:22:38.000Z</time>
</trkpt>
<trkpt lat="31.3322200" lon="35.2725800">
<ele>312.999969</ele>
<time>2010-01-01T00:22:44.000Z</time>
</trkpt>
<trkpt lat="31.3324000" lon="35.2725300">
<ele>311.000000</ele>
<time>2010-01-01T00:22:52.000Z</time>
</trkpt>
<trkpt lat="31.3326700" lon="35.2724600">
<ele>306.000000</ele>
<time>2010-01-01T00:23:03.000Z</time>
</trkpt>
<trkpt lat="31.3328400" lon="35.2724500">
<ele>303.000000</ele>
<time>2010-01-01T00:23:10.000Z</time>
</trkpt>
<trkpt lat="31.3329400" lon="35.2724900">
<ele>302.000000</ele>
<time>2010-01-01T00:23:14.000Z</time>
</trkpt>
<trkpt lat="31.3331600" lon="35.2726500">
<ele>297.000000</ele>
<time>2010-01-01T00:23:24.000Z</time>
</trkpt>
<trkpt lat="31.3332900" lon="35.2728400">
<ele>293.000000</ele>
<time>2010-01-01T00:23:33.000Z</time>
</trkpt>
<trkpt lat="31.3334400" lon="35.2730000">
<ele>288.000000</ele>
<time>2010-01-01T00:23:41.000Z</time>
</trkpt>
<trkpt lat="31.3336500" lon="35.2730800">
<ele>282.000000</ele>
<time>2010-01-01T00:23:50.000Z</time>
</trkpt>
<trkpt lat="31.3341600" lon="35.2732100">
<ele>280.000000</ele>
<time>2010-01-01T00:24:11.000Z</time>
</trkpt>
<trkpt lat="31.3343800" lon="35.2733500">
<ele>279.000000</ele>
<time>2010-01-01T00:24:21.000Z</time>
</trkpt>
<trkpt lat="31.3345300" lon="35.2734900">
<ele>276.000000</ele>
<time>2010-01-01T00:24:28.000Z</time>
</trkpt>
<trkpt lat="31.3345700" lon="35.2735300">
<ele>276.000000</ele>
<time>2010-01-01T00:24:30.000Z</time>
</trkpt>
<trkpt lat="31.3347300" lon="35.2737100">
<ele>274.000000</ele>
<time>2010-01-01T00:24:39.000Z</time>
</trkpt>
<trkpt lat="31.3348200" lon="35.2739600">
<ele>272.000000</ele>
<time>2010-01-01T00:24:49.000Z</time>
</trkpt>
<trkpt lat="31.3346400" lon="35.2741000">
<ele>270.000000</ele>
<time>2010-01-01T00:24:57.000Z</time>
</trkpt>
<trkpt lat="31.3344100" lon="35.2740500">
<ele>269.000000</ele>
<time>2010-01-01T00:25:07.000Z</time>
</trkpt>
<trkpt lat="31.3341500" lon="35.2739900">
<ele>271.000000</ele>
<time>2010-01-01T00:25:17.000Z</time>
</trkpt>
<trkpt lat="31.3340600" lon="35.2739900">
<ele>271.000000</ele>
<time>2010-01-01T00:25:21.000Z</time>
</trkpt>
<trkpt lat="31.3338500" lon="35.2739900">
<ele>271.000000</ele>
<time>2010-01-01T00:25:29.000Z</time>
</trkpt>
<trkpt lat="31.3336800" lon="35.2740300">
<ele>270.000000</ele>
<time>2010-01-01T00:25:36.000Z</time>
</trkpt>
<trkpt lat="31.3335400" lon="35.2743800">
<ele>265.000000</ele>
<time>2010-01-01T00:25:49.000Z</time>
</trkpt>
<trkpt lat="31.3336300" lon="35.2745300">
<ele>261.000000</ele>
<time>2010-01-01T00:25:56.000Z</time>
</trkpt>
<trkpt lat="31.3337000" lon="35.2746200">
<ele>259.000000</ele>
<time>2010-01-01T00:26:00.000Z</time>
</trkpt>
<trkpt lat="31.3338100" lon="35.2747800">
<ele>255.000000</ele>
<time>2010-01-01T00:26:07.000Z</time>
</trkpt>
<trkpt lat="31.3338600" lon="35.2749100">
<ele>252.000000</ele>
<time>2010-01-01T00:26:12.000Z</time>
</trkpt>
<trkpt lat="31.3338900" lon="35.2752100">
<ele>250.000000</ele>
<time>2010-01-01T00:26:22.000Z</time>
</trkpt>
<trkpt lat="31.3338100" lon="35.2755400">
<ele>254.000000</ele>
<time>2010-01-01T00:26:34.000Z</time>
</trkpt>
<trkpt lat="31.3337600" lon="35.2756800">
<ele>256.000000</ele>
<time>2010-01-01T00:26:39.000Z</time>
</trkpt>
<trkpt lat="31.3338700" lon="35.2759000">
<ele>255.000000</ele>
<time>2010-01-01T00:26:48.000Z</time>
</trkpt>
<trkpt lat="31.3340300" lon="35.2758700">
<ele>252.000000</ele>
<time>2010-01-01T00:26:54.000Z</time>
</trkpt>
<trkpt lat="31.3342600" lon="35.2757300">
<ele>248.000000</ele>
<time>2010-01-01T00:27:04.000Z</time>
</trkpt>
<trkpt lat="31.3343900" lon="35.2756800">
<ele>247.000000</ele>
<time>2010-01-01T00:27:10.000Z</time>
</trkpt>
<trkpt lat="31.3347100" lon="35.2756500">
<ele>243.000000</ele>
<time>2010-01-01T00:27:23.000Z</time>
</trkpt>
<trkpt lat="31.3349500" lon="35.2756800">
<ele>241.000000</ele>
<time>2010-01-01T00:27:32.000Z</time>
</trkpt>
<trkpt lat="31.3352700" lon="35.2757200">
<ele>238.000000</ele>
<time>2010-01-01T00:27:45.000Z</time>
</trkpt>
<trkpt lat="31.3356600" lon="35.2757900">
<ele>235.000000</ele>
<time>2010-01-01T00:28:01.000Z</time>
</trkpt>
<trkpt lat="31.3359400" lon="35.2757300">
<ele>232.999985</ele>
<time>2010-01-01T00:28:13.000Z</time>
</trkpt>
<trkpt lat="31.3360100" lon="35.2757100">
<ele>232.000000</ele>
<time>2010-01-01T00:28:15.000Z</time>
</trkpt>
<trkpt lat="31.3362100" lon="35.2756600">
<ele>229.000000</ele>
<time>2010-01-01T00:28:24.000Z</time>
</trkpt>
<trkpt lat="31.3363300" lon="35.2756300">
<ele>225.999985</ele>
<time>2010-01-01T00:28:29.000Z</time>
</trkpt>
<trkpt lat="31.3366300" lon="35.2755900">
<ele>222.000000</ele>
<time>2010-01-01T00:28:41.000Z</time>
</trkpt>
<trkpt lat="31.3368700" lon="35.2755600">
<ele>221.000000</ele>
<time>2010-01-01T00:28:50.000Z</time>
</trkpt>
<trkpt lat="31.3371000" lon="35.2755400">
<ele>221.000000</ele>
<time>2010-01-01T00:29:00.000Z</time>
</trkpt>
<trkpt lat="31.3372100" lon="35.2755500">
<ele>220.000000</ele>
<time>2010-01-01T00:29:04.000Z</time>
</trkpt>
<trkpt lat="31.3374000" lon="35.2756100">
<ele>218.000000</ele>
<time>2010-01-01T00:29:12.000Z</time>
</trkpt>
<trkpt lat="31.3376400" lon="35.2756900">
<ele>216.000000</ele>
<time>2010-01-01T00:29:22.000Z</time>
</trkpt>
<trkpt lat="31.3377100" lon="35.2757500">
<ele>215.000000</ele>
<time>2010-01-01T00:29:25.000Z</time>
</trkpt>
<trkpt lat="31.3379300" lon="35.2757700">
<ele>213.000000</ele>
<time>2010-01-01T00:29:34.000Z</time>
</trkpt>
<trkpt lat="31.3380300" lon="35.2759300">
<ele>211.000000</ele>
<time>2010-01-01T00:29:41.000Z</time>
</trkpt>
<trkpt lat="31.3380400" lon="35.2757900">
<ele>212.000015</ele>
<time>2010-01-01T00:29:46.000Z</time>
</trkpt>
<trkpt lat="31.3381200" lon="35.2757400">
<ele>212.000015</ele>
<time>2010-01-01T00:29:49.000Z</time>
</trkpt>
<trkpt lat="31.3381800" lon="35.2756400">
<ele>213.000000</ele>
<time>2010-01-01T00:29:53.000Z</time>
</trkpt>
<trkpt lat="31.3382400" lon="35.2754100">
<ele>216.000000</ele>
<time>2010-01-01T00:30:02.000Z</time>
</trkpt>
<trkpt lat="31.3381900" lon="35.2751800">
<ele>219.000015</ele>
<time>2010-01-01T00:30:10.000Z</time>
</trkpt>
<trkpt lat="31.3381300" lon="35.2749800">
<ele>222.000000</ele>
<time>2010-01-01T00:30:17.000Z</time>
</trkpt>
<trkpt lat="31.3380400" lon="35.2747900">
<ele>224.000000</ele>
<time>2010-01-01T00:30:24.000Z</time>
</trkpt>
<trkpt lat="31.3380400" lon="35.2745800">
<ele>227.000000</ele>
<time>2010-01-01T00:30:32.000Z</time>
</trkpt>
<trkpt lat="31.3381300" lon="35.2745200">
<ele>229.000000</ele>
<time>2010-01-01T00:30:36.000Z</time>
</trkpt>
<trkpt lat="31.3383200" lon="35.2746600">
<ele>231.000000</ele>
<time>2010-01-01T00:30:45.000Z</time>
</trkpt>
<trkpt lat="31.3385700" lon="35.2750300">
<ele>227.000000</ele>
<time>2010-01-01T00:31:01.000Z</time>
</trkpt>
<trkpt lat="31.3388300" lon="35.2749300">
<ele>230.000000</ele>
<time>2010-01-01T00:31:12.000Z</time>
</trkpt>
<trkpt lat="31.3390500" lon="35.2748400">
<ele>232.000000</ele>
<time>2010-01-01T00:31:21.000Z</time>
</trkpt>
<trkpt lat="31.3393000" lon="35.2747800">
<ele>234.000000</ele>
<time>2010-01-01T00:31:31.000Z</time>
</trkpt>
<trkpt lat="31.3394800" lon="35.2747000">
<ele>238.000000</ele>
<time>2010-01-01T00:31:39.000Z</time>
</trkpt>
<trkpt lat="31.3397100" lon="35.2746600">
<ele>243.000000</ele>
<time>2010-01-01T00:31:48.000Z</time>
</trkpt>
<trkpt lat="31.3399000" lon="35.2748300">
<ele>247.000000</ele>
<time>2010-01-01T00:31:58.000Z</time>
</trkpt>
<trkpt lat="31.3400000" lon="35.2750400">
<ele>247.000000</ele>
<time>2010-01-01T00:32:06.000Z</time>
</trkpt>
<trkpt lat="31.3400700" lon="35.2753600">
<ele>246.000000</ele>
<time>2010-01-01T00:32:18.000Z</time>
</trkpt>
<trkpt lat="31.3401400" lon="35.2755900">
<ele>247.000000</ele>
<time>2010-01-01T00:32:26.000Z</time>
</trkpt>
<trkpt lat="31.3401700" lon="35.2756400">
<ele>247.000000</ele>
<time>2010-01-01T00:32:28.000Z</time>
</trkpt>
<trkpt lat="31.3403400" lon="35.2757700">
<ele>250.999985</ele>
<time>2010-01-01T00:32:36.000Z</time>
</trkpt>
<trkpt lat="31.3405100" lon="35.2758800">
<ele>253.000000</ele>
<time>2010-01-01T00:32:44.000Z</time>
</trkpt>
<trkpt lat="31.3407200" lon="35.2760700">
<ele>255.000000</ele>
<time>2010-01-01T00:32:55.000Z</time>
</trkpt>
<trkpt lat="31.3408500" lon="35.2762300">
<ele>258.000000</ele>
<time>2010-01-01T00:33:02.000Z</time>
</trkpt>
<trkpt lat="31.3409500" lon="35.2764700">
<ele>259.000000</ele>
<time>2010-01-01T00:33:11.000Z</time>
</trkpt>
<trkpt lat="31.3409500" lon="35.2766600">
<ele>259.000000</ele>
<time>2010-01-01T00:33:18.000Z</time>
</trkpt>
<trkpt lat="31.3409800" lon="35.2767600">
<ele>255.000000</ele>
<time>2010-01-01T00:33:21.000Z</time>
</trkpt>
<trkpt lat="31.3410000" lon="35.2768200">
<ele>252.000000</ele>
<time>2010-01-01T00:33:24.000Z</time>
</trkpt>
<trkpt lat="31.3411000" lon="35.2769700">
<ele>238.000000</ele>
<time>2010-01-01T00:33:30.000Z</time>
</trkpt>
<trkpt lat="31.3411600" lon="35.2768600">
<ele>243.000000</ele>
<time>2010-01-01T00:33:34.000Z</time>
</trkpt>
<trkpt lat="31.3413800" lon="35.2767300">
<ele>247.000000</ele>
<time>2010-01-01T00:33:44.000Z</time>
</trkpt>
<trkpt lat="31.3414600" lon="35.2766200">
<ele>256.000000</ele>
<time>2010-01-01T00:33:49.000Z</time>
</trkpt>
<trkpt lat="31.3415200" lon="35.2763600">
<ele>270.000000</ele>
<time>2010-01-01T00:33:58.000Z</time>
</trkpt>
<trkpt lat="31.3415600" lon="35.2761400">
<ele>271.000000</ele>
<time>2010-01-01T00:34:06.000Z</time>
</trkpt>
<trkpt lat="31.3416200" lon="35.2759200">
<ele>272.000000</ele>
<time>2010-01-01T00:34:14.000Z</time>
</trkpt>
<trkpt lat="31.3416400" lon="35.2757900">
<ele>274.000000</ele>
<time>2010-01-01T00:34:19.000Z</time>
</trkpt>
<trkpt lat="31.3416700" lon="35.2756600">
<ele>276.000000</ele>
<time>2010-01-01T00:34:23.000Z</time>
</trkpt>
<trkpt lat="31.3417500" lon="35.2753700">
<ele>280.000000</ele>
<time>2010-01-01T00:34:34.000Z</time>
</trkpt>
<trkpt lat="31.3418100" lon="35.2752100">
<ele>281.000000</ele>
<time>2010-01-01T00:34:40.000Z</time>
</trkpt>
<trkpt lat="31.3418900" lon="35.2749800">
<ele>283.000000</ele>
<time>2010-01-01T00:34:48.000Z</time>
</trkpt>
<trkpt lat="31.3419300" lon="35.2747100">
<ele>286.000000</ele>
<time>2010-01-01T00:34:57.000Z</time>
</trkpt>
<trkpt lat="31.3419300" lon="35.2746400">
<ele>288.000000</ele>
<time>2010-01-01T00:35:00.000Z</time>
</trkpt>
<trkpt lat="31.3419800" lon="35.2745000">
<ele>291.000000</ele>
<time>2010-01-01T00:35:05.000Z</time>
</trkpt>
<trkpt lat="31.3420100" lon="35.2744200">
<ele>293.000000</ele>
<time>2010-01-01T00:35:08.000Z</time>
</trkpt>
<trkpt lat="31.3420800" lon="35.2741100">
<ele>296.000000</ele>
<time>2010-01-01T00:35:19.000Z</time>
</trkpt>
<trkpt lat="31.3421000" lon="35.2738700">
<ele>298.000000</ele>
<time>2010-01-01T00:35:27.000Z</time>
</trkpt>
<trkpt lat="31.3420800" lon="35.2736100">
<ele>301.000000</ele>
<time>2010-01-01T00:35:36.000Z</time>
</trkpt>
<trkpt lat="31.3420900" lon="35.2733700">
<ele>304.000000</ele>
<time>2010-01-01T00:35:44.000Z</time>
</trkpt>
<trkpt lat="31.3420900" lon="35.2733600">
<ele>304.000000</ele>
<time>2010-01-01T00:35:45.000Z</time>
</trkpt>
<trkpt lat="31.3421800" lon="35.2732300">
<ele>305.000000</ele>
<time>2010-01-01T00:35:50.000Z</time>
</trkpt>
<trkpt lat="31.3422700" lon="35.2732100">
<ele>306.000000</ele>
<time>2010-01-01T00:35:54.000Z</time>
</trkpt>
<trkpt lat="31.3424500" lon="35.2734000">
<ele>305.000000</ele>
<time>2010-01-01T00:36:04.000Z</time>
</trkpt>
<trkpt lat="31.3425900" lon="35.2736600">
<ele>304.000000</ele>
<time>2010-01-01T00:36:14.000Z</time>
</trkpt>
<trkpt lat="31.3427800" lon="35.2738700">
<ele>307.000000</ele>
<time>2010-01-01T00:36:25.000Z</time>
</trkpt>
<trkpt lat="31.3428800" lon="35.2736600">
<ele>306.000000</ele>
<time>2010-01-01T00:36:33.000Z</time>
</trkpt>
<trkpt lat="31.3428900" lon="35.2733900">
<ele>305.000000</ele>
<time>2010-01-01T00:36:42.000Z</time>
</trkpt>
<trkpt lat="31.3428800" lon="35.2733000">
<ele>306.000000</ele>
<time>2010-01-01T00:36:45.000Z</time>
</trkpt>
<trkpt lat="31.3428200" lon="35.2730600">
<ele>312.000000</ele>
<time>2010-01-01T00:36:54.000Z</time>
</trkpt>
<trkpt lat="31.3428200" lon="35.2729600">
<ele>312.999969</ele>
<time>2010-01-01T00:36:57.000Z</time>
</trkpt>
<trkpt lat="31.3427600" lon="35.2726900">
<ele>317.000000</ele>
<time>2010-01-01T00:37:07.000Z</time>
</trkpt>
<trkpt lat="31.3427200" lon="35.2725100">
<ele>318.000000</ele>
<time>2010-01-01T00:37:13.000Z</time>
</trkpt>
<trkpt lat="31.3427000" lon="35.2723500">
<ele>317.000000</ele>
<time>2010-01-01T00:37:19.000Z</time>
</trkpt>
<trkpt lat="31.3426800" lon="35.2722600">
<ele>318.000000</ele>
<time>2010-01-01T00:37:22.000Z</time>
</trkpt>
<trkpt lat="31.3426600" lon="35.2721800">
<ele>318.000000</ele>
<time>2010-01-01T00:37:25.000Z</time>
</trkpt>
<trkpt lat="31.3426000" lon="35.2719600">
<ele>321.000031</ele>
<time>2010-01-01T00:37:33.000Z</time>
</trkpt>
<trkpt lat="31.3425800" lon="35.2716900">
<ele>323.999969</ele>
<time>2010-01-01T00:37:42.000Z</time>
</trkpt>
<trkpt lat="31.3425500" lon="35.2714200">
<ele>326.000000</ele>
<time>2010-01-01T00:37:51.000Z</time>
</trkpt>
<trkpt lat="31.3425500" lon="35.2711100">
<ele>325.000000</ele>
<time>2010-01-01T00:38:02.000Z</time>
</trkpt>
<trkpt lat="31.3425600" lon="35.2707000">
<ele>325.000000</ele>
<time>2010-01-01T00:38:16.000Z</time>
</trkpt>
<trkpt lat="31.3425700" lon="35.2703200">
<ele>325.000000</ele>
<time>2010-01-01T00:38:29.000Z</time>
</trkpt>
<trkpt lat="31.3425600" lon="35.2699300">
<ele>326.000000</ele>
<time>2010-01-01T00:38:42.000Z</time>
</trkpt>
<trkpt lat="31.3426100" lon="35.2691500">
<ele>329.000000</ele>
<time>2010-01-01T00:39:09.000Z</time>
</trkpt>
<trkpt lat="31.3426100" lon="35.2690900">
<ele>329.000000</ele>
<time>2010-01-01T00:39:11.000Z</time>
</trkpt>
<trkpt lat="31.3426100" lon="35.2687600">
<ele>331.000000</ele>
<time>2010-01-01T00:39:22.000Z</time>
</trkpt>
<trkpt lat="31.3425900" lon="35.2684600">
<ele>333.000000</ele>
<time>2010-01-01T00:39:33.000Z</time>
</trkpt>
<trkpt lat="31.3425500" lon="35.2682400">
<ele>335.000031</ele>
<time>2010-01-01T00:39:40.000Z</time>
</trkpt>
<trkpt lat="31.3425000" lon="35.2679000">
<ele>335.000031</ele>
<time>2010-01-01T00:39:52.000Z</time>
</trkpt>
<trkpt lat="31.3424300" lon="35.2675800">
<ele>337.000000</ele>
<time>2010-01-01T00:40:03.000Z</time>
</trkpt>
<trkpt lat="31.3424200" lon="35.2671900">
<ele>341.000000</ele>
<time>2010-01-01T00:40:17.000Z</time>
</trkpt>
<trkpt lat="31.3425700" lon="35.2667200">
<ele>345.000000</ele>
<time>2010-01-01T00:40:34.000Z</time>
</trkpt>
<trkpt lat="31.3426600" lon="35.2664300">
<ele>346.000031</ele>
<time>2010-01-01T00:40:44.000Z</time>
</trkpt>
<trkpt lat="31.3426500" lon="35.2662600">
<ele>347.000000</ele>
<time>2010-01-01T00:40:50.000Z</time>
</trkpt>
<trkpt lat="31.3426400" lon="35.2661200">
<ele>347.000000</ele>
<time>2010-01-01T00:40:55.000Z</time>
</trkpt>
<trkpt lat="31.3426000" lon="35.2658300">
<ele>346.000031</ele>
<time>2010-01-01T00:41:05.000Z</time>
</trkpt>
<trkpt lat="31.3425300" lon="35.2653200">
<ele>342.000000</ele>
<time>2010-01-01T00:41:23.000Z</time>
</trkpt>
<trkpt lat="31.3425100" lon="35.2651600">
<ele>342.000000</ele>
<time>2010-01-01T00:41:28.000Z</time>
</trkpt>
<trkpt lat="31.3424200" lon="35.2646000">
<ele>344.000000</ele>
<time>2010-01-01T00:41:48.000Z</time>
</trkpt>
<trkpt lat="31.3424000" lon="35.2643900">
<ele>345.000000</ele>
<time>2010-01-01T00:41:55.000Z</time>
</trkpt>
<trkpt lat="31.3422700" lon="35.2639300">
<ele>348.000000</ele>
<time>2010-01-01T00:42:11.000Z</time>
</trkpt>
<trkpt lat="31.3419600" lon="35.2633100">
<ele>351.000000</ele>
<time>2010-01-01T00:42:36.000Z</time>
</trkpt>
<trkpt lat="31.3416600" lon="35.2627100">
<ele>350.000000</ele>
<time>2010-01-01T00:43:00.000Z</time>
</trkpt>
<trkpt lat="31.3415600" lon="35.2623000">
<ele>353.000000</ele>
<time>2010-01-01T00:43:14.000Z</time>
</trkpt>
<trkpt lat="31.3417900" lon="35.2617000">
<ele>342.000000</ele>
<time>2010-01-01T00:43:37.000Z</time>
</trkpt>
<trkpt lat="31.3418000" lon="35.2616600">
<ele>342.000000</ele>
<time>2010-01-01T00:43:38.000Z</time>
</trkpt>
<trkpt lat="31.3418100" lon="35.2614700">
<ele>341.000000</ele>
<time>2010-01-01T00:43:45.000Z</time>
</trkpt>
<trkpt lat="31.3417300" lon="35.2610400">
<ele>339.000000</ele>
<time>2010-01-01T00:44:00.000Z</time>
</trkpt>
<trkpt lat="31.3417000" lon="35.2608500">
<ele>337.999969</ele>
<time>2010-01-01T00:44:06.000Z</time>
</trkpt>
<trkpt lat="31.3416400" lon="35.2607000">
<ele>337.000000</ele>
<time>2010-01-01T00:44:12.000Z</time>
</trkpt>
<trkpt lat="31.3416100" lon="35.2605400">
<ele>336.000000</ele>
<time>2010-01-01T00:44:18.000Z</time>
</trkpt>
<trkpt lat="31.3416500" lon="35.2604000">
<ele>334.000000</ele>
<time>2010-01-01T00:44:23.000Z</time>
</trkpt>
<trkpt lat="31.3417800" lon="35.2601800">
<ele>331.000000</ele>
<time>2010-01-01T00:44:32.000Z</time>
</trkpt>
<trkpt lat="31.3418000" lon="35.2601400">
<ele>330.000000</ele>
<time>2010-01-01T00:44:34.000Z</time>
</trkpt>
<trkpt lat="31.3419200" lon="35.2598900">
<ele>330.000000</ele>
<time>2010-01-01T00:44:43.000Z</time>
</trkpt>
<trkpt lat="31.3422000" lon="35.2594800">
<ele>326.000000</ele>
<time>2010-01-01T00:45:01.000Z</time>
</trkpt>
<trkpt lat="31.3421900" lon="35.2590700">
<ele>320.000000</ele>
<time>2010-01-01T00:45:15.000Z</time>
</trkpt>
<trkpt lat="31.3418900" lon="35.2588300">
<ele>320.000000</ele>
<time>2010-01-01T00:45:30.000Z</time>
</trkpt>
<trkpt lat="31.3417000" lon="35.2586500">
<ele>323.000000</ele>
<time>2010-01-01T00:45:40.000Z</time>
</trkpt>
<trkpt lat="31.3414300" lon="35.2584200">
<ele>328.000000</ele>
<time>2010-01-01T00:45:53.000Z</time>
</trkpt>
<trkpt lat="31.3415900" lon="35.2582800">
<ele>326.999969</ele>
<time>2010-01-01T00:46:01.000Z</time>
</trkpt>
<trkpt lat="31.3417900" lon="35.2583900">
<ele>322.000000</ele>
<time>2010-01-01T00:46:10.000Z</time>
</trkpt>
<trkpt lat="31.3418700" lon="35.2584000">
<ele>321.000031</ele>
<time>2010-01-01T00:46:13.000Z</time>
</trkpt>
<trkpt lat="31.3422300" lon="35.2583300">
<ele>312.999969</ele>
<time>2010-01-01T00:46:28.000Z</time>
</trkpt>
<trkpt lat="31.3422800" lon="35.2582600">
<ele>312.999969</ele>
<time>2010-01-01T00:46:31.000Z</time>
</trkpt>
<trkpt lat="31.3424300" lon="35.2580400">
<ele>310.000000</ele>
<time>2010-01-01T00:46:40.000Z</time>
</trkpt>
<trkpt lat="31.3425000" lon="35.2577900">
<ele>310.000000</ele>
<time>2010-01-01T00:46:49.000Z</time>
</trkpt>
<trkpt lat="31.3423700" lon="35.2574500">
<ele>312.999969</ele>
<time>2010-01-01T00:47:02.000Z</time>
</trkpt>
<trkpt lat="31.3422700" lon="35.2572300">
<ele>314.000000</ele>
<time>2010-01-01T00:47:11.000Z</time>
</trkpt>
<trkpt lat="31.3421200" lon="35.2571200">
<ele>315.000000</ele>
<time>2010-01-01T00:47:18.000Z</time>
</trkpt>
<trkpt lat="31.3420400" lon="35.2569300">
<ele>315.000000</ele>
<time>2010-01-01T00:47:25.000Z</time>
</trkpt>
<trkpt lat="31.3420600" lon="35.2568900">
<ele>315.000000</ele>
<time>2010-01-01T00:47:27.000Z</time>
</trkpt>
<trkpt lat="31.3422900" lon="35.2569300">
<ele>315.000000</ele>
<time>2010-01-01T00:47:36.000Z</time>
</trkpt>
<trkpt lat="31.3425700" lon="35.2571200">
<ele>316.000000</ele>
<time>2010-01-01T00:47:49.000Z</time>
</trkpt>
<trkpt lat="31.3429600" lon="35.2575300">
<ele>316.000000</ele>
<time>2010-01-01T00:48:10.000Z</time>
</trkpt>
<trkpt lat="31.3431300" lon="35.2579200">
<ele>312.999969</ele>
<time>2010-01-01T00:48:25.000Z</time>
</trkpt>
<trkpt lat="31.3435900" lon="35.2581300">
<ele>312.000000</ele>
<time>2010-01-01T00:48:45.000Z</time>
</trkpt>
<trkpt lat="31.3440600" lon="35.2582200">
<ele>308.000000</ele>
<time>2010-01-01T00:49:04.000Z</time>
</trkpt>
<trkpt lat="31.3442400" lon="35.2582300">
<ele>306.000000</ele>
<time>2010-01-01T00:49:11.000Z</time>
</trkpt>
<trkpt lat="31.3445900" lon="35.2578700">
<ele>303.000000</ele>
<time>2010-01-01T00:49:29.000Z</time>
</trkpt>
<trkpt lat="31.3446300" lon="35.2577200">
<ele>304.000000</ele>
<time>2010-01-01T00:49:35.000Z</time>
</trkpt>
<trkpt lat="31.3447100" lon="35.2573600">
<ele>307.000000</ele>
<time>2010-01-01T00:49:48.000Z</time>
</trkpt>
<trkpt lat="31.3452600" lon="35.2570300">
<ele>307.000000</ele>
<time>2010-01-01T00:50:12.000Z</time>
</trkpt>
<trkpt lat="31.3454600" lon="35.2568700">
<ele>309.000000</ele>
<time>2010-01-01T00:50:22.000Z</time>
</trkpt>
<trkpt lat="31.3457000" lon="35.2568700">
<ele>308.000000</ele>
<time>2010-01-01T00:50:32.000Z</time>
</trkpt>
<trkpt lat="31.3459000" lon="35.2568400">
<ele>309.000000</ele>
<time>2010-01-01T00:50:40.000Z</time>
</trkpt>
<trkpt lat="31.3460900" lon="35.2567700">
<ele>310.000000</ele>
<time>2010-01-01T00:50:48.000Z</time>
</trkpt>
<trkpt lat="31.3461400" lon="35.2567400">
<ele>311.000000</ele>
<time>2010-01-01T00:50:50.000Z</time>
</trkpt>
<trkpt lat="31.3462800" lon="35.2566200">
<ele>312.999969</ele>
<time>2010-01-01T00:50:57.000Z</time>
</trkpt>
<trkpt lat="31.3463400" lon="35.2566000">
<ele>312.999969</ele>
<time>2010-01-01T00:50:59.000Z</time>
</trkpt>
<trkpt lat="31.3465700" lon="35.2564300">
<ele>312.999969</ele>
<time>2010-01-01T00:51:10.000Z</time>
</trkpt>
<trkpt lat="31.3465500" lon="35.2560000">
<ele>312.999969</ele>
<time>2010-01-01T00:51:25.000Z</time>
</trkpt>
<trkpt lat="31.3464100" lon="35.2554300">
<ele>314.000000</ele>
<time>2010-01-01T00:51:45.000Z</time>
</trkpt>
<trkpt lat="31.3462700" lon="35.2546400">
<ele>312.999969</ele>
<time>2010-01-01T00:52:13.000Z</time>
</trkpt>
<trkpt lat="31.3463000" lon="35.2545500">
<ele>312.000000</ele>
<time>2010-01-01T00:52:16.000Z</time>
</trkpt>
<trkpt lat="31.3463900" lon="35.2545000">
<ele>311.000000</ele>
<time>2010-01-01T00:52:20.000Z</time>
</trkpt>
<trkpt lat="31.3464300" lon="35.2544800">
<ele>312.000000</ele>
<time>2010-01-01T00:52:22.000Z</time>
</trkpt>
<trkpt lat="31.3465000" lon="35.2545200">
<ele>312.000000</ele>
<time>2010-01-01T00:52:25.000Z</time>
</trkpt>
<trkpt lat="31.3466700" lon="35.2547800">
<ele>312.000000</ele>
<time>2010-01-01T00:52:36.000Z</time>
</trkpt>
<trkpt lat="31.3468200" lon="35.2550100">
<ele>314.000000</ele>
<time>2010-01-01T00:52:46.000Z</time>
</trkpt>
<trkpt lat="31.3469300" lon="35.2552400">
<ele>315.000000</ele>
<time>2010-01-01T00:52:55.000Z</time>
</trkpt>
<trkpt lat="31.3470700" lon="35.2553900">
<ele>317.000000</ele>
<time>2010-01-01T00:53:03.000Z</time>
</trkpt>
<trkpt lat="31.3473100" lon="35.2555900">
<ele>319.000000</ele>
<time>2010-01-01T00:53:14.000Z</time>
</trkpt>
<trkpt lat="31.3475700" lon="35.2558000">
<ele>321.000031</ele>
<time>2010-01-01T00:53:27.000Z</time>
</trkpt>
<trkpt lat="31.3477400" lon="35.2559200">
<ele>322.000000</ele>
<time>2010-01-01T00:53:35.000Z</time>
</trkpt>
<trkpt lat="31.3479100" lon="35.2559600">
<ele>323.999969</ele>
<time>2010-01-01T00:53:42.000Z</time>
</trkpt>
<trkpt lat="31.3481100" lon="35.2559200">
<ele>326.999969</ele>
<time>2010-01-01T00:53:50.000Z</time>
</trkpt>
<trkpt lat="31.3483000" lon="35.2558800">
<ele>330.000000</ele>
<time>2010-01-01T00:53:58.000Z</time>
</trkpt>
<trkpt lat="31.3483300" lon="35.2560600">
<ele>330.000000</ele>
<time>2010-01-01T00:54:04.000Z</time>
</trkpt>
<trkpt lat="31.3480900" lon="35.2564100">
<ele>329.000000</ele>
<time>2010-01-01T00:54:19.000Z</time>
</trkpt>
<trkpt lat="31.3480100" lon="35.2567700">
<ele>328.000000</ele>
<time>2010-01-01T00:54:32.000Z</time>
</trkpt>
<trkpt lat="31.3480300" lon="35.2569700">
<ele>329.000000</ele>
<time>2010-01-01T00:54:39.000Z</time>
</trkpt>
<trkpt lat="31.3481400" lon="35.2572300">
<ele>335.000031</ele>
<time>2010-01-01T00:54:49.000Z</time>
</trkpt>
<trkpt lat="31.3482700" lon="35.2574000">
<ele>337.999969</ele>
<time>2010-01-01T00:54:57.000Z</time>
</trkpt>
<trkpt lat="31.3484600" lon="35.2575700">
<ele>341.000000</ele>
<time>2010-01-01T00:55:06.000Z</time>
</trkpt>
<trkpt lat="31.3486600" lon="35.2577300">
<ele>341.000000</ele>
<time>2010-01-01T00:55:16.000Z</time>
</trkpt>
<trkpt lat="31.3487700" lon="35.2577600">
<ele>339.000000</ele>
<time>2010-01-01T00:55:21.000Z</time>
</trkpt>
<trkpt lat="31.3491700" lon="35.2577800">
<ele>337.999969</ele>
<time>2010-01-01T00:55:37.000Z</time>
</trkpt>
<trkpt lat="31.3493100" lon="35.2577700">
<ele>339.000000</ele>
<time>2010-01-01T00:55:42.000Z</time>
</trkpt>
<trkpt lat="31.3495600" lon="35.2580400">
<ele>337.999969</ele>
<time>2010-01-01T00:55:56.000Z</time>
</trkpt>
<trkpt lat="31.3491400" lon="35.2587200">
<ele>332.000000</ele>
<time>2010-01-01T00:56:24.000Z</time>
</trkpt>
<trkpt lat="31.3490700" lon="35.2587900">
<ele>331.000000</ele>
<time>2010-01-01T00:56:28.000Z</time>
</trkpt>
<trkpt lat="31.3489300" lon="35.2589800">
<ele>329.000000</ele>
<time>2010-01-01T00:56:37.000Z</time>
</trkpt>
<trkpt lat="31.3489100" lon="35.2593800">
<ele>326.000000</ele>
<time>2010-01-01T00:56:50.000Z</time>
</trkpt>
<trkpt lat="31.3490600" lon="35.2599800">
<ele>322.000000</ele>
<time>2010-01-01T00:57:12.000Z</time>
</trkpt>
<trkpt lat="31.3494100" lon="35.2601200">
<ele>322.000000</ele>
<time>2010-01-01T00:57:27.000Z</time>
</trkpt>
<trkpt lat="31.3502400" lon="35.2597000">
<ele>319.000000</ele>
<time>2010-01-01T00:58:03.000Z</time>
</trkpt>
<trkpt lat="31.3502900" lon="35.2596600">
<ele>320.000000</ele>
<time>2010-01-01T00:58:05.000Z</time>
</trkpt>
<trkpt lat="31.3506600" lon="35.2592800">
<ele>326.000000</ele>
<time>2010-01-01T00:58:25.000Z</time>
</trkpt>
<trkpt lat="31.3508300" lon="35.2591300">
<ele>326.000000</ele>
<time>2010-01-01T00:58:33.000Z</time>
</trkpt>
<trkpt lat="31.3511000" lon="35.2586500">
<ele>330.000000</ele>
<time>2010-01-01T00:58:53.000Z</time>
</trkpt>
<trkpt lat="31.3514000" lon="35.2582500">
<ele>326.000000</ele>
<time>2010-01-01T00:59:11.000Z</time>
</trkpt>
<trkpt lat="31.3516400" lon="35.2580300">
<ele>325.000000</ele>
<time>2010-01-01T00:59:24.000Z</time>
</trkpt>
<trkpt lat="31.3517500" lon="35.2579800">
<ele>325.000000</ele>
<time>2010-01-01T00:59:28.000Z</time>
</trkpt>
<trkpt lat="31.3520100" lon="35.2577200">
<ele>323.999969</ele>
<time>2010-01-01T00:59:42.000Z</time>
</trkpt>
<trkpt lat="31.3521500" lon="35.2574300">
<ele>323.000000</ele>
<time>2010-01-01T00:59:53.000Z</time>
</trkpt>
<trkpt lat="31.3521900" lon="35.2573300">
<ele>323.999969</ele>
<time>2010-01-01T00:59:57.000Z</time>
</trkpt>
<trkpt lat="31.3522800" lon="35.2573000">
<ele>323.999969</ele>
<time>2010-01-01T01:00:01.000Z</time>
</trkpt>
<trkpt lat="31.3523900" lon="35.2572600">
<ele>325.000000</ele>
<time>2010-01-01T01:00:05.000Z</time>
</trkpt>
<trkpt lat="31.3525700" lon="35.2571400">
<ele>326.000000</ele>
<time>2010-01-01T01:00:14.000Z</time>
</trkpt>
<trkpt lat="31.3527700" lon="35.2569900">
<ele>328.000000</ele>
<time>2010-01-01T01:00:23.000Z</time>
</trkpt>
<trkpt lat="31.3529600" lon="35.2568500">
<ele>330.000000</ele>
<time>2010-01-01T01:00:32.000Z</time>
</trkpt>
<trkpt lat="31.3531100" lon="35.2567400">
<ele>332.000000</ele>
<time>2010-01-01T01:00:39.000Z</time>
</trkpt>
<trkpt lat="31.3533300" lon="35.2566200">
<ele>334.000000</ele>
<time>2010-01-01T01:00:49.000Z</time>
</trkpt>
<trkpt lat="31.3535800" lon="35.2565300">
<ele>335.000031</ele>
<time>2010-01-01T01:01:00.000Z</time>
</trkpt>
<trkpt lat="31.3539300" lon="35.2564300">
<ele>336.000000</ele>
<time>2010-01-01T01:01:14.000Z</time>
</trkpt>
<trkpt lat="31.3543000" lon="35.2563300">
<ele>337.000000</ele>
<time>2010-01-01T01:01:29.000Z</time>
</trkpt>
<trkpt lat="31.3545000" lon="35.2564000">
<ele>337.000000</ele>
<time>2010-01-01T01:01:37.000Z</time>
</trkpt>
<trkpt lat="31.3545600" lon="35.2563900">
<ele>337.000000</ele>
<time>2010-01-01T01:01:40.000Z</time>
</trkpt>
<trkpt lat="31.3548500" lon="35.2563500">
<ele>339.000000</ele>
<time>2010-01-01T01:01:52.000Z</time>
</trkpt>
<trkpt lat="31.3551600" lon="35.2563900">
<ele>341.000000</ele>
<time>2010-01-01T01:02:04.000Z</time>
</trkpt>
<trkpt lat="31.3553800" lon="35.2564000">
<ele>343.000000</ele>
<time>2010-01-01T01:02:13.000Z</time>
</trkpt>
<trkpt lat="31.3555200" lon="35.2564000">
<ele>344.000000</ele>
<time>2010-01-01T01:02:18.000Z</time>
</trkpt>
<trkpt lat="31.3557800" lon="35.2563900">
<ele>346.000031</ele>
<time>2010-01-01T01:02:29.000Z</time>
</trkpt>
<trkpt lat="31.3560000" lon="35.2563600">
<ele>348.000000</ele>
<time>2010-01-01T01:02:38.000Z</time>
</trkpt>
<trkpt lat="31.3562500" lon="35.2563600">
<ele>350.000000</ele>
<time>2010-01-01T01:02:48.000Z</time>
</trkpt>
<trkpt lat="31.3564700" lon="35.2563500">
<ele>351.000000</ele>
<time>2010-01-01T01:02:57.000Z</time>
</trkpt>
<trkpt lat="31.3566400" lon="35.2563500">
<ele>353.000000</ele>
<time>2010-01-01T01:03:03.000Z</time>
</trkpt>
<trkpt lat="31.3568800" lon="35.2563300">
<ele>354.000000</ele>
<time>2010-01-01T01:03:13.000Z</time>
</trkpt>
<trkpt lat="31.3570900" lon="35.2562600">
<ele>355.000000</ele>
<time>2010-01-01T01:03:22.000Z</time>
</trkpt>
<trkpt lat="31.3573900" lon="35.2561700">
<ele>357.000000</ele>
<time>2010-01-01T01:03:34.000Z</time>
</trkpt>
<trkpt lat="31.3577900" lon="35.2560800">
<ele>358.000000</ele>
<time>2010-01-01T01:03:50.000Z</time>
</trkpt>
<trkpt lat="31.3581300" lon="35.2558400">
<ele>361.000000</ele>
<time>2010-01-01T01:04:06.000Z</time>
</trkpt>
<trkpt lat="31.3583400" lon="35.2554400">
<ele>362.999969</ele>
<time>2010-01-01T01:04:22.000Z</time>
</trkpt>
<trkpt lat="31.3585100" lon="35.2551600">
<ele>364.000000</ele>
<time>2010-01-01T01:04:34.000Z</time>
</trkpt>
<trkpt lat="31.3585300" lon="35.2550200">
<ele>364.000000</ele>
<time>2010-01-01T01:04:39.000Z</time>
</trkpt>
<trkpt lat="31.3586100" lon="35.2545500">
<ele>366.000000</ele>
<time>2010-01-01T01:04:55.000Z</time>
</trkpt>
<trkpt lat="31.3587100" lon="35.2539900">
<ele>369.000000</ele>
<time>2010-01-01T01:05:15.000Z</time>
</trkpt>
<trkpt lat="31.3587300" lon="35.2536600">
<ele>371.000000</ele>
<time>2010-01-01T01:05:26.000Z</time>
</trkpt>
<trkpt lat="31.3588000" lon="35.2532900">
<ele>371.000000</ele>
<time>2010-01-01T01:05:39.000Z</time>
</trkpt>
<trkpt lat="31.3588900" lon="35.2529700">
<ele>373.000000</ele>
<time>2010-01-01T01:05:51.000Z</time>
</trkpt>
<trkpt lat="31.3589500" lon="35.2526900">
<ele>375.000000</ele>
<time>2010-01-01T01:06:01.000Z</time>
</trkpt>
<trkpt lat="31.3590500" lon="35.2523400">
<ele>376.000000</ele>
<time>2010-01-01T01:06:13.000Z</time>
</trkpt>
<trkpt lat="31.3592800" lon="35.2521500">
<ele>378.000000</ele>
<time>2010-01-01T01:06:24.000Z</time>
</trkpt>
<trkpt lat="31.3594700" lon="35.2520400">
<ele>379.000000</ele>
<time>2010-01-01T01:06:33.000Z</time>
</trkpt>
<trkpt lat="31.3595500" lon="35.2520000">
<ele>380.000000</ele>
<time>2010-01-01T01:06:36.000Z</time>
</trkpt>
<trkpt lat="31.3596900" lon="35.2519000">
<ele>382.000000</ele>
<time>2010-01-01T01:06:43.000Z</time>
</trkpt>
<trkpt lat="31.3598600" lon="35.2517700">
<ele>384.000000</ele>
<time>2010-01-01T01:06:51.000Z</time>
</trkpt>
<trkpt lat="31.3599900" lon="35.2516800">
<ele>386.000000</ele>
<time>2010-01-01T01:06:57.000Z</time>
</trkpt>
<trkpt lat="31.3602000" lon="35.2515100">
<ele>387.999969</ele>
<time>2010-01-01T01:07:07.000Z</time>
</trkpt>
<trkpt lat="31.3604200" lon="35.2513500">
<ele>390.000000</ele>
<time>2010-01-01T01:07:18.000Z</time>
</trkpt>
<trkpt lat="31.3606900" lon="35.2512000">
<ele>393.000000</ele>
<time>2010-01-01T01:07:30.000Z</time>
</trkpt>
<trkpt lat="31.3610500" lon="35.2508800">
<ele>396.000000</ele>
<time>2010-01-01T01:07:48.000Z</time>
</trkpt>
<trkpt lat="31.3612100" lon="35.2507000">
<ele>396.000000</ele>
<time>2010-01-01T01:07:57.000Z</time>
</trkpt>
<trkpt lat="31.3614100" lon="35.2505500">
<ele>398.000000</ele>
<time>2010-01-01T01:08:06.000Z</time>
</trkpt>
<trkpt lat="31.3616300" lon="35.2504600">
<ele>400.000000</ele>
<time>2010-01-01T01:08:16.000Z</time>
</trkpt>
<trkpt lat="31.3618200" lon="35.2503700">
<ele>403.000000</ele>
<time>2010-01-01T01:08:24.000Z</time>
</trkpt>
<trkpt lat="31.3620100" lon="35.2503900">
<ele>405.000000</ele>
<time>2010-01-01T01:08:31.000Z</time>
</trkpt>
<trkpt lat="31.3622100" lon="35.2504300">
<ele>408.000000</ele>
<time>2010-01-01T01:08:40.000Z</time>
</trkpt>
<trkpt lat="31.3624500" lon="35.2503600">
<ele>411.000000</ele>
<time>2010-01-01T01:08:49.000Z</time>
</trkpt>
<trkpt lat="31.3625100" lon="35.2503300">
<ele>412.000000</ele>
<time>2010-01-01T01:08:52.000Z</time>
</trkpt>
<trkpt lat="31.3625400" lon="35.2503000">
<ele>412.000000</ele>
<time>2010-01-01T01:08:54.000Z</time>
</trkpt>
<trkpt lat="31.3625700" lon="35.2502800">
<ele>412.999969</ele>
<time>2010-01-01T01:08:55.000Z</time>
</trkpt>
<trkpt lat="31.3627000" lon="35.2501400">
<ele>414.000000</ele>
<time>2010-01-01T01:09:02.000Z</time>
</trkpt>
<trkpt lat="31.3628700" lon="35.2500400">
<ele>415.000000</ele>
<time>2010-01-01T01:09:10.000Z</time>
</trkpt>
<trkpt lat="31.3630400" lon="35.2500200">
<ele>415.999969</ele>
<time>2010-01-01T01:09:17.000Z</time>
</trkpt>
<trkpt lat="31.3631900" lon="35.2500200">
<ele>417.000000</ele>
<time>2010-01-01T01:09:23.000Z</time>
</trkpt>
<trkpt lat="31.3633500" lon="35.2499200">
<ele>418.000000</ele>
<time>2010-01-01T01:09:30.000Z</time>
</trkpt>
<trkpt lat="31.3633600" lon="35.2497500">
<ele>420.000000</ele>
<time>2010-01-01T01:09:36.000Z</time>
</trkpt>
<trkpt lat="31.3632700" lon="35.2494700">
<ele>422.000000</ele>
<time>2010-01-01T01:09:46.000Z</time>
</trkpt>
<trkpt lat="31.3631700" lon="35.2491500">
<ele>424.000031</ele>
<time>2010-01-01T01:09:57.000Z</time>
</trkpt>
<trkpt lat="31.3630500" lon="35.2489700">
<ele>423.000000</ele>
<time>2010-01-01T01:10:05.000Z</time>
</trkpt>
<trkpt lat="31.3629800" lon="35.2488700">
<ele>423.000000</ele>
<time>2010-01-01T01:10:10.000Z</time>
</trkpt>
<trkpt lat="31.3628300" lon="35.2484800">
<ele>426.000000</ele>
<time>2010-01-01T01:10:24.000Z</time>
</trkpt>
<trkpt lat="31.3626600" lon="35.2480600">
<ele>429.000000</ele>
<time>2010-01-01T01:10:40.000Z</time>
</trkpt>
<trkpt lat="31.3625200" lon="35.2476800">
<ele>429.000000</ele>
<time>2010-01-01T01:10:54.000Z</time>
</trkpt>
<trkpt lat="31.3624800" lon="35.2475600">
<ele>429.000000</ele>
<time>2010-01-01T01:10:59.000Z</time>
</trkpt>
<trkpt lat="31.3624800" lon="35.2475500">
<ele>429.000000</ele>
<time>2010-01-01T01:10:59.000Z</time>
</trkpt>
<trkpt lat="31.3624100" lon="35.2474700">
<ele>430.000000</ele>
<time>2010-01-01T01:11:03.000Z</time>
</trkpt>
<trkpt lat="31.3622400" lon="35.2472700">
<ele>431.000000</ele>
<time>2010-01-01T01:11:13.000Z</time>
</trkpt>
<trkpt lat="31.3620200" lon="35.2471200">
<ele>432.000000</ele>
<time>2010-01-01T01:11:23.000Z</time>
</trkpt>
<trkpt lat="31.3618100" lon="35.2469900">
<ele>433.000000</ele>
<time>2010-01-01T01:11:32.000Z</time>
</trkpt>
<trkpt lat="31.3615800" lon="35.2467200">
<ele>436.000000</ele>
<time>2010-01-01T01:11:45.000Z</time>
</trkpt>
<trkpt lat="31.3614700" lon="35.2464400">
<ele>439.000000</ele>
<time>2010-01-01T01:11:56.000Z</time>
</trkpt>
<trkpt lat="31.3612200" lon="35.2461400">
<ele>442.000000</ele>
<time>2010-01-01T01:12:10.000Z</time>
</trkpt>
<trkpt lat="31.3610200" lon="35.2458000">
<ele>444.000000</ele>
<time>2010-01-01T01:12:24.000Z</time>
</trkpt>
<trkpt lat="31.3608900" lon="35.2455200">
<ele>444.000000</ele>
<time>2010-01-01T01:12:35.000Z</time>
</trkpt>
<trkpt lat="31.3608800" lon="35.2452300">
<ele>445.000000</ele>
<time>2010-01-01T01:12:45.000Z</time>
</trkpt>
<trkpt lat="31.3610300" lon="35.2450600">
<ele>445.000000</ele>
<time>2010-01-01T01:12:54.000Z</time>
</trkpt>
<trkpt lat="31.3612400" lon="35.2448700">
<ele>446.000000</ele>
<time>2010-01-01T01:13:04.000Z</time>
</trkpt>
<trkpt lat="31.3614300" lon="35.2446600">
<ele>447.000000</ele>
<time>2010-01-01T01:13:15.000Z</time>
</trkpt>
<trkpt lat="31.3615300" lon="35.2445100">
<ele>446.000000</ele>
<time>2010-01-01T01:13:21.000Z</time>
</trkpt>
<trkpt lat="31.3616000" lon="35.2444200">
<ele>446.000000</ele>
<time>2010-01-01T01:13:25.000Z</time>
</trkpt>
<trkpt lat="31.3616700" lon="35.2443500">
<ele>447.000000</ele>
<time>2010-01-01T01:13:29.000Z</time>
</trkpt>
<trkpt lat="31.3618400" lon="35.2442100">
<ele>449.000031</ele>
<time>2010-01-01T01:13:37.000Z</time>
</trkpt>
<trkpt lat="31.3621400" lon="35.2441000">
<ele>451.000000</ele>
<time>2010-01-01T01:13:50.000Z</time>
</trkpt>
<trkpt lat="31.3622700" lon="35.2440800">
<ele>451.999969</ele>
<time>2010-01-01T01:13:55.000Z</time>
</trkpt>
<trkpt lat="31.3625200" lon="35.2440200">
<ele>453.000000</ele>
<time>2010-01-01T01:14:05.000Z</time>
</trkpt>
<trkpt lat="31.3626400" lon="35.2440000">
<ele>454.000000</ele>
<time>2010-01-01T01:14:10.000Z</time>
</trkpt>
<trkpt lat="31.3628800" lon="35.2439800">
<ele>455.000000</ele>
<time>2010-01-01T01:14:20.000Z</time>
</trkpt>
<trkpt lat="31.3631200" lon="35.2440000">
<ele>456.000000</ele>
<time>2010-01-01T01:14:29.000Z</time>
</trkpt>
<trkpt lat="31.3632400" lon="35.2439600">
<ele>456.000000</ele>
<time>2010-01-01T01:14:34.000Z</time>
</trkpt>
<trkpt lat="31.3633200" lon="35.2438800">
<ele>456.000000</ele>
<time>2010-01-01T01:14:39.000Z</time>
</trkpt>
<trkpt lat="31.3634200" lon="35.2437300">
<ele>456.000000</ele>
<time>2010-01-01T01:14:45.000Z</time>
</trkpt>
<trkpt lat="31.3636800" lon="35.2433500">
<ele>456.000000</ele>
<time>2010-01-01T01:15:02.000Z</time>
</trkpt>
<trkpt lat="31.3639000" lon="35.2432200">
<ele>455.000000</ele>
<time>2010-01-01T01:15:12.000Z</time>
</trkpt>
<trkpt lat="31.3640600" lon="35.2432900">
<ele>455.000000</ele>
<time>2010-01-01T01:15:19.000Z</time>
</trkpt>
<trkpt lat="31.3642900" lon="35.2433500">
<ele>454.000000</ele>
<time>2010-01-01T01:15:28.000Z</time>
</trkpt>
<trkpt lat="31.3645900" lon="35.2433500">
<ele>453.000000</ele>
<time>2010-01-01T01:15:40.000Z</time>
</trkpt>
<trkpt lat="31.3646700" lon="35.2433500">
<ele>453.000000</ele>
<time>2010-01-01T01:15:43.000Z</time>
</trkpt>
<trkpt lat="31.3647400" lon="35.2433500">
<ele>454.000000</ele>
<time>2010-01-01T01:15:46.000Z</time>
</trkpt>
<trkpt lat="31.3650800" lon="35.2434100">
<ele>457.000000</ele>
<time>2010-01-01T01:16:00.000Z</time>
</trkpt>
<trkpt lat="31.3652800" lon="35.2436400">
<ele>457.000000</ele>
<time>2010-01-01T01:16:11.000Z</time>
</trkpt>
<trkpt lat="31.3655400" lon="35.2437200">
<ele>459.000000</ele>
<time>2010-01-01T01:16:22.000Z</time>
</trkpt>
<trkpt lat="31.3656900" lon="35.2438000">
<ele>460.000000</ele>
<time>2010-01-01T01:16:28.000Z</time>
</trkpt>
<trkpt lat="31.3659600" lon="35.2438800">
<ele>461.000000</ele>
<time>2010-01-01T01:16:39.000Z</time>
</trkpt>
<trkpt lat="31.3660900" lon="35.2438900">
<ele>461.000000</ele>
<time>2010-01-01T01:16:45.000Z</time>
</trkpt>
<trkpt lat="31.3663700" lon="35.2438900">
<ele>462.000000</ele>
<time>2010-01-01T01:16:56.000Z</time>
</trkpt>
<trkpt lat="31.3664300" lon="35.2439600">
<ele>462.000000</ele>
<time>2010-01-01T01:16:59.000Z</time>
</trkpt>
<trkpt lat="31.3664900" lon="35.2443500">
<ele>462.000000</ele>
<time>2010-01-01T01:17:13.000Z</time>
</trkpt>
<trkpt lat="31.3665800" lon="35.2446600">
<ele>463.000031</ele>
<time>2010-01-01T01:17:24.000Z</time>
</trkpt>
<trkpt lat="31.3666200" lon="35.2447800">
<ele>463.000031</ele>
<time>2010-01-01T01:17:28.000Z</time>
</trkpt>
<trkpt lat="31.3666500" lon="35.2449000">
<ele>462.000000</ele>
<time>2010-01-01T01:17:33.000Z</time>
</trkpt>
<trkpt lat="31.3667600" lon="35.2451500">
<ele>460.000000</ele>
<time>2010-01-01T01:17:42.000Z</time>
</trkpt>
<trkpt lat="31.3667900" lon="35.2452300">
<ele>459.000000</ele>
<time>2010-01-01T01:17:45.000Z</time>
</trkpt>
<trkpt lat="31.3669500" lon="35.2455700">
<ele>456.000000</ele>
<time>2010-01-01T01:17:59.000Z</time>
</trkpt>
<trkpt lat="31.3670300" lon="35.2457500">
<ele>455.000000</ele>
<time>2010-01-01T01:18:05.000Z</time>
</trkpt>
<trkpt lat="31.3670600" lon="35.2462500">
<ele>451.000000</ele>
<time>2010-01-01T01:18:23.000Z</time>
</trkpt>
<trkpt lat="31.3670100" lon="35.2464300">
<ele>450.000000</ele>
<time>2010-01-01T01:18:29.000Z</time>
</trkpt>
<trkpt lat="31.3667400" lon="35.2472100">
<ele>447.000000</ele>
<time>2010-01-01T01:18:58.000Z</time>
</trkpt>
<trkpt lat="31.3667100" lon="35.2472900">
<ele>446.000000</ele>
<time>2010-01-01T01:19:01.000Z</time>
</trkpt>
<trkpt lat="31.3666700" lon="35.2478200">
<ele>440.999969</ele>
<time>2010-01-01T01:19:19.000Z</time>
</trkpt>
<trkpt lat="31.3666800" lon="35.2482000">
<ele>437.000000</ele>
<time>2010-01-01T01:19:32.000Z</time>
</trkpt>
<trkpt lat="31.3667000" lon="35.2484000">
<ele>436.000000</ele>
<time>2010-01-01T01:19:39.000Z</time>
</trkpt>
<trkpt lat="31.3667100" lon="35.2486000">
<ele>434.000000</ele>
<time>2010-01-01T01:19:46.000Z</time>
</trkpt>
<trkpt lat="31.3668600" lon="35.2489700">
<ele>431.000000</ele>
<time>2010-01-01T01:20:00.000Z</time>
</trkpt>
<trkpt lat="31.3669200" lon="35.2490700">
<ele>429.000000</ele>
<time>2010-01-01T01:20:04.000Z</time>
</trkpt>
<trkpt lat="31.3669700" lon="35.2491800">
<ele>428.000000</ele>
<time>2010-01-01T01:20:08.000Z</time>
</trkpt>
<trkpt lat="31.3669500" lon="35.2496000">
<ele>424.000031</ele>
<time>2010-01-01T01:20:23.000Z</time>
</trkpt>
<trkpt lat="31.3669500" lon="35.2496800">
<ele>423.000000</ele>
<time>2010-01-01T01:20:25.000Z</time>
</trkpt>
<trkpt lat="31.3670100" lon="35.2498400">
<ele>422.000000</ele>
<time>2010-01-01T01:20:31.000Z</time>
</trkpt>
<trkpt lat="31.3670200" lon="35.2501700">
<ele>421.000000</ele>
<time>2010-01-01T01:20:43.000Z</time>
</trkpt>
<trkpt lat="31.3669300" lon="35.2505300">
<ele>419.000000</ele>
<time>2010-01-01T01:20:55.000Z</time>
</trkpt>
<trkpt lat="31.3668500" lon="35.2508700">
<ele>417.000000</ele>
<time>2010-01-01T01:21:07.000Z</time>
</trkpt>
<trkpt lat="31.3668800" lon="35.2511500">
<ele>415.000000</ele>
<time>2010-01-01T01:21:17.000Z</time>
</trkpt>
<trkpt lat="31.3669800" lon="35.2513600">
<ele>412.999969</ele>
<time>2010-01-01T01:21:25.000Z</time>
</trkpt>
<trkpt lat="31.3670800" lon="35.2514800">
<ele>411.000000</ele>
<time>2010-01-01T01:21:31.000Z</time>
</trkpt>
<trkpt lat="31.3673000" lon="35.2519000">
<ele>405.000000</ele>
<time>2010-01-01T01:21:48.000Z</time>
</trkpt>
<trkpt lat="31.3673400" lon="35.2519700">
<ele>405.000000</ele>
<time>2010-01-01T01:21:51.000Z</time>
</trkpt>
<trkpt lat="31.3675400" lon="35.2522800">
<ele>404.000000</ele>
<time>2010-01-01T01:22:04.000Z</time>
</trkpt>
<trkpt lat="31.3675900" lon="35.2523600">
<ele>403.000000</ele>
<time>2010-01-01T01:22:07.000Z</time>
</trkpt>
<trkpt lat="31.3677200" lon="35.2525200">
<ele>401.000000</ele>
<time>2010-01-01T01:22:15.000Z</time>
</trkpt>
<trkpt lat="31.3677700" lon="35.2525700">
<ele>400.000000</ele>
<time>2010-01-01T01:22:18.000Z</time>
</trkpt>
<trkpt lat="31.3679400" lon="35.2527100">
<ele>398.000000</ele>
<time>2010-01-01T01:22:26.000Z</time>
</trkpt>
<trkpt lat="31.3681000" lon="35.2528300">
<ele>396.000000</ele>
<time>2010-01-01T01:22:34.000Z</time>
</trkpt>
<trkpt lat="31.3681800" lon="35.2528700">
<ele>395.000000</ele>
<time>2010-01-01T01:22:37.000Z</time>
</trkpt>
<trkpt lat="31.3682700" lon="35.2529100">
<ele>394.000000</ele>
<time>2010-01-01T01:22:41.000Z</time>
</trkpt>
<trkpt lat="31.3683700" lon="35.2529400">
<ele>393.000000</ele>
<time>2010-01-01T01:22:45.000Z</time>
</trkpt>
<trkpt lat="31.3686600" lon="35.2531300">
<ele>393.000000</ele>
<time>2010-01-01T01:22:58.000Z</time>
</trkpt>
<trkpt lat="31.3690600" lon="35.2533300">
<ele>395.000000</ele>
<time>2010-01-01T01:23:16.000Z</time>
</trkpt>
<trkpt lat="31.3694000" lon="35.2533100">
<ele>396.000000</ele>
<time>2010-01-01T01:23:29.000Z</time>
</trkpt>
<trkpt lat="31.3696000" lon="35.2532100">
<ele>398.000000</ele>
<time>2010-01-01T01:23:38.000Z</time>
</trkpt>
<trkpt lat="31.3696400" lon="35.2532000">
<ele>398.000000</ele>
<time>2010-01-01T01:23:40.000Z</time>
</trkpt>
<trkpt lat="31.3697400" lon="35.2531700">
<ele>398.000000</ele>
<time>2010-01-01T01:23:44.000Z</time>
</trkpt>
<trkpt lat="31.3698600" lon="35.2531400">
<ele>398.000000</ele>
<time>2010-01-01T01:23:49.000Z</time>
</trkpt>
<trkpt lat="31.3701500" lon="35.2531200">
<ele>399.000031</ele>
<time>2010-01-01T01:24:00.000Z</time>
</trkpt>
<trkpt lat="31.3703200" lon="35.2531200">
<ele>398.000000</ele>
<time>2010-01-01T01:24:07.000Z</time>
</trkpt>
<trkpt lat="31.3704400" lon="35.2531300">
<ele>397.000000</ele>
<time>2010-01-01T01:24:12.000Z</time>
</trkpt>
<trkpt lat="31.3705500" lon="35.2531400">
<ele>397.000000</ele>
<time>2010-01-01T01:24:16.000Z</time>
</trkpt>
<trkpt lat="31.3707800" lon="35.2532100">
<ele>395.000000</ele>
<time>2010-01-01T01:24:26.000Z</time>
</trkpt>
<trkpt lat="31.3709500" lon="35.2533000">
<ele>395.000000</ele>
<time>2010-01-01T01:24:33.000Z</time>
</trkpt>
<trkpt lat="31.3712000" lon="35.2534200">
<ele>395.000000</ele>
<time>2010-01-01T01:24:44.000Z</time>
</trkpt>
<trkpt lat="31.3714200" lon="35.2534300">
<ele>397.000000</ele>
<time>2010-01-01T01:24:53.000Z</time>
</trkpt>
<trkpt lat="31.3715400" lon="35.2534200">
<ele>398.000000</ele>
<time>2010-01-01T01:24:58.000Z</time>
</trkpt>
<trkpt lat="31.3716800" lon="35.2533500">
<ele>400.000000</ele>
<time>2010-01-01T01:25:04.000Z</time>
</trkpt>
<trkpt lat="31.3718700" lon="35.2533500">
<ele>401.000000</ele>
<time>2010-01-01T01:25:11.000Z</time>
</trkpt>
<trkpt lat="31.3719300" lon="35.2533800">
<ele>401.000000</ele>
<time>2010-01-01T01:25:14.000Z</time>
</trkpt>
<trkpt lat="31.3720300" lon="35.2534400">
<ele>399.000031</ele>
<time>2010-01-01T01:25:19.000Z</time>
</trkpt>
<trkpt lat="31.3721000" lon="35.2534800">
<ele>397.000000</ele>
<time>2010-01-01T01:25:22.000Z</time>
</trkpt>
<trkpt lat="31.3721500" lon="35.2535200">
<ele>395.000000</ele>
<time>2010-01-01T01:25:24.000Z</time>
</trkpt>
<trkpt lat="31.3722500" lon="35.2536200">
<ele>392.000000</ele>
<time>2010-01-01T01:25:29.000Z</time>
</trkpt>
<trkpt lat="31.3723000" lon="35.2537000">
<ele>390.000000</ele>
<time>2010-01-01T01:25:33.000Z</time>
</trkpt>
<trkpt lat="31.3723700" lon="35.2538800">
<ele>387.000000</ele>
<time>2010-01-01T01:25:40.000Z</time>
</trkpt>
<trkpt lat="31.3724400" lon="35.2540400">
<ele>384.000000</ele>
<time>2010-01-01T01:25:46.000Z</time>
</trkpt>
<trkpt lat="31.3725200" lon="35.2542200">
<ele>381.000000</ele>
<time>2010-01-01T01:25:53.000Z</time>
</trkpt>
<trkpt lat="31.3725900" lon="35.2543300">
<ele>381.000000</ele>
<time>2010-01-01T01:25:57.000Z</time>
</trkpt>
<trkpt lat="31.3727400" lon="35.2543300">
<ele>382.000000</ele>
<time>2010-01-01T01:26:03.000Z</time>
</trkpt>
<trkpt lat="31.3729400" lon="35.2541700">
<ele>384.000000</ele>
<time>2010-01-01T01:26:13.000Z</time>
</trkpt>
<trkpt lat="31.3730900" lon="35.2541300">
<ele>385.000031</ele>
<time>2010-01-01T01:26:19.000Z</time>
</trkpt>
<trkpt lat="31.3732600" lon="35.2542200">
<ele>386.000000</ele>
<time>2010-01-01T01:26:27.000Z</time>
</trkpt>
<trkpt lat="31.3733200" lon="35.2542400">
<ele>386.000000</ele>
<time>2010-01-01T01:26:29.000Z</time>
</trkpt>
<trkpt lat="31.3734300" lon="35.2543400">
<ele>387.000000</ele>
<time>2010-01-01T01:26:35.000Z</time>
</trkpt>
<trkpt lat="31.3735700" lon="35.2544500">
<ele>387.000000</ele>
<time>2010-01-01T01:26:41.000Z</time>
</trkpt>
<trkpt lat="31.3736800" lon="35.2546800">
<ele>389.000000</ele>
<time>2010-01-01T01:26:50.000Z</time>
</trkpt>
<trkpt lat="31.3737500" lon="35.2549500">
<ele>391.000000</ele>
<time>2010-01-01T01:27:00.000Z</time>
</trkpt>
<trkpt lat="31.3737700" lon="35.2552500">
<ele>393.000000</ele>
<time>2010-01-01T01:27:10.000Z</time>
</trkpt>
<trkpt lat="31.3738200" lon="35.2554900">
<ele>393.000000</ele>
<time>2010-01-01T01:27:19.000Z</time>
</trkpt>
<trkpt lat="31.3740300" lon="35.2557800">
<ele>393.000000</ele>
<time>2010-01-01T01:27:32.000Z</time>
</trkpt>
<trkpt lat="31.3741800" lon="35.2560300">
<ele>393.000000</ele>
<time>2010-01-01T01:27:42.000Z</time>
</trkpt>
<trkpt lat="31.3743200" lon="35.2561300">
<ele>393.000000</ele>
<time>2010-01-01T01:27:49.000Z</time>
</trkpt>
<trkpt lat="31.3744200" lon="35.2562100">
<ele>394.000000</ele>
<time>2010-01-01T01:27:54.000Z</time>
</trkpt>
<trkpt lat="31.3744400" lon="35.2563000">
<ele>393.000000</ele>
<time>2010-01-01T01:27:57.000Z</time>
</trkpt>
<trkpt lat="31.3745500" lon="35.2566000">
<ele>392.000000</ele>
<time>2010-01-01T01:28:08.000Z</time>
</trkpt>
<trkpt lat="31.3749100" lon="35.2568200">
<ele>394.000000</ele>
<time>2010-01-01T01:28:24.000Z</time>
</trkpt>
<trkpt lat="31.3751700" lon="35.2569600">
<ele>395.000000</ele>
<time>2010-01-01T01:28:36.000Z</time>
</trkpt>
<trkpt lat="31.3751900" lon="35.2570000">
<ele>395.000000</ele>
<time>2010-01-01T01:28:37.000Z</time>
</trkpt>
<trkpt lat="31.3751600" lon="35.2570700">
<ele>394.000000</ele>
<time>2010-01-01T01:28:40.000Z</time>
</trkpt>
<trkpt lat="31.3751000" lon="35.2571600">
<ele>393.000000</ele>
<time>2010-01-01T01:28:44.000Z</time>
</trkpt>
<trkpt lat="31.3751100" lon="35.2574600">
<ele>395.000000</ele>
<time>2010-01-01T01:28:54.000Z</time>
</trkpt>
<trkpt lat="31.3753400" lon="35.2578100">
<ele>397.000000</ele>
<time>2010-01-01T01:29:09.000Z</time>
</trkpt>
<trkpt lat="31.3755600" lon="35.2580100">
<ele>399.000031</ele>
<time>2010-01-01T01:29:20.000Z</time>
</trkpt>
<trkpt lat="31.3758500" lon="35.2582200">
<ele>404.000000</ele>
<time>2010-01-01T01:29:34.000Z</time>
</trkpt>
<trkpt lat="31.3760600" lon="35.2584300">
<ele>407.000000</ele>
<time>2010-01-01T01:29:45.000Z</time>
</trkpt>
<trkpt lat="31.3762000" lon="35.2586100">
<ele>408.000000</ele>
<time>2010-01-01T01:29:53.000Z</time>
</trkpt>
<trkpt lat="31.3762900" lon="35.2590000">
<ele>407.000000</ele>
<time>2010-01-01T01:30:07.000Z</time>
</trkpt>
<trkpt lat="31.3760900" lon="35.2592200">
<ele>408.000000</ele>
<time>2010-01-01T01:30:18.000Z</time>
</trkpt>
<trkpt lat="31.3760900" lon="35.2594800">
<ele>408.000000</ele>
<time>2010-01-01T01:30:27.000Z</time>
</trkpt>
<trkpt lat="31.3761400" lon="35.2597600">
<ele>404.000000</ele>
<time>2010-01-01T01:30:37.000Z</time>
</trkpt>
<trkpt lat="31.3761300" lon="35.2599100">
<ele>403.000000</ele>
<time>2010-01-01T01:30:42.000Z</time>
</trkpt>
<trkpt lat="31.3761900" lon="35.2603200">
<ele>399.000031</ele>
<time>2010-01-01T01:30:56.000Z</time>
</trkpt>
<trkpt lat="31.3761100" lon="35.2604400">
<ele>401.000000</ele>
<time>2010-01-01T01:31:01.000Z</time>
</trkpt>
<trkpt lat="31.3760500" lon="35.2606300">
<ele>401.000000</ele>
<time>2010-01-01T01:31:08.000Z</time>
</trkpt>
<trkpt lat="31.3760600" lon="35.2608100">
<ele>400.000000</ele>
<time>2010-01-01T01:31:15.000Z</time>
</trkpt>
<trkpt lat="31.3760200" lon="35.2612600">
<ele>397.000000</ele>
<time>2010-01-01T01:31:30.000Z</time>
</trkpt>
<trkpt lat="31.3759700" lon="35.2614400">
<ele>395.000000</ele>
<time>2010-01-01T01:31:36.000Z</time>
</trkpt>
<trkpt lat="31.3759600" lon="35.2616800">
<ele>394.000000</ele>
<time>2010-01-01T01:31:45.000Z</time>
</trkpt>
<trkpt lat="31.3759800" lon="35.2619600">
<ele>390.000000</ele>
<time>2010-01-01T01:31:54.000Z</time>
</trkpt>
<trkpt lat="31.3760000" lon="35.2622200">
<ele>387.000000</ele>
<time>2010-01-01T01:32:03.000Z</time>
</trkpt>
<trkpt lat="31.3759900" lon="35.2623200">
<ele>386.000000</ele>
<time>2010-01-01T01:32:07.000Z</time>
</trkpt>
<trkpt lat="31.3759300" lon="35.2625400">
<ele>384.000000</ele>
<time>2010-01-01T01:32:15.000Z</time>
</trkpt>
<trkpt lat="31.3759200" lon="35.2626200">
<ele>383.000000</ele>
<time>2010-01-01T01:32:17.000Z</time>
</trkpt>
<trkpt lat="31.3758700" lon="35.2628100">
<ele>380.000000</ele>
<time>2010-01-01T01:32:24.000Z</time>
</trkpt>
<trkpt lat="31.3756100" lon="35.2630400">
<ele>382.000000</ele>
<time>2010-01-01T01:32:37.000Z</time>
</trkpt>
<trkpt lat="31.3753800" lon="35.2632700">
<ele>385.000031</ele>
<time>2010-01-01T01:32:49.000Z</time>
</trkpt>
<trkpt lat="31.3752700" lon="35.2635700">
<ele>385.000031</ele>
<time>2010-01-01T01:33:00.000Z</time>
</trkpt>
<trkpt lat="31.3751600" lon="35.2637800">
<ele>387.000000</ele>
<time>2010-01-01T01:33:09.000Z</time>
</trkpt>
<trkpt lat="31.3750400" lon="35.2639500">
<ele>387.999969</ele>
<time>2010-01-01T01:33:16.000Z</time>
</trkpt>
<trkpt lat="31.3750200" lon="35.2640600">
<ele>387.999969</ele>
<time>2010-01-01T01:33:20.000Z</time>
</trkpt>
<trkpt lat="31.3750100" lon="35.2641100">
<ele>387.999969</ele>
<time>2010-01-01T01:33:22.000Z</time>
</trkpt>
<trkpt lat="31.3749900" lon="35.2641900">
<ele>387.999969</ele>
<time>2010-01-01T01:33:25.000Z</time>
</trkpt>
<trkpt lat="31.3749600" lon="35.2642700">
<ele>387.999969</ele>
<time>2010-01-01T01:33:28.000Z</time>
</trkpt>
<trkpt lat="31.3748800" lon="35.2643900">
<ele>387.999969</ele>
<time>2010-01-01T01:33:33.000Z</time>
</trkpt>
<trkpt lat="31.3748100" lon="35.2646900">
<ele>386.000000</ele>
<time>2010-01-01T01:33:44.000Z</time>
</trkpt>
<trkpt lat="31.3747900" lon="35.2648300">
<ele>385.000031</ele>
<time>2010-01-01T01:33:48.000Z</time>
</trkpt>
<trkpt lat="31.3748000" lon="35.2649800">
<ele>384.000000</ele>
<time>2010-01-01T01:33:54.000Z</time>
</trkpt>
<trkpt lat="31.3748800" lon="35.2652700">
<ele>381.000000</ele>
<time>2010-01-01T01:34:04.000Z</time>
</trkpt>
<trkpt lat="31.3749700" lon="35.2655900">
<ele>378.000000</ele>
<time>2010-01-01T01:34:16.000Z</time>
</trkpt>
<trkpt lat="31.3750100" lon="35.2657300">
<ele>376.000000</ele>
<time>2010-01-01T01:34:21.000Z</time>
</trkpt>
<trkpt lat="31.3751000" lon="35.2663000">
<ele>368.000000</ele>
<time>2010-01-01T01:34:40.000Z</time>
</trkpt>
<trkpt lat="31.3751100" lon="35.2664100">
<ele>367.000000</ele>
<time>2010-01-01T01:34:44.000Z</time>
</trkpt>
<trkpt lat="31.3751100" lon="35.2665300">
<ele>365.000000</ele>
<time>2010-01-01T01:34:48.000Z</time>
</trkpt>
<trkpt lat="31.3750900" lon="35.2667000">
<ele>362.999969</ele>
<time>2010-01-01T01:34:54.000Z</time>
</trkpt>
<trkpt lat="31.3750700" lon="35.2670100">
<ele>359.000000</ele>
<time>2010-01-01T01:35:05.000Z</time>
</trkpt>
<trkpt lat="31.3750700" lon="35.2671400">
<ele>357.000000</ele>
<time>2010-01-01T01:35:09.000Z</time>
</trkpt>
<trkpt lat="31.3750600" lon="35.2673000">
<ele>354.000000</ele>
<time>2010-01-01T01:35:15.000Z</time>
</trkpt>
<trkpt lat="31.3750500" lon="35.2673900">
<ele>353.000000</ele>
<time>2010-01-01T01:35:18.000Z</time>
</trkpt>
<trkpt lat="31.3749800" lon="35.2676200">
<ele>348.000000</ele>
<time>2010-01-01T01:35:26.000Z</time>
</trkpt>
<trkpt lat="31.3749100" lon="35.2677600">
<ele>345.000000</ele>
<time>2010-01-01T01:35:32.000Z</time>
</trkpt>
<trkpt lat="31.3748900" lon="35.2678300">
<ele>344.000000</ele>
<time>2010-01-01T01:35:34.000Z</time>
</trkpt>
<trkpt lat="31.3748700" lon="35.2679100">
<ele>343.000000</ele>
<time>2010-01-01T01:35:37.000Z</time>
</trkpt>
<trkpt lat="31.3748700" lon="35.2679700">
<ele>342.000000</ele>
<time>2010-01-01T01:35:39.000Z</time>
</trkpt>
<trkpt lat="31.3748900" lon="35.2680600">
<ele>340.000000</ele>
<time>2010-01-01T01:35:42.000Z</time>
</trkpt>
<trkpt lat="31.3749500" lon="35.2682000">
<ele>339.000000</ele>
<time>2010-01-01T01:35:48.000Z</time>
</trkpt>
<trkpt lat="31.3750400" lon="35.2683700">
<ele>337.000000</ele>
<time>2010-01-01T01:35:55.000Z</time>
</trkpt>
<trkpt lat="31.3750300" lon="35.2685000">
<ele>337.000000</ele>
<time>2010-01-01T01:35:59.000Z</time>
</trkpt>
<trkpt lat="31.3751200" lon="35.2687300">
<ele>336.000000</ele>
<time>2010-01-01T01:36:08.000Z</time>
</trkpt>
<trkpt lat="31.3751700" lon="35.2690400">
<ele>333.000000</ele>
<time>2010-01-01T01:36:18.000Z</time>
</trkpt>
<trkpt lat="31.3751400" lon="35.2693000">
<ele>330.000000</ele>
<time>2010-01-01T01:36:27.000Z</time>
</trkpt>
<trkpt lat="31.3751000" lon="35.2693900">
<ele>329.000000</ele>
<time>2010-01-01T01:36:31.000Z</time>
</trkpt>
<trkpt lat="31.3750800" lon="35.2694500">
<ele>328.000000</ele>
<time>2010-01-01T01:36:33.000Z</time>
</trkpt>
<trkpt lat="31.3750100" lon="35.2696800">
<ele>325.000000</ele>
<time>2010-01-01T01:36:41.000Z</time>
</trkpt>
<trkpt lat="31.3749900" lon="35.2697700">
<ele>323.999969</ele>
<time>2010-01-01T01:36:45.000Z</time>
</trkpt>
<trkpt lat="31.3749800" lon="35.2698200">
<ele>323.000000</ele>
<time>2010-01-01T01:36:46.000Z</time>
</trkpt>
<trkpt lat="31.3750600" lon="35.2699100">
<ele>322.000000</ele>
<time>2010-01-01T01:36:51.000Z</time>
</trkpt>
<trkpt lat="31.3751400" lon="35.2699100">
<ele>322.000000</ele>
<time>2010-01-01T01:36:54.000Z</time>
</trkpt>
<trkpt lat="31.3751900" lon="35.2698900">
<ele>322.000000</ele>
<time>2010-01-01T01:36:56.000Z</time>
</trkpt>
<trkpt lat="31.3752500" lon="35.2699000">
<ele>322.000000</ele>
<time>2010-01-01T01:36:58.000Z</time>
</trkpt>
<trkpt lat="31.3754800" lon="35.2700000">
<ele>325.000000</ele>
<time>2010-01-01T01:37:08.000Z</time>
</trkpt>
<trkpt lat="31.3756700" lon="35.2699800">
<ele>326.999969</ele>
<time>2010-01-01T01:37:16.000Z</time>
</trkpt>
<trkpt lat="31.3757400" lon="35.2699800">
<ele>328.000000</ele>
<time>2010-01-01T01:37:19.000Z</time>
</trkpt>
<trkpt lat="31.3758300" lon="35.2700000">
<ele>329.000000</ele>
<time>2010-01-01T01:37:22.000Z</time>
</trkpt>
<trkpt lat="31.3759100" lon="35.2700200">
<ele>330.000000</ele>
<time>2010-01-01T01:37:26.000Z</time>
</trkpt>
<trkpt lat="31.3760600" lon="35.2700300">
<ele>332.000000</ele>
<time>2010-01-01T01:37:32.000Z</time>
</trkpt>
<trkpt lat="31.3761300" lon="35.2700600">
<ele>333.000000</ele>
<time>2010-01-01T01:37:35.000Z</time>
</trkpt>
<trkpt lat="31.3762600" lon="35.2701400">
<ele>334.000000</ele>
<time>2010-01-01T01:37:41.000Z</time>
</trkpt>
<trkpt lat="31.3764600" lon="35.2704100">
<ele>337.999969</ele>
<time>2010-01-01T01:37:53.000Z</time>
</trkpt>
<trkpt lat="31.3765000" lon="35.2705000">
<ele>339.000000</ele>
<time>2010-01-01T01:37:56.000Z</time>
</trkpt>
<trkpt lat="31.3766500" lon="35.2707300">
<ele>342.000000</ele>
<time>2010-01-01T01:38:06.000Z</time>
</trkpt>
<trkpt lat="31.3768300" lon="35.2708600">
<ele>346.000031</ele>
<time>2010-01-01T01:38:15.000Z</time>
</trkpt>
<trkpt lat="31.3770100" lon="35.2710500">
<ele>349.000031</ele>
<time>2010-01-01T01:38:24.000Z</time>
</trkpt>
<trkpt lat="31.3771500" lon="35.2713000">
<ele>350.000000</ele>
<time>2010-01-01T01:38:35.000Z</time>
</trkpt>
<trkpt lat="31.3772700" lon="35.2715200">
<ele>351.000000</ele>
<time>2010-01-01T01:38:43.000Z</time>
</trkpt>
<trkpt lat="31.3773600" lon="35.2716800">
<ele>351.000000</ele>
<time>2010-01-01T01:38:50.000Z</time>
</trkpt>
<trkpt lat="31.3775000" lon="35.2718700">
<ele>351.000000</ele>
<time>2010-01-01T01:38:59.000Z</time>
</trkpt>
<trkpt lat="31.3774900" lon="35.2721200">
<ele>355.000000</ele>
<time>2010-01-01T01:39:07.000Z</time>
</trkpt>
<trkpt lat="31.3774700" lon="35.2722200">
<ele>358.000000</ele>
<time>2010-01-01T01:39:11.000Z</time>
</trkpt>
<trkpt lat="31.3774500" lon="35.2722500">
<ele>359.000000</ele>
<time>2010-01-01T01:39:12.000Z</time>
</trkpt>
<trkpt lat="31.3774000" lon="35.2723700">
<ele>362.000000</ele>
<time>2010-01-01T01:39:17.000Z</time>
</trkpt>
<trkpt lat="31.3774000" lon="35.2724700">
<ele>364.000000</ele>
<time>2010-01-01T01:39:20.000Z</time>
</trkpt>
<trkpt lat="31.3774000" lon="35.2725900">
<ele>365.000000</ele>
<time>2010-01-01T01:39:24.000Z</time>
</trkpt>
<trkpt lat="31.3774300" lon="35.2727300">
<ele>365.000000</ele>
<time>2010-01-01T01:39:29.000Z</time>
</trkpt>
<trkpt lat="31.3775000" lon="35.2729300">
<ele>365.000000</ele>
<time>2010-01-01T01:39:36.000Z</time>
</trkpt>
<trkpt lat="31.3775500" lon="35.2733900">
<ele>364.000000</ele>
<time>2010-01-01T01:39:52.000Z</time>
</trkpt>
<trkpt lat="31.3775200" lon="35.2735900">
<ele>362.000000</ele>
<time>2010-01-01T01:39:59.000Z</time>
</trkpt>
<trkpt lat="31.3775900" lon="35.2739700">
<ele>359.000000</ele>
<time>2010-01-01T01:40:12.000Z</time>
</trkpt>
<trkpt lat="31.3776300" lon="35.2741300">
<ele>358.000000</ele>
<time>2010-01-01T01:40:18.000Z</time>
</trkpt>
<trkpt lat="31.3776400" lon="35.2743800">
<ele>357.000000</ele>
<time>2010-01-01T01:40:27.000Z</time>
</trkpt>
<trkpt lat="31.3775900" lon="35.2746200">
<ele>355.000000</ele>
<time>2010-01-01T01:40:35.000Z</time>
</trkpt>
<trkpt lat="31.3776100" lon="35.2750300">
<ele>354.000000</ele>
<time>2010-01-01T01:40:49.000Z</time>
</trkpt>
<trkpt lat="31.3776300" lon="35.2752100">
<ele>354.000000</ele>
<time>2010-01-01T01:40:55.000Z</time>
</trkpt>
<trkpt lat="31.3776300" lon="35.2753200">
<ele>354.000000</ele>
<time>2010-01-01T01:40:59.000Z</time>
</trkpt>
<trkpt lat="31.3778100" lon="35.2756600">
<ele>351.999969</ele>
<time>2010-01-01T01:41:13.000Z</time>
</trkpt>
<trkpt lat="31.3783000" lon="35.2760600">
<ele>348.000000</ele>
<time>2010-01-01T01:41:37.000Z</time>
</trkpt>
<trkpt lat="31.3783400" lon="35.2760900">
<ele>348.000000</ele>
<time>2010-01-01T01:41:39.000Z</time>
</trkpt>
<trkpt lat="31.3786200" lon="35.2762600">
<ele>348.000000</ele>
<time>2010-01-01T01:41:51.000Z</time>
</trkpt>
<trkpt lat="31.3787900" lon="35.2764300">
<ele>347.000000</ele>
<time>2010-01-01T01:42:00.000Z</time>
</trkpt>
<trkpt lat="31.3788900" lon="35.2765700">
<ele>346.000031</ele>
<time>2010-01-01T01:42:06.000Z</time>
</trkpt>
<trkpt lat="31.3791200" lon="35.2769800">
<ele>344.000000</ele>
<time>2010-01-01T01:42:23.000Z</time>
</trkpt>
<trkpt lat="31.3791800" lon="35.2771000">
<ele>343.000000</ele>
<time>2010-01-01T01:42:28.000Z</time>
</trkpt>
<trkpt lat="31.3793200" lon="35.2774400">
<ele>343.000000</ele>
<time>2010-01-01T01:42:41.000Z</time>
</trkpt>
<trkpt lat="31.3793400" lon="35.2774900">
<ele>343.000000</ele>
<time>2010-01-01T01:42:43.000Z</time>
</trkpt>
<trkpt lat="31.3793900" lon="35.2776100">
<ele>342.000000</ele>
<time>2010-01-01T01:42:47.000Z</time>
</trkpt>
<trkpt lat="31.3794300" lon="35.2777300">
<ele>342.000000</ele>
<time>2010-01-01T01:42:52.000Z</time>
</trkpt>
<trkpt lat="31.3796300" lon="35.2785700">
<ele>336.000000</ele>
<time>2010-01-01T01:43:21.000Z</time>
</trkpt>
<trkpt lat="31.3797600" lon="35.2789700">
<ele>335.000031</ele>
<time>2010-01-01T01:43:36.000Z</time>
</trkpt>
<trkpt lat="31.3797000" lon="35.2790800">
<ele>336.000000</ele>
<time>2010-01-01T01:43:41.000Z</time>
</trkpt>
<trkpt lat="31.3795400" lon="35.2792200">
<ele>337.000000</ele>
<time>2010-01-01T01:43:49.000Z</time>
</trkpt>
<trkpt lat="31.3793400" lon="35.2792800">
<ele>339.000000</ele>
<time>2010-01-01T01:43:57.000Z</time>
</trkpt>
<trkpt lat="31.3791100" lon="35.2793300">
<ele>341.000000</ele>
<time>2010-01-01T01:44:06.000Z</time>
</trkpt>
<trkpt lat="31.3789000" lon="35.2793700">
<ele>343.000000</ele>
<time>2010-01-01T01:44:15.000Z</time>
</trkpt>
<trkpt lat="31.3786000" lon="35.2793400">
<ele>345.000000</ele>
<time>2010-01-01T01:44:27.000Z</time>
</trkpt>
<trkpt lat="31.3784200" lon="35.2793400">
<ele>346.000031</ele>
<time>2010-01-01T01:44:34.000Z</time>
</trkpt>
<trkpt lat="31.3782100" lon="35.2793500">
<ele>347.000000</ele>
<time>2010-01-01T01:44:42.000Z</time>
</trkpt>
<trkpt lat="31.3779500" lon="35.2793700">
<ele>350.000000</ele>
<time>2010-01-01T01:44:53.000Z</time>
</trkpt>
<trkpt lat="31.3777600" lon="35.2795100">
<ele>351.999969</ele>
<time>2010-01-01T01:45:02.000Z</time>
</trkpt>
<trkpt lat="31.3775400" lon="35.2795700">
<ele>355.000000</ele>
<time>2010-01-01T01:45:11.000Z</time>
</trkpt>
<trkpt lat="31.3772700" lon="35.2796900">
<ele>354.000000</ele>
<time>2010-01-01T01:45:22.000Z</time>
</trkpt>
<trkpt lat="31.3769700" lon="35.2796700">
<ele>356.000000</ele>
<time>2010-01-01T01:45:34.000Z</time>
</trkpt>
<trkpt lat="31.3767200" lon="35.2797600">
<ele>358.000000</ele>
<time>2010-01-01T01:45:45.000Z</time>
</trkpt>
<trkpt lat="31.3765800" lon="35.2800600">
<ele>357.000000</ele>
<time>2010-01-01T01:45:57.000Z</time>
</trkpt>
<trkpt lat="31.3763900" lon="35.2802400">
<ele>358.000000</ele>
<time>2010-01-01T01:46:06.000Z</time>
</trkpt>
<trkpt lat="31.3763300" lon="35.2802600">
<ele>358.000000</ele>
<time>2010-01-01T01:46:09.000Z</time>
</trkpt>
<trkpt lat="31.3762500" lon="35.2802700">
<ele>359.000000</ele>
<time>2010-01-01T01:46:12.000Z</time>
</trkpt>
<trkpt lat="31.3761300" lon="35.2804100">
<ele>358.000000</ele>
<time>2010-01-01T01:46:19.000Z</time>
</trkpt>
<trkpt lat="31.3760800" lon="35.2807800">
<ele>356.000000</ele>
<time>2010-01-01T01:46:32.000Z</time>
</trkpt>
<trkpt lat="31.3758700" lon="35.2809100">
<ele>359.000000</ele>
<time>2010-01-01T01:46:41.000Z</time>
</trkpt>
<trkpt lat="31.3755900" lon="35.2809300">
<ele>359.000000</ele>
<time>2010-01-01T01:46:52.000Z</time>
</trkpt>
<trkpt lat="31.3754600" lon="35.2810400">
<ele>358.000000</ele>
<time>2010-01-01T01:46:59.000Z</time>
</trkpt>
<trkpt lat="31.3753600" lon="35.2811900">
<ele>357.000000</ele>
<time>2010-01-01T01:47:05.000Z</time>
</trkpt>
<trkpt lat="31.3753300" lon="35.2812400">
<ele>357.000000</ele>
<time>2010-01-01T01:47:07.000Z</time>
</trkpt>
<trkpt lat="31.3750700" lon="35.2814900">
<ele>354.000000</ele>
<time>2010-01-01T01:47:21.000Z</time>
</trkpt>
<trkpt lat="31.3749300" lon="35.2816300">
<ele>351.999969</ele>
<time>2010-01-01T01:47:28.000Z</time>
</trkpt>
<trkpt lat="31.3747500" lon="35.2818100">
<ele>349.000031</ele>
<time>2010-01-01T01:47:38.000Z</time>
</trkpt>
<trkpt lat="31.3745500" lon="35.2819900">
<ele>347.000000</ele>
<time>2010-01-01T01:47:48.000Z</time>
</trkpt>
<trkpt lat="31.3741600" lon="35.2822700">
<ele>344.000000</ele>
<time>2010-01-01T01:48:06.000Z</time>
</trkpt>
<trkpt lat="31.3737200" lon="35.2827100">
<ele>339.000000</ele>
<time>2010-01-01T01:48:29.000Z</time>
</trkpt>
<trkpt lat="31.3736100" lon="35.2828900">
<ele>339.000000</ele>
<time>2010-01-01T01:48:37.000Z</time>
</trkpt>
<trkpt lat="31.3735700" lon="35.2829500">
<ele>340.000000</ele>
<time>2010-01-01T01:48:39.000Z</time>
</trkpt>
<trkpt lat="31.3733600" lon="35.2832200">
<ele>342.000000</ele>
<time>2010-01-01T01:48:52.000Z</time>
</trkpt>
<trkpt lat="31.3729200" lon="35.2835300">
<ele>339.000000</ele>
<time>2010-01-01T01:49:12.000Z</time>
</trkpt>
<trkpt lat="31.3725000" lon="35.2836200">
<ele>337.000000</ele>
<time>2010-01-01T01:49:30.000Z</time>
</trkpt>
<trkpt lat="31.3723100" lon="35.2836900">
<ele>336.000000</ele>
<time>2010-01-01T01:49:38.000Z</time>
</trkpt>
<trkpt lat="31.3720100" lon="35.2839700">
<ele>336.000000</ele>
<time>2010-01-01T01:49:53.000Z</time>
</trkpt>
<trkpt lat="31.3716000" lon="35.2842700">
<ele>334.000000</ele>
<time>2010-01-01T01:50:12.000Z</time>
</trkpt>
<trkpt lat="31.3714400" lon="35.2844600">
<ele>333.000000</ele>
<time>2010-01-01T01:50:21.000Z</time>
</trkpt>
<trkpt lat="31.3712400" lon="35.2846100">
<ele>331.000000</ele>
<time>2010-01-01T01:50:31.000Z</time>
</trkpt>
<trkpt lat="31.3708900" lon="35.2847400">
<ele>329.000000</ele>
<time>2010-01-01T01:50:46.000Z</time>
</trkpt>
<trkpt lat="31.3707900" lon="35.2849400">
<ele>331.000000</ele>
<time>2010-01-01T01:50:54.000Z</time>
</trkpt>
<trkpt lat="31.3705300" lon="35.2851600">
<ele>333.000000</ele>
<time>2010-01-01T01:51:06.000Z</time>
</trkpt>
<trkpt lat="31.3703000" lon="35.2854400">
<ele>332.000000</ele>
<time>2010-01-01T01:51:20.000Z</time>
</trkpt>
<trkpt lat="31.3701800" lon="35.2856100">
<ele>331.000000</ele>
<time>2010-01-01T01:51:27.000Z</time>
</trkpt>
<trkpt lat="31.3701100" lon="35.2857300">
<ele>330.000000</ele>
<time>2010-01-01T01:51:32.000Z</time>
</trkpt>
<trkpt lat="31.3699600" lon="35.2859500">
<ele>329.000000</ele>
<time>2010-01-01T01:51:42.000Z</time>
</trkpt>
<trkpt lat="31.3699000" lon="35.2860200">
<ele>329.000000</ele>
<time>2010-01-01T01:51:45.000Z</time>
</trkpt>
<trkpt lat="31.3692000" lon="35.2869400">
<ele>321.000031</ele>
<time>2010-01-01T01:52:27.000Z</time>
</trkpt>
<trkpt lat="31.3691100" lon="35.2870900">
<ele>321.000031</ele>
<time>2010-01-01T01:52:34.000Z</time>
</trkpt>
<trkpt lat="31.3688100" lon="35.2872200">
<ele>320.000000</ele>
<time>2010-01-01T01:52:46.000Z</time>
</trkpt>
<trkpt lat="31.3684800" lon="35.2874000">
<ele>318.000000</ele>
<time>2010-01-01T01:53:01.000Z</time>
</trkpt>
<trkpt lat="31.3683600" lon="35.2874900">
<ele>317.000000</ele>
<time>2010-01-01T01:53:07.000Z</time>
</trkpt>
<trkpt lat="31.3680000" lon="35.2878400">
<ele>316.000000</ele>
<time>2010-01-01T01:53:25.000Z</time>
</trkpt>
<trkpt lat="31.3674900" lon="35.2883900">
<ele>317.000000</ele>
<time>2010-01-01T01:53:53.000Z</time>
</trkpt>
<trkpt lat="31.3673100" lon="35.2886500">
<ele>317.000000</ele>
<time>2010-01-01T01:54:05.000Z</time>
</trkpt>
<trkpt lat="31.3671400" lon="35.2889800">
<ele>316.000000</ele>
<time>2010-01-01T01:54:18.000Z</time>
</trkpt>
<trkpt lat="31.3670000" lon="35.2892000">
<ele>316.000000</ele>
<time>2010-01-01T01:54:27.000Z</time>
</trkpt>
<trkpt lat="31.3669100" lon="35.2895600">
<ele>318.000000</ele>
<time>2010-01-01T01:54:40.000Z</time>
</trkpt>
<trkpt lat="31.3668500" lon="35.2896700">
<ele>318.000000</ele>
<time>2010-01-01T01:54:44.000Z</time>
</trkpt>
<trkpt lat="31.3666500" lon="35.2898900">
<ele>318.000000</ele>
<time>2010-01-01T01:54:55.000Z</time>
</trkpt>
<trkpt lat="31.3665800" lon="35.2901800">
<ele>319.000000</ele>
<time>2010-01-01T01:55:06.000Z</time>
</trkpt>
<trkpt lat="31.3664900" lon="35.2904600">
<ele>321.000031</ele>
<time>2010-01-01T01:55:16.000Z</time>
</trkpt>
<trkpt lat="31.3662800" lon="35.2907000">
<ele>321.000031</ele>
<time>2010-01-01T01:55:28.000Z</time>
</trkpt>
<trkpt lat="31.3657900" lon="35.2910100">
<ele>317.000000</ele>
<time>2010-01-01T01:55:50.000Z</time>
</trkpt>
<trkpt lat="31.3657400" lon="35.2910500">
<ele>317.000000</ele>
<time>2010-01-01T01:55:52.000Z</time>
</trkpt>
<trkpt lat="31.3654300" lon="35.2913400">
<ele>315.000000</ele>
<time>2010-01-01T01:56:08.000Z</time>
</trkpt>
<trkpt lat="31.3650800" lon="35.2919200">
<ele>317.000000</ele>
<time>2010-01-01T01:56:33.000Z</time>
</trkpt>
<trkpt lat="31.3649100" lon="35.2921900">
<ele>315.000000</ele>
<time>2010-01-01T01:56:44.000Z</time>
</trkpt>
<trkpt lat="31.3648100" lon="35.2923800">
<ele>312.999969</ele>
<time>2010-01-01T01:56:52.000Z</time>
</trkpt>
<trkpt lat="31.3647700" lon="35.2924400">
<ele>312.999969</ele>
<time>2010-01-01T01:56:54.000Z</time>
</trkpt>
<trkpt lat="31.3644900" lon="35.2927000">
<ele>314.000000</ele>
<time>2010-01-01T01:57:09.000Z</time>
</trkpt>
<trkpt lat="31.3643200" lon="35.2928600">
<ele>315.000000</ele>
<time>2010-01-01T01:57:17.000Z</time>
</trkpt>
<trkpt lat="31.3642500" lon="35.2929600">
<ele>315.000000</ele>
<time>2010-01-01T01:57:22.000Z</time>
</trkpt>
<trkpt lat="31.3641600" lon="35.2930400">
<ele>316.000000</ele>
<time>2010-01-01T01:57:26.000Z</time>
</trkpt>
<trkpt lat="31.3640900" lon="35.2931100">
<ele>316.000000</ele>
<time>2010-01-01T01:57:30.000Z</time>
</trkpt>
<trkpt lat="31.3640500" lon="35.2932100">
<ele>317.000000</ele>
<time>2010-01-01T01:57:34.000Z</time>
</trkpt>
<trkpt lat="31.3640400" lon="35.2932500">
<ele>318.000000</ele>
<time>2010-01-01T01:57:35.000Z</time>
</trkpt>
<trkpt lat="31.3640400" lon="35.2933000">
<ele>318.000000</ele>
<time>2010-01-01T01:57:37.000Z</time>
</trkpt>
<trkpt lat="31.3640300" lon="35.2933800">
<ele>319.000000</ele>
<time>2010-01-01T01:57:40.000Z</time>
</trkpt>
<trkpt lat="31.3640200" lon="35.2934500">
<ele>321.000031</ele>
<time>2010-01-01T01:57:42.000Z</time>
</trkpt>
<trkpt lat="31.3640600" lon="35.2935500">
<ele>323.000000</ele>
<time>2010-01-01T01:57:46.000Z</time>
</trkpt>
<trkpt lat="31.3641000" lon="35.2935800">
<ele>323.000000</ele>
<time>2010-01-01T01:57:48.000Z</time>
</trkpt>
<trkpt lat="31.3640900" lon="35.2936500">
<ele>325.000000</ele>
<time>2010-01-01T01:57:50.000Z</time>
</trkpt>
<trkpt lat="31.3640900" lon="35.2936900">
<ele>326.000000</ele>
<time>2010-01-01T01:57:51.000Z</time>
</trkpt>
<trkpt lat="31.3640500" lon="35.2937300">
<ele>326.999969</ele>
<time>2010-01-01T01:57:54.000Z</time>
</trkpt>
<trkpt lat="31.3639600" lon="35.2937900">
<ele>329.000000</ele>
<time>2010-01-01T01:57:58.000Z</time>
</trkpt>
<trkpt lat="31.3638700" lon="35.2938200">
<ele>330.000000</ele>
<time>2010-01-01T01:58:01.000Z</time>
</trkpt>
<trkpt lat="31.3637300" lon="35.2939000">
<ele>331.000000</ele>
<time>2010-01-01T01:58:08.000Z</time>
</trkpt>
<trkpt lat="31.3636400" lon="35.2939000">
<ele>331.000000</ele>
<time>2010-01-01T01:58:11.000Z</time>
</trkpt>
<trkpt lat="31.3635100" lon="35.2939100">
<ele>332.000000</ele>
<time>2010-01-01T01:58:16.000Z</time>
</trkpt>
<trkpt lat="31.3634400" lon="35.2939300">
<ele>332.000000</ele>
<time>2010-01-01T01:58:19.000Z</time>
</trkpt>
<trkpt lat="31.3633500" lon="35.2939800">
<ele>334.000000</ele>
<time>2010-01-01T01:58:23.000Z</time>
</trkpt>
<trkpt lat="31.3632900" lon="35.2940100">
<ele>335.000031</ele>
<time>2010-01-01T01:58:26.000Z</time>
</trkpt>
<trkpt lat="31.3630400" lon="35.2941600">
<ele>337.999969</ele>
<time>2010-01-01T01:58:37.000Z</time>
</trkpt>
<trkpt lat="31.3627000" lon="35.2942400">
<ele>340.000000</ele>
<time>2010-01-01T01:58:51.000Z</time>
</trkpt>
<trkpt lat="31.3622600" lon="35.2942700">
<ele>342.000000</ele>
<time>2010-01-01T01:59:09.000Z</time>
</trkpt>
<trkpt lat="31.3618200" lon="35.2943400">
<ele>341.000000</ele>
<time>2010-01-01T01:59:27.000Z</time>
</trkpt>
<trkpt lat="31.3613600" lon="35.2945500">
<ele>341.000000</ele>
<time>2010-01-01T01:59:46.000Z</time>
</trkpt>
<trkpt lat="31.3613000" lon="35.2945900">
<ele>341.000000</ele>
<time>2010-01-01T01:59:49.000Z</time>
</trkpt>
<trkpt lat="31.3608800" lon="35.2947100">
<ele>344.000000</ele>
<time>2010-01-01T02:00:06.000Z</time>
</trkpt>
<trkpt lat="31.3604400" lon="35.2948000">
<ele>345.000000</ele>
<time>2010-01-01T02:00:24.000Z</time>
</trkpt>
<trkpt lat="31.3600000" lon="35.2950800">
<ele>346.000031</ele>
<time>2010-01-01T02:00:44.000Z</time>
</trkpt>
<trkpt lat="31.3596400" lon="35.2952900">
<ele>346.000031</ele>
<time>2010-01-01T02:01:00.000Z</time>
</trkpt>
<trkpt lat="31.3593600" lon="35.2952900">
<ele>346.000031</ele>
<time>2010-01-01T02:01:12.000Z</time>
</trkpt>
<trkpt lat="31.3590400" lon="35.2954100">
<ele>348.000000</ele>
<time>2010-01-01T02:01:25.000Z</time>
</trkpt>
<trkpt lat="31.3589700" lon="35.2954900">
<ele>348.000000</ele>
<time>2010-01-01T02:01:29.000Z</time>
</trkpt>
<trkpt lat="31.3589300" lon="35.2955800">
<ele>348.000000</ele>
<time>2010-01-01T02:01:32.000Z</time>
</trkpt>
<trkpt lat="31.3587600" lon="35.2960000">
<ele>348.000000</ele>
<time>2010-01-01T02:01:48.000Z</time>
</trkpt>
<trkpt lat="31.3585700" lon="35.2964700">
<ele>344.000000</ele>
<time>2010-01-01T02:02:06.000Z</time>
</trkpt>
<trkpt lat="31.3584300" lon="35.2966400">
<ele>342.000000</ele>
<time>2010-01-01T02:02:14.000Z</time>
</trkpt>
<trkpt lat="31.3583100" lon="35.2967800">
<ele>341.000000</ele>
<time>2010-01-01T02:02:21.000Z</time>
</trkpt>
<trkpt lat="31.3580900" lon="35.2969300">
<ele>340.000000</ele>
<time>2010-01-01T02:02:31.000Z</time>
</trkpt>
<trkpt lat="31.3578100" lon="35.2971100">
<ele>339.000000</ele>
<time>2010-01-01T02:02:44.000Z</time>
</trkpt>
<trkpt lat="31.3577300" lon="35.2973900">
<ele>337.999969</ele>
<time>2010-01-01T02:02:54.000Z</time>
</trkpt>
<trkpt lat="31.3577700" lon="35.2977400">
<ele>336.000000</ele>
<time>2010-01-01T02:03:06.000Z</time>
</trkpt>
<trkpt lat="31.3578200" lon="35.2979700">
<ele>333.000000</ele>
<time>2010-01-01T02:03:14.000Z</time>
</trkpt>
<trkpt lat="31.3578200" lon="35.2982800">
<ele>332.000000</ele>
<time>2010-01-01T02:03:25.000Z</time>
</trkpt>
<trkpt lat="31.3577400" lon="35.2985600">
<ele>333.000000</ele>
<time>2010-01-01T02:03:35.000Z</time>
</trkpt>
<trkpt lat="31.3577300" lon="35.2987100">
<ele>334.000000</ele>
<time>2010-01-01T02:03:40.000Z</time>
</trkpt>
<trkpt lat="31.3577600" lon="35.2988600">
<ele>333.000000</ele>
<time>2010-01-01T02:03:45.000Z</time>
</trkpt>
<trkpt lat="31.3579300" lon="35.2994400">
<ele>330.000000</ele>
<time>2010-01-01T02:04:06.000Z</time>
</trkpt>
<trkpt lat="31.3580000" lon="35.2996600">
<ele>330.000000</ele>
<time>2010-01-01T02:04:14.000Z</time>
</trkpt>
<trkpt lat="31.3580100" lon="35.3000500">
<ele>319.000000</ele>
<time>2010-01-01T02:04:28.000Z</time>
</trkpt>
<trkpt lat="31.3579900" lon="35.3002200">
<ele>314.000000</ele>
<time>2010-01-01T02:04:33.000Z</time>
</trkpt>
<trkpt lat="31.3579800" lon="35.3000200">
<ele>319.000000</ele>
<time>2010-01-01T02:04:40.000Z</time>
</trkpt>
<trkpt lat="31.3579700" lon="35.2997700">
<ele>326.999969</ele>
<time>2010-01-01T02:04:49.000Z</time>
</trkpt>
<trkpt lat="31.3579800" lon="35.2995500">
<ele>330.000000</ele>
<time>2010-01-01T02:04:56.000Z</time>
</trkpt>
<trkpt lat="31.3578700" lon="35.2992500">
<ele>331.000000</ele>
<time>2010-01-01T02:05:08.000Z</time>
</trkpt>
<trkpt lat="31.3577600" lon="35.2988300">
<ele>333.000000</ele>
<time>2010-01-01T02:05:23.000Z</time>
</trkpt>
<trkpt lat="31.3577900" lon="35.2983800">
<ele>333.000000</ele>
<time>2010-01-01T02:05:38.000Z</time>
</trkpt>
<trkpt lat="31.3578200" lon="35.2978900">
<ele>334.000000</ele>
<time>2010-01-01T02:05:55.000Z</time>
</trkpt>
<trkpt lat="31.3577600" lon="35.2975700">
<ele>337.000000</ele>
<time>2010-01-01T02:06:06.000Z</time>
</trkpt>
<trkpt lat="31.3577300" lon="35.2972800">
<ele>337.999969</ele>
<time>2010-01-01T02:06:16.000Z</time>
</trkpt>
<trkpt lat="31.3576300" lon="35.2970400">
<ele>339.000000</ele>
<time>2010-01-01T02:06:25.000Z</time>
</trkpt>
<trkpt lat="31.3575600" lon="35.2967700">
<ele>341.000000</ele>
<time>2010-01-01T02:06:35.000Z</time>
</trkpt>
<trkpt lat="31.3574100" lon="35.2965500">
<ele>343.000000</ele>
<time>2010-01-01T02:06:44.000Z</time>
</trkpt>
<trkpt lat="31.3572700" lon="35.2963800">
<ele>344.000000</ele>
<time>2010-01-01T02:06:52.000Z</time>
</trkpt>
<trkpt lat="31.3572100" lon="35.2963100">
<ele>344.000000</ele>
<time>2010-01-01T02:06:56.000Z</time>
</trkpt>
<trkpt lat="31.3571900" lon="35.2961600">
<ele>344.000000</ele>
<time>2010-01-01T02:07:01.000Z</time>
</trkpt>
<trkpt lat="31.3568480" lon="35.2962250">
<ele>345.000000</ele>
<time>2010-01-01T02:07:15.000Z</time>
</trkpt>
<trkpt lat="31.3559320" lon="35.2962660">
<ele>345.000000</ele>
<time>2010-01-01T02:07:52.000Z</time>
</trkpt>
<trkpt lat="31.3556510" lon="35.2957730">
<ele>340.000000</ele>
<time>2010-01-01T02:08:12.000Z</time>
</trkpt>
<trkpt lat="31.3555450" lon="35.2951980">
<ele>332.000000</ele>
<time>2010-01-01T02:08:32.000Z</time>
</trkpt>
<trkpt lat="31.3555100" lon="35.2947870">
<ele>332.000000</ele>
<time>2010-01-01T02:08:46.000Z</time>
</trkpt>
<trkpt lat="31.3555100" lon="35.2945820">
<ele>332.000000</ele>
<time>2010-01-01T02:08:53.000Z</time>
</trkpt>
<trkpt lat="31.3554750" lon="35.2944180">
<ele>332.000000</ele>
<time>2010-01-01T02:08:59.000Z</time>
</trkpt>
<trkpt lat="31.3553200" lon="35.2942300">
<ele>333.000000</ele>
<time>2010-01-01T02:09:08.000Z</time>
</trkpt>
<trkpt lat="31.3551500" lon="35.2941400">
<ele>335.000031</ele>
<time>2010-01-01T02:09:15.000Z</time>
</trkpt>
<trkpt lat="31.3549900" lon="35.2940800">
<ele>336.000000</ele>
<time>2010-01-01T02:09:22.000Z</time>
</trkpt>
<trkpt lat="31.3548900" lon="35.2938200">
<ele>339.000000</ele>
<time>2010-01-01T02:09:32.000Z</time>
</trkpt>
<trkpt lat="31.3548100" lon="35.2937200">
<ele>341.000000</ele>
<time>2010-01-01T02:09:36.000Z</time>
</trkpt>
<trkpt lat="31.3547500" lon="35.2936600">
<ele>342.000000</ele>
<time>2010-01-01T02:09:40.000Z</time>
</trkpt>
<trkpt lat="31.3545900" lon="35.2935200">
<ele>345.000000</ele>
<time>2010-01-01T02:09:48.000Z</time>
</trkpt>
<trkpt lat="31.3544500" lon="35.2932900">
<ele>347.000000</ele>
<time>2010-01-01T02:09:57.000Z</time>
</trkpt>
<trkpt lat="31.3543300" lon="35.2930000">
<ele>351.000000</ele>
<time>2010-01-01T02:10:08.000Z</time>
</trkpt>
<trkpt lat="31.3543200" lon="35.2929800">
<ele>351.000000</ele>
<time>2010-01-01T02:10:09.000Z</time>
</trkpt>
<trkpt lat="31.3542200" lon="35.2928500">
<ele>353.000000</ele>
<time>2010-01-01T02:10:15.000Z</time>
</trkpt>
<trkpt lat="31.3542000" lon="35.2927900">
<ele>353.000000</ele>
<time>2010-01-01T02:10:17.000Z</time>
</trkpt>
<trkpt lat="31.3540000" lon="35.2924100">
<ele>355.000000</ele>
<time>2010-01-01T02:10:32.000Z</time>
</trkpt>
<trkpt lat="31.3538900" lon="35.2922400">
<ele>354.000000</ele>
<time>2010-01-01T02:10:40.000Z</time>
</trkpt>
<trkpt lat="31.3535500" lon="35.2919600">
<ele>348.000000</ele>
<time>2010-01-01T02:10:56.000Z</time>
</trkpt>
<trkpt lat="31.3534000" lon="35.2916800">
<ele>350.000000</ele>
<time>2010-01-01T02:11:08.000Z</time>
</trkpt>
<trkpt lat="31.3534200" lon="35.2915100">
<ele>351.000000</ele>
<time>2010-01-01T02:11:14.000Z</time>
</trkpt>
<trkpt lat="31.3534000" lon="35.2914300">
<ele>351.000000</ele>
<time>2010-01-01T02:11:16.000Z</time>
</trkpt>
<trkpt lat="31.3533200" lon="35.2913600">
<ele>350.000000</ele>
<time>2010-01-01T02:11:20.000Z</time>
</trkpt>
<trkpt lat="31.3532800" lon="35.2913200">
<ele>349.000031</ele>
<time>2010-01-01T02:11:23.000Z</time>
</trkpt>
<trkpt lat="31.3532300" lon="35.2912400">
<ele>348.000000</ele>
<time>2010-01-01T02:11:26.000Z</time>
</trkpt>
<trkpt lat="31.3530800" lon="35.2910300">
<ele>346.000031</ele>
<time>2010-01-01T02:11:35.000Z</time>
</trkpt>
<trkpt lat="31.3530300" lon="35.2909600">
<ele>346.000031</ele>
<time>2010-01-01T02:11:38.000Z</time>
</trkpt>
<trkpt lat="31.3529200" lon="35.2906900">
<ele>346.000031</ele>
<time>2010-01-01T02:11:49.000Z</time>
</trkpt>
<trkpt lat="31.3527400" lon="35.2904400">
<ele>347.000000</ele>
<time>2010-01-01T02:12:00.000Z</time>
</trkpt>
<trkpt lat="31.3524900" lon="35.2901300">
<ele>351.999969</ele>
<time>2010-01-01T02:12:14.000Z</time>
</trkpt>
<trkpt lat="31.3524800" lon="35.2901200">
<ele>351.999969</ele>
<time>2010-01-01T02:12:15.000Z</time>
</trkpt>
<trkpt lat="31.3523000" lon="35.2899400">
<ele>356.000000</ele>
<time>2010-01-01T02:12:24.000Z</time>
</trkpt>
<trkpt lat="31.3521500" lon="35.2898600">
<ele>358.000000</ele>
<time>2010-01-01T02:12:31.000Z</time>
</trkpt>
<trkpt lat="31.3520500" lon="35.2898500">
<ele>359.000000</ele>
<time>2010-01-01T02:12:35.000Z</time>
</trkpt>
<trkpt lat="31.3519700" lon="35.2898200">
<ele>360.000031</ele>
<time>2010-01-01T02:12:38.000Z</time>
</trkpt>
<trkpt lat="31.3518800" lon="35.2898200">
<ele>361.000000</ele>
<time>2010-01-01T02:12:42.000Z</time>
</trkpt>
<trkpt lat="31.3517600" lon="35.2898300">
<ele>362.999969</ele>
<time>2010-01-01T02:12:47.000Z</time>
</trkpt>
<trkpt lat="31.3516400" lon="35.2897900">
<ele>365.000000</ele>
<time>2010-01-01T02:12:52.000Z</time>
</trkpt>
<trkpt lat="31.3515000" lon="35.2897200">
<ele>366.000000</ele>
<time>2010-01-01T02:12:58.000Z</time>
</trkpt>
<trkpt lat="31.3513800" lon="35.2895900">
<ele>366.000000</ele>
<time>2010-01-01T02:13:04.000Z</time>
</trkpt>
<trkpt lat="31.3514600" lon="35.2892400">
<ele>368.000000</ele>
<time>2010-01-01T02:13:17.000Z</time>
</trkpt>
<trkpt lat="31.3514500" lon="35.2889500">
<ele>369.000000</ele>
<time>2010-01-01T02:13:27.000Z</time>
</trkpt>
<trkpt lat="31.3514700" lon="35.2885400">
<ele>368.000000</ele>
<time>2010-01-01T02:13:41.000Z</time>
</trkpt>
<trkpt lat="31.3514800" lon="35.2884600">
<ele>367.000000</ele>
<time>2010-01-01T02:13:44.000Z</time>
</trkpt>
<trkpt lat="31.3515700" lon="35.2881700">
<ele>367.000000</ele>
<time>2010-01-01T02:13:54.000Z</time>
</trkpt>
<trkpt lat="31.3516300" lon="35.2876200">
<ele>364.000000</ele>
<time>2010-01-01T02:14:13.000Z</time>
</trkpt>
<trkpt lat="31.3516900" lon="35.2874500">
<ele>364.000000</ele>
<time>2010-01-01T02:14:19.000Z</time>
</trkpt>
<trkpt lat="31.3517400" lon="35.2873200">
<ele>364.000000</ele>
<time>2010-01-01T02:14:24.000Z</time>
</trkpt>
<trkpt lat="31.3517800" lon="35.2868800">
<ele>362.000000</ele>
<time>2010-01-01T02:14:39.000Z</time>
</trkpt>
<trkpt lat="31.3518000" lon="35.2867800">
<ele>361.000000</ele>
<time>2010-01-01T02:14:43.000Z</time>
</trkpt>
<trkpt lat="31.3518200" lon="35.2866800">
<ele>361.000000</ele>
<time>2010-01-01T02:14:46.000Z</time>
</trkpt>
<trkpt lat="31.3518870" lon="35.2861630">
<ele>359.000000</ele>
<time>2010-01-01T02:15:04.000Z</time>
</trkpt>
<trkpt lat="31.3519570" lon="35.2858760">
<ele>357.000000</ele>
<time>2010-01-01T02:15:14.000Z</time>
</trkpt>
<trkpt lat="31.3519220" lon="35.2856710">
<ele>354.000000</ele>
<time>2010-01-01T02:15:22.000Z</time>
</trkpt>
<trkpt lat="31.3519580" lon="35.2855070">
<ele>351.999969</ele>
<time>2010-01-01T02:15:27.000Z</time>
</trkpt>
<trkpt lat="31.3520280" lon="35.2852600">
<ele>351.000000</ele>
<time>2010-01-01T02:15:36.000Z</time>
</trkpt>
<trkpt lat="31.3518520" lon="35.2850550">
<ele>351.000000</ele>
<time>2010-01-01T02:15:46.000Z</time>
</trkpt>
<trkpt lat="31.3516410" lon="35.2850140">
<ele>349.000031</ele>
<time>2010-01-01T02:15:55.000Z</time>
</trkpt>
<trkpt lat="31.3513940" lon="35.2847670">
<ele>353.000000</ele>
<time>2010-01-01T02:16:08.000Z</time>
</trkpt>
<trkpt lat="31.3513240" lon="35.2844390">
<ele>355.000000</ele>
<time>2010-01-01T02:16:19.000Z</time>
</trkpt>
<trkpt lat="31.3513240" lon="35.2843570">
<ele>355.000000</ele>
<time>2010-01-01T02:16:22.000Z</time>
</trkpt>
<trkpt lat="31.3513500" lon="35.2842800">
<ele>355.000000</ele>
<time>2010-01-01T02:16:25.000Z</time>
</trkpt>
<trkpt lat="31.3513400" lon="35.2842200">
<ele>354.000000</ele>
<time>2010-01-01T02:16:27.000Z</time>
</trkpt>
<trkpt lat="31.3513200" lon="35.2841800">
<ele>354.000000</ele>
<time>2010-01-01T02:16:29.000Z</time>
</trkpt>
<trkpt lat="31.3512900" lon="35.2841100">
<ele>353.000000</ele>
<time>2010-01-01T02:16:31.000Z</time>
</trkpt>
<trkpt lat="31.3512500" lon="35.2841200">
<ele>353.000000</ele>
<time>2010-01-01T02:16:33.000Z</time>
</trkpt>
<trkpt lat="31.3512000" lon="35.2841400">
<ele>353.000000</ele>
<time>2010-01-01T02:16:35.000Z</time>
</trkpt>
<trkpt lat="31.3511400" lon="35.2841600">
<ele>353.000000</ele>
<time>2010-01-01T02:16:38.000Z</time>
</trkpt>
<trkpt lat="31.3510500" lon="35.2841600">
<ele>351.999969</ele>
<time>2010-01-01T02:16:41.000Z</time>
</trkpt>
<trkpt lat="31.3509700" lon="35.2840800">
<ele>350.000000</ele>
<time>2010-01-01T02:16:45.000Z</time>
</trkpt>
<trkpt lat="31.3509100" lon="35.2840000">
<ele>349.000031</ele>
<time>2010-01-01T02:16:49.000Z</time>
</trkpt>
<trkpt lat="31.3508500" lon="35.2838800">
<ele>347.000000</ele>
<time>2010-01-01T02:16:54.000Z</time>
</trkpt>
<trkpt lat="31.3507900" lon="35.2837600">
<ele>345.000000</ele>
<time>2010-01-01T02:16:59.000Z</time>
</trkpt>
<trkpt lat="31.3507500" lon="35.2836800">
<ele>343.000000</ele>
<time>2010-01-01T02:17:02.000Z</time>
</trkpt>
<trkpt lat="31.3507000" lon="35.2834900">
<ele>340.000000</ele>
<time>2010-01-01T02:17:08.000Z</time>
</trkpt>
<trkpt lat="31.3506500" lon="35.2833300">
<ele>336.000000</ele>
<time>2010-01-01T02:17:14.000Z</time>
</trkpt>
<trkpt lat="31.3506300" lon="35.2832700">
<ele>335.000031</ele>
<time>2010-01-01T02:17:17.000Z</time>
</trkpt>
<trkpt lat="31.3506200" lon="35.2831300">
<ele>333.000000</ele>
<time>2010-01-01T02:17:21.000Z</time>
</trkpt>
<trkpt lat="31.3506400" lon="35.2830200">
<ele>332.000000</ele>
<time>2010-01-01T02:17:25.000Z</time>
</trkpt>
<trkpt lat="31.3506900" lon="35.2829600">
<ele>332.000000</ele>
<time>2010-01-01T02:17:28.000Z</time>
</trkpt>
<trkpt lat="31.3507400" lon="35.2829100">
<ele>332.000000</ele>
<time>2010-01-01T02:17:31.000Z</time>
</trkpt>
<trkpt lat="31.3508100" lon="35.2828100">
<ele>331.000000</ele>
<time>2010-01-01T02:17:35.000Z</time>
</trkpt>
<trkpt lat="31.3509100" lon="35.2827300">
<ele>329.000000</ele>
<time>2010-01-01T02:17:40.000Z</time>
</trkpt>
<trkpt lat="31.3510200" lon="35.2826500">
<ele>326.000000</ele>
<time>2010-01-01T02:17:45.000Z</time>
</trkpt>
<trkpt lat="31.3511200" lon="35.2825600">
<ele>323.999969</ele>
<time>2010-01-01T02:17:50.000Z</time>
</trkpt>
<trkpt lat="31.3511300" lon="35.2824400">
<ele>322.000000</ele>
<time>2010-01-01T02:17:54.000Z</time>
</trkpt>
<trkpt lat="31.3512100" lon="35.2822600">
<ele>322.000000</ele>
<time>2010-01-01T02:18:01.000Z</time>
</trkpt>
<trkpt lat="31.3513100" lon="35.2818900">
<ele>316.000000</ele>
<time>2010-01-01T02:18:14.000Z</time>
</trkpt>
<trkpt lat="31.3513500" lon="35.2818300">
<ele>315.000000</ele>
<time>2010-01-01T02:18:17.000Z</time>
</trkpt>
<trkpt lat="31.3514000" lon="35.2817800">
<ele>314.000000</ele>
<time>2010-01-01T02:18:20.000Z</time>
</trkpt>
<trkpt lat="31.3514400" lon="35.2817500">
<ele>312.999969</ele>
<time>2010-01-01T02:18:22.000Z</time>
</trkpt>
<trkpt lat="31.3514300" lon="35.2816900">
<ele>312.000000</ele>
<time>2010-01-01T02:18:24.000Z</time>
</trkpt>
<trkpt lat="31.3514300" lon="35.2816100">
<ele>310.000000</ele>
<time>2010-01-01T02:18:26.000Z</time>
</trkpt>
<trkpt lat="31.3514300" lon="35.2815500">
<ele>309.000000</ele>
<time>2010-01-01T02:18:28.000Z</time>
</trkpt>
<trkpt lat="31.3514700" lon="35.2814700">
<ele>307.000000</ele>
<time>2010-01-01T02:18:32.000Z</time>
</trkpt>
<trkpt lat="31.3514900" lon="35.2813900">
<ele>304.000000</ele>
<time>2010-01-01T02:18:35.000Z</time>
</trkpt>
<trkpt lat="31.3515100" lon="35.2813000">
<ele>302.000000</ele>
<time>2010-01-01T02:18:38.000Z</time>
</trkpt>
<trkpt lat="31.3515200" lon="35.2811600">
<ele>298.000000</ele>
<time>2010-01-01T02:18:42.000Z</time>
</trkpt>
<trkpt lat="31.3515600" lon="35.2810000">
<ele>295.000000</ele>
<time>2010-01-01T02:18:48.000Z</time>
</trkpt>
<trkpt lat="31.3515200" lon="35.2808800">
<ele>293.000000</ele>
<time>2010-01-01T02:18:53.000Z</time>
</trkpt>
<trkpt lat="31.3515600" lon="35.2807900">
<ele>291.000000</ele>
<time>2010-01-01T02:18:56.000Z</time>
</trkpt>
<trkpt lat="31.3515100" lon="35.2806800">
<ele>291.000000</ele>
<time>2010-01-01T02:19:00.000Z</time>
</trkpt>
<trkpt lat="31.3514400" lon="35.2805200">
<ele>289.000000</ele>
<time>2010-01-01T02:19:06.000Z</time>
</trkpt>
<trkpt lat="31.3513500" lon="35.2804000">
<ele>290.000000</ele>
<time>2010-01-01T02:19:12.000Z</time>
</trkpt>
<trkpt lat="31.3514300" lon="35.2802600">
<ele>288.000000</ele>
<time>2010-01-01T02:19:18.000Z</time>
</trkpt>
<trkpt lat="31.3514500" lon="35.2801000">
<ele>287.000000</ele>
<time>2010-01-01T02:19:23.000Z</time>
</trkpt>
<trkpt lat="31.3514900" lon="35.2798500">
<ele>285.000000</ele>
<time>2010-01-01T02:19:32.000Z</time>
</trkpt>
<trkpt lat="31.3515000" lon="35.2796800">
<ele>283.000000</ele>
<time>2010-01-01T02:19:38.000Z</time>
</trkpt>
<trkpt lat="31.3513500" lon="35.2794200">
<ele>282.000000</ele>
<time>2010-01-01T02:19:48.000Z</time>
</trkpt>
<trkpt lat="31.3512400" lon="35.2792100">
<ele>279.000000</ele>
<time>2010-01-01T02:19:57.000Z</time>
</trkpt>
<trkpt lat="31.3512400" lon="35.2791700">
<ele>279.000000</ele>
<time>2010-01-01T02:19:58.000Z</time>
</trkpt>
<trkpt lat="31.3512800" lon="35.2791400">
<ele>278.000000</ele>
<time>2010-01-01T02:20:00.000Z</time>
</trkpt>
<trkpt lat="31.3512600" lon="35.2789900">
<ele>275.000000</ele>
<time>2010-01-01T02:20:05.000Z</time>
</trkpt>
<trkpt lat="31.3512200" lon="35.2789900">
<ele>275.000000</ele>
<time>2010-01-01T02:20:07.000Z</time>
</trkpt>
<trkpt lat="31.3511700" lon="35.2789500">
<ele>275.000000</ele>
<time>2010-01-01T02:20:09.000Z</time>
</trkpt>
<trkpt lat="31.3511300" lon="35.2788400">
<ele>273.000000</ele>
<time>2010-01-01T02:20:13.000Z</time>
</trkpt>
<trkpt lat="31.3510700" lon="35.2786900">
<ele>271.000000</ele>
<time>2010-01-01T02:20:19.000Z</time>
</trkpt>
<trkpt lat="31.3509800" lon="35.2786000">
<ele>270.000000</ele>
<time>2010-01-01T02:20:24.000Z</time>
</trkpt>
<trkpt lat="31.3509800" lon="35.2784900">
<ele>268.000000</ele>
<time>2010-01-01T02:20:28.000Z</time>
</trkpt>
<trkpt lat="31.3510200" lon="35.2781500">
<ele>262.000000</ele>
<time>2010-01-01T02:20:39.000Z</time>
</trkpt>
<trkpt lat="31.3509600" lon="35.2779300">
<ele>261.000000</ele>
<time>2010-01-01T02:20:47.000Z</time>
</trkpt>
<trkpt lat="31.3509100" lon="35.2777700">
<ele>261.000000</ele>
<time>2010-01-01T02:20:53.000Z</time>
</trkpt>
<trkpt lat="31.3508900" lon="35.2777200">
<ele>261.000000</ele>
<time>2010-01-01T02:20:55.000Z</time>
</trkpt>
<trkpt lat="31.3508500" lon="35.2776800">
<ele>261.000000</ele>
<time>2010-01-01T02:20:57.000Z</time>
</trkpt>
<trkpt lat="31.3506500" lon="35.2774900">
<ele>259.000000</ele>
<time>2010-01-01T02:21:07.000Z</time>
</trkpt>
<trkpt lat="31.3505000" lon="35.2773500">
<ele>256.000000</ele>
<time>2010-01-01T02:21:15.000Z</time>
</trkpt>
<trkpt lat="31.3504800" lon="35.2772800">
<ele>255.000000</ele>
<time>2010-01-01T02:21:18.000Z</time>
</trkpt>
<trkpt lat="31.3504700" lon="35.2770200">
<ele>250.999985</ele>
<time>2010-01-01T02:21:26.000Z</time>
</trkpt>
<trkpt lat="31.3504900" lon="35.2770000">
<ele>250.999985</ele>
<time>2010-01-01T02:21:28.000Z</time>
</trkpt>
<trkpt lat="31.3505900" lon="35.2769400">
<ele>250.999985</ele>
<time>2010-01-01T02:21:32.000Z</time>
</trkpt>
<trkpt lat="31.3505400" lon="35.2765600">
<ele>246.000000</ele>
<time>2010-01-01T02:21:45.000Z</time>
</trkpt>
<trkpt lat="31.3504500" lon="35.2764000">
<ele>242.000000</ele>
<time>2010-01-01T02:21:52.000Z</time>
</trkpt>
<trkpt lat="31.3504100" lon="35.2762900">
<ele>238.000000</ele>
<time>2010-01-01T02:21:56.000Z</time>
</trkpt>
<trkpt lat="31.3504200" lon="35.2761400">
<ele>234.000000</ele>
<time>2010-01-01T02:22:01.000Z</time>
</trkpt>
<trkpt lat="31.3504000" lon="35.2759800">
<ele>230.000000</ele>
<time>2010-01-01T02:22:06.000Z</time>
</trkpt>
<trkpt lat="31.3504200" lon="35.2759100">
<ele>228.000000</ele>
<time>2010-01-01T02:22:09.000Z</time>
</trkpt>
<trkpt lat="31.3503900" lon="35.2758700">
<ele>227.000000</ele>
<time>2010-01-01T02:22:11.000Z</time>
</trkpt>
<trkpt lat="31.3503500" lon="35.2757900">
<ele>224.000000</ele>
<time>2010-01-01T02:22:14.000Z</time>
</trkpt>
<trkpt lat="31.3504200" lon="35.2757400">
<ele>224.000000</ele>
<time>2010-01-01T02:22:17.000Z</time>
</trkpt>
<trkpt lat="31.3504200" lon="35.2757000">
<ele>223.000000</ele>
<time>2010-01-01T02:22:19.000Z</time>
</trkpt>
<trkpt lat="31.3504300" lon="35.2756700">
<ele>223.000000</ele>
<time>2010-01-01T02:22:20.000Z</time>
</trkpt>
<trkpt lat="31.3504700" lon="35.2756500">
<ele>223.000000</ele>
<time>2010-01-01T02:22:21.000Z</time>
</trkpt>
<trkpt lat="31.3505000" lon="35.2755700">
<ele>221.000000</ele>
<time>2010-01-01T02:22:24.000Z</time>
</trkpt>
<trkpt lat="31.3505000" lon="35.2754800">
<ele>221.000000</ele>
<time>2010-01-01T02:22:28.000Z</time>
</trkpt>
<trkpt lat="31.3504900" lon="35.2754600">
<ele>221.000000</ele>
<time>2010-01-01T02:22:28.000Z</time>
</trkpt>
<trkpt lat="31.3504500" lon="35.2754400">
<ele>220.000000</ele>
<time>2010-01-01T02:22:30.000Z</time>
</trkpt>
<trkpt lat="31.3502700" lon="35.2754600">
<ele>218.000000</ele>
<time>2010-01-01T02:22:37.000Z</time>
</trkpt>
<trkpt lat="31.3502100" lon="35.2755000">
<ele>219.000015</ele>
<time>2010-01-01T02:22:40.000Z</time>
</trkpt>
<trkpt lat="31.3501500" lon="35.2755600">
<ele>220.000000</ele>
<time>2010-01-01T02:22:43.000Z</time>
</trkpt>
<trkpt lat="31.3500100" lon="35.2755300">
<ele>219.000015</ele>
<time>2010-01-01T02:22:49.000Z</time>
</trkpt>
<trkpt lat="31.3499500" lon="35.2755100">
<ele>219.000015</ele>
<time>2010-01-01T02:22:51.000Z</time>
</trkpt>
<trkpt lat="31.3498300" lon="35.2755200">
<ele>220.000000</ele>
<time>2010-01-01T02:22:56.000Z</time>
</trkpt>
<trkpt lat="31.3497200" lon="35.2755000">
<ele>221.000000</ele>
<time>2010-01-01T02:23:01.000Z</time>
</trkpt>
<trkpt lat="31.3496100" lon="35.2755300">
<ele>221.000000</ele>
<time>2010-01-01T02:23:05.000Z</time>
</trkpt>
<trkpt lat="31.3495300" lon="35.2755700">
<ele>222.000000</ele>
<time>2010-01-01T02:23:09.000Z</time>
</trkpt>
<trkpt lat="31.3494000" lon="35.2755800">
<ele>222.000000</ele>
<time>2010-01-01T02:23:14.000Z</time>
</trkpt>
<trkpt lat="31.3493200" lon="35.2755700">
<ele>221.000000</ele>
<time>2010-01-01T02:23:17.000Z</time>
</trkpt>
<trkpt lat="31.3491800" lon="35.2755700">
<ele>220.000000</ele>
<time>2010-01-01T02:23:23.000Z</time>
</trkpt>
<trkpt lat="31.3491200" lon="35.2755700">
<ele>220.000000</ele>
<time>2010-01-01T02:23:25.000Z</time>
</trkpt>
<trkpt lat="31.3490200" lon="35.2755600">
<ele>219.000015</ele>
<time>2010-01-01T02:23:29.000Z</time>
</trkpt>
<trkpt lat="31.3488200" lon="35.2755300">
<ele>218.000000</ele>
<time>2010-01-01T02:23:37.000Z</time>
</trkpt>
<trkpt lat="31.3485900" lon="35.2755100">
<ele>218.000000</ele>
<time>2010-01-01T02:23:46.000Z</time>
</trkpt>
<trkpt lat="31.3482200" lon="35.2754500">
<ele>219.000015</ele>
<time>2010-01-01T02:24:01.000Z</time>
</trkpt>
<trkpt lat="31.3478500" lon="35.2753800">
<ele>218.000000</ele>
<time>2010-01-01T02:24:16.000Z</time>
</trkpt>
<trkpt lat="31.3475200" lon="35.2753300">
<ele>220.000000</ele>
<time>2010-01-01T02:24:30.000Z</time>
</trkpt>
<trkpt lat="31.3472900" lon="35.2753700">
<ele>218.000000</ele>
<time>2010-01-01T02:24:39.000Z</time>
</trkpt>
<trkpt lat="31.3470900" lon="35.2753700">
<ele>217.000000</ele>
<time>2010-01-01T02:24:47.000Z</time>
</trkpt>
<trkpt lat="31.3467600" lon="35.2752900">
<ele>219.000015</ele>
<time>2010-01-01T02:25:01.000Z</time>
</trkpt>
<trkpt lat="31.3463900" lon="35.2753300">
<ele>218.000000</ele>
<time>2010-01-01T02:25:15.000Z</time>
</trkpt>
<trkpt lat="31.3459700" lon="35.2754500">
<ele>210.000000</ele>
<time>2010-01-01T02:25:33.000Z</time>
</trkpt>
<trkpt lat="31.3456600" lon="35.2755300">
<ele>207.000000</ele>
<time>2010-01-01T02:25:45.000Z</time>
</trkpt>
<trkpt lat="31.3455700" lon="35.2755400">
<ele>207.000000</ele>
<time>2010-01-01T02:25:49.000Z</time>
</trkpt>
<trkpt lat="31.3454900" lon="35.2755700">
<ele>204.000000</ele>
<time>2010-01-01T02:25:52.000Z</time>
</trkpt>
<trkpt lat="31.3452900" lon="35.2757200">
<ele>193.999985</ele>
<time>2010-01-01T02:26:02.000Z</time>
</trkpt>
<trkpt lat="31.3452000" lon="35.2757100">
<ele>199.000000</ele>
<time>2010-01-01T02:26:06.000Z</time>
</trkpt>
<trkpt lat="31.3452100" lon="35.2756400">
<ele>200.999985</ele>
<time>2010-01-01T02:26:08.000Z</time>
</trkpt>
<trkpt lat="31.3452400" lon="35.2755100">
<ele>203.000000</ele>
<time>2010-01-01T02:26:13.000Z</time>
</trkpt>
<trkpt lat="31.3452300" lon="35.2754100">
<ele>207.999985</ele>
<time>2010-01-01T02:26:16.000Z</time>
</trkpt>
<trkpt lat="31.3452300" lon="35.2753300">
<ele>211.000000</ele>
<time>2010-01-01T02:26:19.000Z</time>
</trkpt>
<trkpt lat="31.3452200" lon="35.2752700">
<ele>214.000000</ele>
<time>2010-01-01T02:26:21.000Z</time>
</trkpt>
<trkpt lat="31.3452200" lon="35.2751300">
<ele>218.000000</ele>
<time>2010-01-01T02:26:26.000Z</time>
</trkpt>
<trkpt lat="31.3451800" lon="35.2750600">
<ele>221.000000</ele>
<time>2010-01-01T02:26:29.000Z</time>
</trkpt>
<trkpt lat="31.3450700" lon="35.2749800">
<ele>225.000000</ele>
<time>2010-01-01T02:26:34.000Z</time>
</trkpt>
<trkpt lat="31.3450300" lon="35.2749700">
<ele>225.999985</ele>
<time>2010-01-01T02:26:35.000Z</time>
</trkpt>
<trkpt lat="31.3448900" lon="35.2750000">
<ele>229.000000</ele>
<time>2010-01-01T02:26:41.000Z</time>
</trkpt>
<trkpt lat="31.3447000" lon="35.2750100">
<ele>234.000000</ele>
<time>2010-01-01T02:26:49.000Z</time>
</trkpt>
<trkpt lat="31.3446300" lon="35.2750400">
<ele>234.000000</ele>
<time>2010-01-01T02:26:52.000Z</time>
</trkpt>
<trkpt lat="31.3445400" lon="35.2751800">
<ele>232.000000</ele>
<time>2010-01-01T02:26:58.000Z</time>
</trkpt>
<trkpt lat="31.3444200" lon="35.2752200">
<ele>235.000000</ele>
<time>2010-01-01T02:27:03.000Z</time>
</trkpt>
<trkpt lat="31.3442200" lon="35.2753100">
<ele>247.000000</ele>
<time>2010-01-01T02:27:11.000Z</time>
</trkpt>
<trkpt lat="31.3441400" lon="35.2754900">
<ele>250.000000</ele>
<time>2010-01-01T02:27:18.000Z</time>
</trkpt>
<trkpt lat="31.3441200" lon="35.2756800">
<ele>247.000000</ele>
<time>2010-01-01T02:27:25.000Z</time>
</trkpt>
<trkpt lat="31.3440400" lon="35.2758500">
<ele>245.000000</ele>
<time>2010-01-01T02:27:31.000Z</time>
</trkpt>
<trkpt lat="31.3440000" lon="35.2759000">
<ele>245.000000</ele>
<time>2010-01-01T02:27:34.000Z</time>
</trkpt>
<trkpt lat="31.3439500" lon="35.2761200">
<ele>243.000000</ele>
<time>2010-01-01T02:27:41.000Z</time>
</trkpt>
<trkpt lat="31.3439000" lon="35.2761800">
<ele>245.000000</ele>
<time>2010-01-01T02:27:44.000Z</time>
</trkpt>
<trkpt lat="31.3437800" lon="35.2762500">
<ele>248.000000</ele>
<time>2010-01-01T02:27:50.000Z</time>
</trkpt>
<trkpt lat="31.3436600" lon="35.2762300">
<ele>250.000000</ele>
<time>2010-01-01T02:27:55.000Z</time>
</trkpt>
<trkpt lat="31.3434000" lon="35.2761300">
<ele>255.000000</ele>
<time>2010-01-01T02:28:05.000Z</time>
</trkpt>
<trkpt lat="31.3431600" lon="35.2760900">
<ele>260.000000</ele>
<time>2010-01-01T02:28:15.000Z</time>
</trkpt>
<trkpt lat="31.3428900" lon="35.2760700">
<ele>265.000000</ele>
<time>2010-01-01T02:28:26.000Z</time>
</trkpt>
<trkpt lat="31.3428100" lon="35.2760800">
<ele>266.000000</ele>
<time>2010-01-01T02:28:29.000Z</time>
</trkpt>
<trkpt lat="31.3426900" lon="35.2761400">
<ele>264.000000</ele>
<time>2010-01-01T02:28:34.000Z</time>
</trkpt>
<trkpt lat="31.3426400" lon="35.2762000">
<ele>260.000000</ele>
<time>2010-01-01T02:28:37.000Z</time>
</trkpt>
<trkpt lat="31.3424700" lon="35.2763100">
<ele>255.000000</ele>
<time>2010-01-01T02:28:45.000Z</time>
</trkpt>
<trkpt lat="31.3422000" lon="35.2763100">
<ele>257.000000</ele>
<time>2010-01-01T02:28:56.000Z</time>
</trkpt>
<trkpt lat="31.3421100" lon="35.2762500">
<ele>260.000000</ele>
<time>2010-01-01T02:29:00.000Z</time>
</trkpt>
<trkpt lat="31.3420600" lon="35.2762200">
<ele>262.000000</ele>
<time>2010-01-01T02:29:02.000Z</time>
</trkpt>
<trkpt lat="31.3418200" lon="35.2762300">
<ele>266.000000</ele>
<time>2010-01-01T02:29:12.000Z</time>
</trkpt>
<trkpt lat="31.3417900" lon="35.2763000">
<ele>266.000000</ele>
<time>2010-01-01T02:29:15.000Z</time>
</trkpt>
<trkpt lat="31.3417900" lon="35.2765400">
<ele>260.000000</ele>
<time>2010-01-01T02:29:23.000Z</time>
</trkpt>
<trkpt lat="31.3415400" lon="35.2766900">
<ele>253.000000</ele>
<time>2010-01-01T02:29:34.000Z</time>
</trkpt>
<trkpt lat="31.3414300" lon="35.2767400">
<ele>247.000000</ele>
<time>2010-01-01T02:29:39.000Z</time>
</trkpt>
<trkpt lat="31.3414000" lon="35.2767300">
<ele>247.000000</ele>
<time>2010-01-01T02:29:40.000Z</time>
</trkpt>
<trkpt lat="31.3412400" lon="35.2767600">
<ele>249.000000</ele>
<time>2010-01-01T02:29:46.000Z</time>
</trkpt>
<trkpt lat="31.3411400" lon="35.2768600">
<ele>244.000015</ele>
<time>2010-01-01T02:29:52.000Z</time>
</trkpt>
<trkpt lat="31.3409800" lon="35.2767500">
<ele>256.000000</ele>
<time>2010-01-01T02:29:59.000Z</time>
</trkpt>
<trkpt lat="31.3409500" lon="35.2765600">
<ele>259.000000</ele>
<time>2010-01-01T02:30:06.000Z</time>
</trkpt>
<trkpt lat="31.3408800" lon="35.2762900">
<ele>258.000000</ele>
<time>2010-01-01T02:30:15.000Z</time>
</trkpt>
<trkpt lat="31.3406000" lon="35.2759500">
<ele>254.000000</ele>
<time>2010-01-01T02:30:32.000Z</time>
</trkpt>
<trkpt lat="31.3404600" lon="35.2758400">
<ele>252.000000</ele>
<time>2010-01-01T02:30:38.000Z</time>
</trkpt>
<trkpt lat="31.3401500" lon="35.2756000">
<ele>247.000000</ele>
<time>2010-01-01T02:30:53.000Z</time>
</trkpt>
<trkpt lat="31.3400700" lon="35.2754000">
<ele>246.000000</ele>
<time>2010-01-01T02:31:01.000Z</time>
</trkpt>
<trkpt lat="31.3399500" lon="35.2749400">
<ele>247.000000</ele>
<time>2010-01-01T02:31:17.000Z</time>
</trkpt>
<trkpt lat="31.3397600" lon="35.2746600">
<ele>245.000000</ele>
<time>2010-01-01T02:31:29.000Z</time>
</trkpt>
<trkpt lat="31.3395800" lon="35.2746300">
<ele>241.000000</ele>
<time>2010-01-01T02:31:37.000Z</time>
</trkpt>
<trkpt lat="31.3395000" lon="35.2746500">
<ele>239.000000</ele>
<time>2010-01-01T02:31:40.000Z</time>
</trkpt>
<trkpt lat="31.3394100" lon="35.2746900">
<ele>237.000015</ele>
<time>2010-01-01T02:31:44.000Z</time>
</trkpt>
<trkpt lat="31.3392100" lon="35.2747600">
<ele>232.999985</ele>
<time>2010-01-01T02:31:52.000Z</time>
</trkpt>
<trkpt lat="31.3391200" lon="35.2747800">
<ele>232.999985</ele>
<time>2010-01-01T02:31:56.000Z</time>
</trkpt>
<trkpt lat="31.3388300" lon="35.2749100">
<ele>230.000000</ele>
<time>2010-01-01T02:32:08.000Z</time>
</trkpt>
<trkpt lat="31.3387900" lon="35.2749300">
<ele>230.000000</ele>
<time>2010-01-01T02:32:10.000Z</time>
</trkpt>
<trkpt lat="31.3385000" lon="35.2749900">
<ele>227.000000</ele>
<time>2010-01-01T02:32:22.000Z</time>
</trkpt>
<trkpt lat="31.3384700" lon="35.2749600">
<ele>227.000000</ele>
<time>2010-01-01T02:32:23.000Z</time>
</trkpt>
<trkpt lat="31.3381800" lon="35.2745200">
<ele>231.000000</ele>
<time>2010-01-01T02:32:42.000Z</time>
</trkpt>
<trkpt lat="31.3380700" lon="35.2745200">
<ele>228.000000</ele>
<time>2010-01-01T02:32:47.000Z</time>
</trkpt>
<trkpt lat="31.3380100" lon="35.2747800">
<ele>224.000000</ele>
<time>2010-01-01T02:32:56.000Z</time>
</trkpt>
<trkpt lat="31.3380300" lon="35.2748600">
<ele>223.000000</ele>
<time>2010-01-01T02:32:59.000Z</time>
</trkpt>
<trkpt lat="31.3380800" lon="35.2749500">
<ele>222.000000</ele>
<time>2010-01-01T02:33:03.000Z</time>
</trkpt>
<trkpt lat="31.3381700" lon="35.2752000">
<ele>219.000015</ele>
<time>2010-01-01T02:33:12.000Z</time>
</trkpt>
<trkpt lat="31.3382400" lon="35.2755300">
<ele>214.000000</ele>
<time>2010-01-01T02:33:23.000Z</time>
</trkpt>
<trkpt lat="31.3380700" lon="35.2757800">
<ele>212.000015</ele>
<time>2010-01-01T02:33:34.000Z</time>
</trkpt>
<trkpt lat="31.3378800" lon="35.2757500">
<ele>213.000000</ele>
<time>2010-01-01T02:33:42.000Z</time>
</trkpt>
<trkpt lat="31.3376800" lon="35.2757200">
<ele>215.000000</ele>
<time>2010-01-01T02:33:50.000Z</time>
</trkpt>
<trkpt lat="31.3375000" lon="35.2756700">
<ele>218.000000</ele>
<time>2010-01-01T02:33:58.000Z</time>
</trkpt>
<trkpt lat="31.3373800" lon="35.2755900">
<ele>218.000000</ele>
<time>2010-01-01T02:34:03.000Z</time>
</trkpt>
<trkpt lat="31.3370000" lon="35.2755300">
<ele>221.000000</ele>
<time>2010-01-01T02:34:18.000Z</time>
</trkpt>
<trkpt lat="31.3368100" lon="35.2755500">
<ele>222.000000</ele>
<time>2010-01-01T02:34:26.000Z</time>
</trkpt>
<trkpt lat="31.3367600" lon="35.2755700">
<ele>221.000000</ele>
<time>2010-01-01T02:34:28.000Z</time>
</trkpt>
<trkpt lat="31.3365600" lon="35.2755900">
<ele>223.000000</ele>
<time>2010-01-01T02:34:36.000Z</time>
</trkpt>
<trkpt lat="31.3363500" lon="35.2756200">
<ele>225.999985</ele>
<time>2010-01-01T02:34:45.000Z</time>
</trkpt>
<trkpt lat="31.3361400" lon="35.2756600">
<ele>230.000000</ele>
<time>2010-01-01T02:34:53.000Z</time>
</trkpt>
<trkpt lat="31.3359600" lon="35.2756900">
<ele>232.000000</ele>
<time>2010-01-01T02:35:00.000Z</time>
</trkpt>
<trkpt lat="31.3357900" lon="35.2757600">
<ele>234.000000</ele>
<time>2010-01-01T02:35:08.000Z</time>
</trkpt>
<trkpt lat="31.3357200" lon="35.2757800">
<ele>235.000000</ele>
<time>2010-01-01T02:35:11.000Z</time>
</trkpt>
<trkpt lat="31.3356200" lon="35.2757700">
<ele>235.000000</ele>
<time>2010-01-01T02:35:15.000Z</time>
</trkpt>
<trkpt lat="31.3354000" lon="35.2757400">
<ele>237.000015</ele>
<time>2010-01-01T02:35:23.000Z</time>
</trkpt>
<trkpt lat="31.3352300" lon="35.2757200">
<ele>239.000000</ele>
<time>2010-01-01T02:35:30.000Z</time>
</trkpt>
<trkpt lat="31.3351500" lon="35.2757200">
<ele>239.000000</ele>
<time>2010-01-01T02:35:33.000Z</time>
</trkpt>
<trkpt lat="31.3349400" lon="35.2756900">
<ele>241.000000</ele>
<time>2010-01-01T02:35:42.000Z</time>
</trkpt>
<trkpt lat="31.3347000" lon="35.2756600">
<ele>243.000000</ele>
<time>2010-01-01T02:35:52.000Z</time>
</trkpt>
<trkpt lat="31.3345000" lon="35.2756500">
<ele>246.000000</ele>
<time>2010-01-01T02:36:00.000Z</time>
</trkpt>
<trkpt lat="31.3342800" lon="35.2756900">
<ele>248.000000</ele>
<time>2010-01-01T02:36:09.000Z</time>
</trkpt>
<trkpt lat="31.3340900" lon="35.2758100">
<ele>250.999985</ele>
<time>2010-01-01T02:36:17.000Z</time>
</trkpt>
<trkpt lat="31.3339100" lon="35.2758900">
<ele>255.000000</ele>
<time>2010-01-01T02:36:25.000Z</time>
</trkpt>
<trkpt lat="31.3337200" lon="35.2758000">
<ele>257.000000</ele>
<time>2010-01-01T02:36:33.000Z</time>
</trkpt>
<trkpt lat="31.3337500" lon="35.2756100">
<ele>255.000000</ele>
<time>2010-01-01T02:36:40.000Z</time>
</trkpt>
<trkpt lat="31.3338300" lon="35.2753600">
<ele>252.000000</ele>
<time>2010-01-01T02:36:49.000Z</time>
</trkpt>
<trkpt lat="31.3338900" lon="35.2751100">
<ele>250.000000</ele>
<time>2010-01-01T02:36:58.000Z</time>
</trkpt>
<trkpt lat="31.3338800" lon="35.2749500">
<ele>250.999985</ele>
<time>2010-01-01T02:37:03.000Z</time>
</trkpt>
<trkpt lat="31.3338500" lon="35.2748800">
<ele>253.000000</ele>
<time>2010-01-01T02:37:06.000Z</time>
</trkpt>
<trkpt lat="31.3337300" lon="35.2746700">
<ele>258.000000</ele>
<time>2010-01-01T02:37:14.000Z</time>
</trkpt>
<trkpt lat="31.3335700" lon="35.2744700">
<ele>263.000000</ele>
<time>2010-01-01T02:37:24.000Z</time>
</trkpt>
<trkpt lat="31.3335100" lon="35.2743000">
<ele>267.000000</ele>
<time>2010-01-01T02:37:30.000Z</time>
</trkpt>
<trkpt lat="31.3335800" lon="35.2740800">
<ele>268.000000</ele>
<time>2010-01-01T02:37:38.000Z</time>
</trkpt>
<trkpt lat="31.3337900" lon="35.2740000">
<ele>271.000000</ele>
<time>2010-01-01T02:37:47.000Z</time>
</trkpt>
<trkpt lat="31.3340100" lon="35.2739700">
<ele>272.000000</ele>
<time>2010-01-01T02:37:56.000Z</time>
</trkpt>
<trkpt lat="31.3343000" lon="35.2740000">
<ele>270.000000</ele>
<time>2010-01-01T02:38:08.000Z</time>
</trkpt>
<trkpt lat="31.3344800" lon="35.2741000">
<ele>268.000000</ele>
<time>2010-01-01T02:38:16.000Z</time>
</trkpt>
<trkpt lat="31.3347100" lon="35.2741000">
<ele>270.000000</ele>
<time>2010-01-01T02:38:25.000Z</time>
</trkpt>
<trkpt lat="31.3347900" lon="35.2740000">
<ele>272.000000</ele>
<time>2010-01-01T02:38:29.000Z</time>
</trkpt>
<trkpt lat="31.3347400" lon="35.2737600">
<ele>273.000000</ele>
<time>2010-01-01T02:38:38.000Z</time>
</trkpt>
<trkpt lat="31.3346100" lon="35.2735900">
<ele>275.000000</ele>
<time>2010-01-01T02:38:46.000Z</time>
</trkpt>
<trkpt lat="31.3344700" lon="35.2734500">
<ele>277.000000</ele>
<time>2010-01-01T02:38:53.000Z</time>
</trkpt>
<trkpt lat="31.3342900" lon="35.2732900">
<ele>280.000000</ele>
<time>2010-01-01T02:39:02.000Z</time>
</trkpt>
<trkpt lat="31.3340800" lon="35.2732000">
<ele>281.000000</ele>
<time>2010-01-01T02:39:11.000Z</time>
</trkpt>
<trkpt lat="31.3338600" lon="35.2731400">
<ele>282.000000</ele>
<time>2010-01-01T02:39:20.000Z</time>
</trkpt>
<trkpt lat="31.3336900" lon="35.2730900">
<ele>282.000000</ele>
<time>2010-01-01T02:39:27.000Z</time>
</trkpt>
<trkpt lat="31.3334900" lon="35.2730400">
<ele>286.000000</ele>
<time>2010-01-01T02:39:35.000Z</time>
</trkpt>
<trkpt lat="31.3334500" lon="35.2730200">
<ele>287.000000</ele>
<time>2010-01-01T02:39:37.000Z</time>
</trkpt>
<trkpt lat="31.3333800" lon="35.2729800">
<ele>290.000000</ele>
<time>2010-01-01T02:39:40.000Z</time>
</trkpt>
<trkpt lat="31.3332400" lon="35.2728600">
<ele>295.000000</ele>
<time>2010-01-01T02:39:47.000Z</time>
</trkpt>
<trkpt lat="31.3331200" lon="35.2726800">
<ele>298.000000</ele>
<time>2010-01-01T02:39:55.000Z</time>
</trkpt>
<trkpt lat="31.3329900" lon="35.2725400">
<ele>301.000000</ele>
<time>2010-01-01T02:40:02.000Z</time>
</trkpt>
<trkpt lat="31.3329400" lon="35.2725200">
<ele>302.000000</ele>
<time>2010-01-01T02:40:04.000Z</time>
</trkpt>
<trkpt lat="31.3328400" lon="35.2724800">
<ele>303.000000</ele>
<time>2010-01-01T02:40:08.000Z</time>
</trkpt>
<trkpt lat="31.3326300" lon="35.2724700">
<ele>307.000000</ele>
<time>2010-01-01T02:40:17.000Z</time>
</trkpt>
<trkpt lat="31.3325800" lon="35.2724900">
<ele>308.000000</ele>
<time>2010-01-01T02:40:19.000Z</time>
</trkpt>
<trkpt lat="31.3325300" lon="35.2725000">
<ele>309.000000</ele>
<time>2010-01-01T02:40:21.000Z</time>
</trkpt>
<trkpt lat="31.3323100" lon="35.2725500">
<ele>312.000000</ele>
<time>2010-01-01T02:40:30.000Z</time>
</trkpt>
<trkpt lat="31.3321600" lon="35.2725900">
<ele>314.000000</ele>
<time>2010-01-01T02:40:36.000Z</time>
</trkpt>
<trkpt lat="31.3319800" lon="35.2727600">
<ele>317.000000</ele>
<time>2010-01-01T02:40:45.000Z</time>
</trkpt>
<trkpt lat="31.3319300" lon="35.2729900">
<ele>318.000000</ele>
<time>2010-01-01T02:40:53.000Z</time>
</trkpt>
<trkpt lat="31.3319000" lon="35.2732900">
<ele>318.000000</ele>
<time>2010-01-01T02:41:04.000Z</time>
</trkpt>
<trkpt lat="31.3319300" lon="35.2736400">
<ele>319.000000</ele>
<time>2010-01-01T02:41:16.000Z</time>
</trkpt>
<trkpt lat="31.3319400" lon="35.2739200">
<ele>317.000000</ele>
<time>2010-01-01T02:41:25.000Z</time>
</trkpt>
<trkpt lat="31.3319600" lon="35.2741300">
<ele>315.000000</ele>
<time>2010-01-01T02:41:33.000Z</time>
</trkpt>
<trkpt lat="31.3319900" lon="35.2743700">
<ele>311.000000</ele>
<time>2010-01-01T02:41:41.000Z</time>
</trkpt>
<trkpt lat="31.3319400" lon="35.2748600">
<ele>306.000000</ele>
<time>2010-01-01T02:41:58.000Z</time>
</trkpt>
<trkpt lat="31.3316800" lon="35.2751500">
<ele>304.000000</ele>
<time>2010-01-01T02:42:12.000Z</time>
</trkpt>
<trkpt lat="31.3315100" lon="35.2753100">
<ele>303.000000</ele>
<time>2010-01-01T02:42:21.000Z</time>
</trkpt>
<trkpt lat="31.3313400" lon="35.2754700">
<ele>301.000000</ele>
<time>2010-01-01T02:42:30.000Z</time>
</trkpt>
<trkpt lat="31.3312700" lon="35.2755300">
<ele>300.000000</ele>
<time>2010-01-01T02:42:33.000Z</time>
</trkpt>
<trkpt lat="31.3312600" lon="35.2755100">
<ele>300.000000</ele>
<time>2010-01-01T02:42:34.000Z</time>
</trkpt>
<trkpt lat="31.3310500" lon="35.2757200">
<ele>297.000000</ele>
<time>2010-01-01T02:42:45.000Z</time>
</trkpt>
<trkpt lat="31.3309100" lon="35.2758100">
<ele>295.000000</ele>
<time>2010-01-01T02:42:51.000Z</time>
</trkpt>
<trkpt lat="31.3308800" lon="35.2758700">
<ele>295.000000</ele>
<time>2010-01-01T02:42:54.000Z</time>
</trkpt>
<trkpt lat="31.3303500" lon="35.2756300">
<ele>302.000000</ele>
<time>2010-01-01T02:43:16.000Z</time>
</trkpt>
<trkpt lat="31.3300600" lon="35.2755800">
<ele>305.000000</ele>
<time>2010-01-01T02:43:28.000Z</time>
</trkpt>
<trkpt lat="31.3297700" lon="35.2755800">
<ele>307.000000</ele>
<time>2010-01-01T02:43:40.000Z</time>
</trkpt>
<trkpt lat="31.3296300" lon="35.2755600">
<ele>307.000000</ele>
<time>2010-01-01T02:43:45.000Z</time>
</trkpt>
<trkpt lat="31.3295400" lon="35.2755100">
<ele>307.000000</ele>
<time>2010-01-01T02:43:49.000Z</time>
</trkpt>
<trkpt lat="31.3293300" lon="35.2753400">
<ele>307.000000</ele>
<time>2010-01-01T02:44:00.000Z</time>
</trkpt>
<trkpt lat="31.3290900" lon="35.2750200">
<ele>308.000000</ele>
<time>2010-01-01T02:44:14.000Z</time>
</trkpt>
<trkpt lat="31.3289600" lon="35.2746800">
<ele>308.000000</ele>
<time>2010-01-01T02:44:27.000Z</time>
</trkpt>
<trkpt lat="31.3289600" lon="35.2746700">
<ele>308.000000</ele>
<time>2010-01-01T02:44:27.000Z</time>
</trkpt>
<trkpt lat="31.3288600" lon="35.2742600">
<ele>310.000000</ele>
<time>2010-01-01T02:44:42.000Z</time>
</trkpt>
<trkpt lat="31.3287700" lon="35.2735500">
<ele>310.000000</ele>
<time>2010-01-01T02:45:06.000Z</time>
</trkpt>
<trkpt lat="31.3287600" lon="35.2728600">
<ele>312.000000</ele>
<time>2010-01-01T02:45:30.000Z</time>
</trkpt>
<trkpt lat="31.3287100" lon="35.2724900">
<ele>314.000000</ele>
<time>2010-01-01T02:45:43.000Z</time>
</trkpt>
<trkpt lat="31.3286300" lon="35.2721200">
<ele>317.000000</ele>
<time>2010-01-01T02:45:56.000Z</time>
</trkpt>
<trkpt lat="31.3284700" lon="35.2718400">
<ele>323.000000</ele>
<time>2010-01-01T02:46:07.000Z</time>
</trkpt>
<trkpt lat="31.3283900" lon="35.2717500">
<ele>325.000000</ele>
<time>2010-01-01T02:46:12.000Z</time>
</trkpt>
<trkpt lat="31.3281600" lon="35.2715700">
<ele>330.000000</ele>
<time>2010-01-01T02:46:23.000Z</time>
</trkpt>
<trkpt lat="31.3280200" lon="35.2715000">
<ele>333.000000</ele>
<time>2010-01-01T02:46:29.000Z</time>
</trkpt>
<trkpt lat="31.3277700" lon="35.2712400">
<ele>337.000000</ele>
<time>2010-01-01T02:46:42.000Z</time>
</trkpt>
<trkpt lat="31.3276200" lon="35.2710600">
<ele>337.999969</ele>
<time>2010-01-01T02:46:51.000Z</time>
</trkpt>
<trkpt lat="31.3275400" lon="35.2710000">
<ele>339.000000</ele>
<time>2010-01-01T02:46:55.000Z</time>
</trkpt>
<trkpt lat="31.3274000" lon="35.2709300">
<ele>342.000000</ele>
<time>2010-01-01T02:47:01.000Z</time>
</trkpt>
<trkpt lat="31.3273500" lon="35.2708900">
<ele>343.000000</ele>
<time>2010-01-01T02:47:03.000Z</time>
</trkpt>
<trkpt lat="31.3272900" lon="35.2708000">
<ele>344.000000</ele>
<time>2010-01-01T02:47:07.000Z</time>
</trkpt>
<trkpt lat="31.3272800" lon="35.2706700">
<ele>345.000000</ele>
<time>2010-01-01T02:47:12.000Z</time>
</trkpt>
<trkpt lat="31.3273600" lon="35.2702600">
<ele>347.000000</ele>
<time>2010-01-01T02:47:26.000Z</time>
</trkpt>
<trkpt lat="31.3273700" lon="35.2698000">
<ele>351.000000</ele>
<time>2010-01-01T02:47:42.000Z</time>
</trkpt>
<trkpt lat="31.3275000" lon="35.2690800">
<ele>356.000000</ele>
<time>2010-01-01T02:48:07.000Z</time>
</trkpt>
<trkpt lat="31.3275100" lon="35.2689000">
<ele>358.000000</ele>
<time>2010-01-01T02:48:13.000Z</time>
</trkpt>
<trkpt lat="31.3274900" lon="35.2687800">
<ele>359.000000</ele>
<time>2010-01-01T02:48:17.000Z</time>
</trkpt>
<trkpt lat="31.3274100" lon="35.2686500">
<ele>362.000000</ele>
<time>2010-01-01T02:48:23.000Z</time>
</trkpt>
<trkpt lat="31.3273300" lon="35.2685600">
<ele>364.000000</ele>
<time>2010-01-01T02:48:27.000Z</time>
</trkpt>
<trkpt lat="31.3269600" lon="35.2682700">
<ele>372.000000</ele>
<time>2010-01-01T02:48:45.000Z</time>
</trkpt>
<trkpt lat="31.3268600" lon="35.2681400">
<ele>375.000000</ele>
<time>2010-01-01T02:48:51.000Z</time>
</trkpt>
<trkpt lat="31.3265400" lon="35.2676000">
<ele>384.000000</ele>
<time>2010-01-01T02:49:13.000Z</time>
</trkpt>
<trkpt lat="31.3265000" lon="35.2675000">
<ele>385.000031</ele>
<time>2010-01-01T02:49:17.000Z</time>
</trkpt>
<trkpt lat="31.3264800" lon="35.2673400">
<ele>386.000000</ele>
<time>2010-01-01T02:49:23.000Z</time>
</trkpt>
<trkpt lat="31.3264900" lon="35.2671300">
<ele>386.000000</ele>
<time>2010-01-01T02:49:30.000Z</time>
</trkpt>
<trkpt lat="31.3265500" lon="35.2667800">
<ele>385.000031</ele>
<time>2010-01-01T02:49:42.000Z</time>
</trkpt>
<trkpt lat="31.3265500" lon="35.2667000">
<ele>385.000031</ele>
<time>2010-01-01T02:49:45.000Z</time>
</trkpt>
<trkpt lat="31.3264800" lon="35.2664500">
<ele>385.000031</ele>
<time>2010-01-01T02:49:54.000Z</time>
</trkpt>
<trkpt lat="31.3264200" lon="35.2663600">
<ele>386.000000</ele>
<time>2010-01-01T02:49:58.000Z</time>
</trkpt>
<trkpt lat="31.3258800" lon="35.2657100">
<ele>387.999969</ele>
<time>2010-01-01T02:50:29.000Z</time>
</trkpt>
<trkpt lat="31.3254900" lon="35.2654400">
<ele>385.000031</ele>
<time>2010-01-01T02:50:47.000Z</time>
</trkpt>
<trkpt lat="31.3252200" lon="35.2651900">
<ele>382.000000</ele>
<time>2010-01-01T02:51:01.000Z</time>
</trkpt>
<trkpt lat="31.3246100" lon="35.2644900">
<ele>380.000000</ele>
<time>2010-01-01T02:51:35.000Z</time>
</trkpt>
<trkpt lat="31.3241800" lon="35.2640200">
<ele>381.000000</ele>
<time>2010-01-01T02:51:58.000Z</time>
</trkpt>
<trkpt lat="31.3236200" lon="35.2632500">
<ele>387.000000</ele>
<time>2010-01-01T02:52:33.000Z</time>
</trkpt>
<trkpt lat="31.3233800" lon="35.2629400">
<ele>390.000000</ele>
<time>2010-01-01T02:52:47.000Z</time>
</trkpt>
<trkpt lat="31.3233100" lon="35.2628100">
<ele>392.000000</ele>
<time>2010-01-01T02:52:53.000Z</time>
</trkpt>
<trkpt lat="31.3232700" lon="35.2627100">
<ele>393.000000</ele>
<time>2010-01-01T02:52:56.000Z</time>
</trkpt>
<trkpt lat="31.3232600" lon="35.2625700">
<ele>395.000000</ele>
<time>2010-01-01T02:53:01.000Z</time>
</trkpt>
<trkpt lat="31.3232800" lon="35.2623300">
<ele>398.000000</ele>
<time>2010-01-01T02:53:09.000Z</time>
</trkpt>
<trkpt lat="31.3233000" lon="35.2622500">
<ele>399.000031</ele>
<time>2010-01-01T02:53:12.000Z</time>
</trkpt>
<trkpt lat="31.3234800" lon="35.2619200">
<ele>401.999969</ele>
<time>2010-01-01T02:53:26.000Z</time>
</trkpt>
<trkpt lat="31.3235300" lon="35.2617600">
<ele>403.000000</ele>
<time>2010-01-01T02:53:31.000Z</time>
</trkpt>
<trkpt lat="31.3235900" lon="35.2611300">
<ele>408.000000</ele>
<time>2010-01-01T02:53:53.000Z</time>
</trkpt>
<trkpt lat="31.3236100" lon="35.2609900">
<ele>409.000000</ele>
<time>2010-01-01T02:53:58.000Z</time>
</trkpt>
<trkpt lat="31.3238600" lon="35.2603000">
<ele>419.000000</ele>
<time>2010-01-01T02:54:24.000Z</time>
</trkpt>
<trkpt lat="31.3239100" lon="35.2600100">
<ele>420.000000</ele>
<time>2010-01-01T02:54:34.000Z</time>
</trkpt>
<trkpt lat="31.3239100" lon="35.2598600">
<ele>420.000000</ele>
<time>2010-01-01T02:54:39.000Z</time>
</trkpt>
<trkpt lat="31.3238900" lon="35.2597200">
<ele>421.000000</ele>
<time>2010-01-01T02:54:44.000Z</time>
</trkpt>
<trkpt lat="31.3238000" lon="35.2595600">
<ele>422.000000</ele>
<time>2010-01-01T02:54:50.000Z</time>
</trkpt>
<trkpt lat="31.3236500" lon="35.2595000">
<ele>423.000000</ele>
<time>2010-01-01T02:54:57.000Z</time>
</trkpt>
<trkpt lat="31.3233500" lon="35.2594400">
<ele>423.000000</ele>
<time>2010-01-01T02:55:09.000Z</time>
</trkpt>
<trkpt lat="31.3231700" lon="35.2594500">
<ele>422.000000</ele>
<time>2010-01-01T02:55:16.000Z</time>
</trkpt>
<trkpt lat="31.3228700" lon="35.2595200">
<ele>422.000000</ele>
<time>2010-01-01T02:55:28.000Z</time>
</trkpt>
<trkpt lat="31.3226100" lon="35.2595700">
<ele>423.000000</ele>
<time>2010-01-01T02:55:39.000Z</time>
</trkpt>
<trkpt lat="31.3222200" lon="35.2597200">
<ele>425.000000</ele>
<time>2010-01-01T02:55:55.000Z</time>
</trkpt>
<trkpt lat="31.3220300" lon="35.2598500">
<ele>426.000000</ele>
<time>2010-01-01T02:56:04.000Z</time>
</trkpt>
<trkpt lat="31.3219500" lon="35.2599300">
<ele>426.000000</ele>
<time>2010-01-01T02:56:08.000Z</time>
</trkpt>
<trkpt lat="31.3218700" lon="35.2600500">
<ele>425.000000</ele>
<time>2010-01-01T02:56:13.000Z</time>
</trkpt>
<trkpt lat="31.3217400" lon="35.2601800">
<ele>425.000000</ele>
<time>2010-01-01T02:56:20.000Z</time>
</trkpt>
<trkpt lat="31.3214300" lon="35.2602000">
<ele>424.000031</ele>
<time>2010-01-01T02:56:33.000Z</time>
</trkpt>
<trkpt lat="31.3212900" lon="35.2601700">
<ele>423.000000</ele>
<time>2010-01-01T02:56:38.000Z</time>
</trkpt>
<trkpt lat="31.3212000" lon="35.2601800">
<ele>421.000000</ele>
<time>2010-01-01T02:56:42.000Z</time>
</trkpt>
<trkpt lat="31.3210900" lon="35.2602400">
<ele>420.000000</ele>
<time>2010-01-01T02:56:47.000Z</time>
</trkpt>
<trkpt lat="31.3209100" lon="35.2604100">
<ele>418.000000</ele>
<time>2010-01-01T02:56:56.000Z</time>
</trkpt>
<trkpt lat="31.3207900" lon="35.2604600">
<ele>417.000000</ele>
<time>2010-01-01T02:57:01.000Z</time>
</trkpt>
<trkpt lat="31.3206400" lon="35.2605700">
<ele>415.999969</ele>
<time>2010-01-01T02:57:08.000Z</time>
</trkpt>
<trkpt lat="31.3204200" lon="35.2606700">
<ele>414.000000</ele>
<time>2010-01-01T02:57:18.000Z</time>
</trkpt>
<trkpt lat="31.3202900" lon="35.2607500">
<ele>412.000000</ele>
<time>2010-01-01T02:57:24.000Z</time>
</trkpt>
<trkpt lat="31.3200900" lon="35.2608400">
<ele>411.000000</ele>
<time>2010-01-01T02:57:32.000Z</time>
</trkpt>
<trkpt lat="31.3198300" lon="35.2608800">
<ele>409.000000</ele>
<time>2010-01-01T02:57:43.000Z</time>
</trkpt>
<trkpt lat="31.3196600" lon="35.2609600">
<ele>407.000000</ele>
<time>2010-01-01T02:57:50.000Z</time>
</trkpt>
<trkpt lat="31.3193100" lon="35.2610700">
<ele>403.000000</ele>
<time>2010-01-01T02:58:05.000Z</time>
</trkpt>
<trkpt lat="31.3191700" lon="35.2610900">
<ele>401.999969</ele>
<time>2010-01-01T02:58:10.000Z</time>
</trkpt>
<trkpt lat="31.3189200" lon="35.2611000">
<ele>399.000031</ele>
<time>2010-01-01T02:58:20.000Z</time>
</trkpt>
<trkpt lat="31.3188700" lon="35.2611100">
<ele>399.000031</ele>
<time>2010-01-01T02:58:22.000Z</time>
</trkpt>
<trkpt lat="31.3186400" lon="35.2611200">
<ele>400.000000</ele>
<time>2010-01-01T02:58:31.000Z</time>
</trkpt>
<trkpt lat="31.3184200" lon="35.2610700">
<ele>399.000031</ele>
<time>2010-01-01T02:58:40.000Z</time>
</trkpt>
<trkpt lat="31.3183300" lon="35.2610700">
<ele>399.000031</ele>
<time>2010-01-01T02:58:44.000Z</time>
</trkpt>
<trkpt lat="31.3181400" lon="35.2611200">
<ele>401.000000</ele>
<time>2010-01-01T02:58:52.000Z</time>
</trkpt>
<trkpt lat="31.3180600" lon="35.2610900">
<ele>401.000000</ele>
<time>2010-01-01T02:58:55.000Z</time>
</trkpt>
<trkpt lat="31.3178800" lon="35.2608500">
<ele>396.000000</ele>
<time>2010-01-01T02:59:06.000Z</time>
</trkpt>
<trkpt lat="31.3177700" lon="35.2607500">
<ele>394.000000</ele>
<time>2010-01-01T02:59:12.000Z</time>
</trkpt>
<trkpt lat="31.3176300" lon="35.2606900">
<ele>393.000000</ele>
<time>2010-01-01T02:59:18.000Z</time>
</trkpt>
<trkpt lat="31.3175000" lon="35.2607300">
<ele>395.000000</ele>
<time>2010-01-01T02:59:23.000Z</time>
</trkpt>
<trkpt lat="31.3173700" lon="35.2607200">
<ele>395.000000</ele>
<time>2010-01-01T02:59:28.000Z</time>
</trkpt>
<trkpt lat="31.3172000" lon="35.2605700">
<ele>393.000000</ele>
<time>2010-01-01T02:59:37.000Z</time>
</trkpt>
<trkpt lat="31.3171500" lon="35.2605400">
<ele>393.000000</ele>
<time>2010-01-01T02:59:39.000Z</time>
</trkpt>
<trkpt lat="31.3170100" lon="35.2605400">
<ele>393.000000</ele>
<time>2010-01-01T02:59:45.000Z</time>
</trkpt>
<trkpt lat="31.3168400" lon="35.2606200">
<ele>393.000000</ele>
<time>2010-01-01T02:59:52.000Z</time>
</trkpt>
<trkpt lat="31.3166700" lon="35.2606800">
<ele>392.000000</ele>
<time>2010-01-01T02:59:59.000Z</time>
</trkpt>
<trkpt lat="31.3165700" lon="35.2607700">
<ele>391.000000</ele>
<time>2010-01-01T03:00:04.000Z</time>
</trkpt>
<trkpt lat="31.3160200" lon="35.2607800">
<ele>380.000000</ele>
<time>2010-01-01T03:00:26.000Z</time>
</trkpt>
<trkpt lat="31.3159300" lon="35.2606800">
<ele>378.000000</ele>
<time>2010-01-01T03:00:31.000Z</time>
</trkpt>
<trkpt lat="31.3157100" lon="35.2602900">
<ele>373.000000</ele>
<time>2010-01-01T03:00:47.000Z</time>
</trkpt>
<trkpt lat="31.3156200" lon="35.2602000">
<ele>371.000000</ele>
<time>2010-01-01T03:00:52.000Z</time>
</trkpt>
<trkpt lat="31.3153300" lon="35.2601500">
<ele>368.000000</ele>
<time>2010-01-01T03:01:04.000Z</time>
</trkpt>
<trkpt lat="31.3150900" lon="35.2601500">
<ele>367.000000</ele>
<time>2010-01-01T03:01:13.000Z</time>
</trkpt>
<trkpt lat="31.3148000" lon="35.2601100">
<ele>367.000000</ele>
<time>2010-01-01T03:01:25.000Z</time>
</trkpt>
<trkpt lat="31.3141700" lon="35.2601200">
<ele>369.000000</ele>
<time>2010-01-01T03:01:50.000Z</time>
</trkpt>
<trkpt lat="31.3139600" lon="35.2601400">
<ele>369.000000</ele>
<time>2010-01-01T03:01:59.000Z</time>
</trkpt>
<trkpt lat="31.3138100" lon="35.2601000">
<ele>369.000000</ele>
<time>2010-01-01T03:02:05.000Z</time>
</trkpt>
<trkpt lat="31.3136700" lon="35.2599700">
<ele>370.000000</ele>
<time>2010-01-01T03:02:12.000Z</time>
</trkpt>
<trkpt lat="31.3135700" lon="35.2598400">
<ele>372.000000</ele>
<time>2010-01-01T03:02:18.000Z</time>
</trkpt>
<trkpt lat="31.3134000" lon="35.2597700">
<ele>373.000000</ele>
<time>2010-01-01T03:02:25.000Z</time>
</trkpt>
<trkpt lat="31.3132200" lon="35.2597600">
<ele>374.000031</ele>
<time>2010-01-01T03:02:32.000Z</time>
</trkpt>
<trkpt lat="31.3130100" lon="35.2596700">
<ele>375.000000</ele>
<time>2010-01-01T03:02:41.000Z</time>
</trkpt>
<trkpt lat="31.3128300" lon="35.2595500">
<ele>376.000000</ele>
<time>2010-01-01T03:02:49.000Z</time>
</trkpt>
<trkpt lat="31.3127600" lon="35.2595700">
<ele>376.000000</ele>
<time>2010-01-01T03:02:52.000Z</time>
</trkpt>
<trkpt lat="31.3127000" lon="35.2596700">
<ele>375.000000</ele>
<time>2010-01-01T03:02:57.000Z</time>
</trkpt>
<trkpt lat="31.3126800" lon="35.2598400">
<ele>375.000000</ele>
<time>2010-01-01T03:03:02.000Z</time>
</trkpt>
<trkpt lat="31.3127000" lon="35.2600100">
<ele>374.000031</ele>
<time>2010-01-01T03:03:08.000Z</time>
</trkpt>
<trkpt lat="31.3127500" lon="35.2602000">
<ele>373.000000</ele>
<time>2010-01-01T03:03:15.000Z</time>
</trkpt>
<trkpt lat="31.3127900" lon="35.2604500">
<ele>373.000000</ele>
<time>2010-01-01T03:03:24.000Z</time>
</trkpt>
<trkpt lat="31.3128900" lon="35.2606800">
<ele>371.000000</ele>
<time>2010-01-01T03:03:33.000Z</time>
</trkpt>
<trkpt lat="31.3129500" lon="35.2609200">
<ele>371.000000</ele>
<time>2010-01-01T03:03:41.000Z</time>
</trkpt>
<trkpt lat="31.3129500" lon="35.2610000">
<ele>372.000000</ele>
<time>2010-01-01T03:03:44.000Z</time>
</trkpt>
<trkpt lat="31.3131300" lon="35.2613600">
<ele>369.000000</ele>
<time>2010-01-01T03:03:58.000Z</time>
</trkpt>
<trkpt lat="31.3131900" lon="35.2616500">
<ele>367.000000</ele>
<time>2010-01-01T03:04:08.000Z</time>
</trkpt>
<trkpt lat="31.3131900" lon="35.2616900">
<ele>366.000000</ele>
<time>2010-01-01T03:04:10.000Z</time>
</trkpt>
<trkpt lat="31.3131200" lon="35.2617900">
<ele>368.000000</ele>
<time>2010-01-01T03:04:14.000Z</time>
</trkpt>
<trkpt lat="31.3131000" lon="35.2620000">
<ele>367.000000</ele>
<time>2010-01-01T03:04:21.000Z</time>
</trkpt>
<trkpt lat="31.3131500" lon="35.2621400">
<ele>364.000000</ele>
<time>2010-01-01T03:04:27.000Z</time>
</trkpt>
<trkpt lat="31.3131500" lon="35.2622900">
<ele>362.000000</ele>
<time>2010-01-01T03:04:32.000Z</time>
</trkpt>
<trkpt lat="31.3131500" lon="35.2624400">
<ele>360.000031</ele>
<time>2010-01-01T03:04:37.000Z</time>
</trkpt>
<trkpt lat="31.3131300" lon="35.2624700">
<ele>360.000031</ele>
<time>2010-01-01T03:04:38.000Z</time>
</trkpt>
<trkpt lat="31.3130300" lon="35.2625300">
<ele>362.000000</ele>
<time>2010-01-01T03:04:43.000Z</time>
</trkpt>
<trkpt lat="31.3129200" lon="35.2628400">
<ele>361.000000</ele>
<time>2010-01-01T03:04:54.000Z</time>
</trkpt>
<trkpt lat="31.3129000" lon="35.2629700">
<ele>359.000000</ele>
<time>2010-01-01T03:04:59.000Z</time>
</trkpt>
<trkpt lat="31.3129000" lon="35.2630900">
<ele>358.000000</ele>
<time>2010-01-01T03:05:03.000Z</time>
</trkpt>
<trkpt lat="31.3129400" lon="35.2631600">
<ele>356.000000</ele>
<time>2010-01-01T03:05:06.000Z</time>
</trkpt>
<trkpt lat="31.3129700" lon="35.2632800">
<ele>355.000000</ele>
<time>2010-01-01T03:05:10.000Z</time>
</trkpt>
<trkpt lat="31.3130400" lon="35.2633700">
<ele>353.000000</ele>
<time>2010-01-01T03:05:14.000Z</time>
</trkpt>
<trkpt lat="31.3130600" lon="35.2634500">
<ele>351.999969</ele>
<time>2010-01-01T03:05:17.000Z</time>
</trkpt>
<trkpt lat="31.3130400" lon="35.2637000">
<ele>351.000000</ele>
<time>2010-01-01T03:05:26.000Z</time>
</trkpt>
<trkpt lat="31.3130800" lon="35.2642100">
<ele>346.000031</ele>
<time>2010-01-01T03:05:43.000Z</time>
</trkpt>
<trkpt lat="31.3129200" lon="35.2645400">
<ele>343.000000</ele>
<time>2010-01-01T03:05:56.000Z</time>
</trkpt>
<trkpt lat="31.3128000" lon="35.2646300">
<ele>341.000000</ele>
<time>2010-01-01T03:06:02.000Z</time>
</trkpt>
<trkpt lat="31.3127300" lon="35.2647300">
<ele>341.000000</ele>
<time>2010-01-01T03:06:06.000Z</time>
</trkpt>
<trkpt lat="31.3126500" lon="35.2648000">
<ele>341.000000</ele>
<time>2010-01-01T03:06:10.000Z</time>
</trkpt>
<trkpt lat="31.3125100" lon="35.2650500">
<ele>340.000000</ele>
<time>2010-01-01T03:06:20.000Z</time>
</trkpt>
<trkpt lat="31.3124400" lon="35.2652400">
<ele>340.000000</ele>
<time>2010-01-01T03:06:27.000Z</time>
</trkpt>
<trkpt lat="31.3124200" lon="35.2652800">
<ele>340.000000</ele>
<time>2010-01-01T03:06:29.000Z</time>
</trkpt>
<trkpt lat="31.3122900" lon="35.2653500">
<ele>339.000000</ele>
<time>2010-01-01T03:06:35.000Z</time>
</trkpt>
<trkpt lat="31.3121800" lon="35.2654700">
<ele>337.999969</ele>
<time>2010-01-01T03:06:41.000Z</time>
</trkpt>
<trkpt lat="31.3119300" lon="35.2659200">
<ele>336.000000</ele>
<time>2010-01-01T03:06:59.000Z</time>
</trkpt>
<trkpt lat="31.3115000" lon="35.2663200">
<ele>334.000000</ele>
<time>2010-01-01T03:07:21.000Z</time>
</trkpt>
<trkpt lat="31.3111100" lon="35.2664300">
<ele>331.000000</ele>
<time>2010-01-01T03:07:37.000Z</time>
</trkpt>
<trkpt lat="31.3109000" lon="35.2666500">
<ele>333.000000</ele>
<time>2010-01-01T03:07:48.000Z</time>
</trkpt>
<trkpt lat="31.3104400" lon="35.2670000">
<ele>329.000000</ele>
<time>2010-01-01T03:08:10.000Z</time>
</trkpt>
<trkpt lat="31.3103300" lon="35.2670400">
<ele>328.000000</ele>
<time>2010-01-01T03:08:15.000Z</time>
</trkpt>
<trkpt lat="31.3102300" lon="35.2671800">
<ele>328.000000</ele>
<time>2010-01-01T03:08:21.000Z</time>
</trkpt>
<trkpt lat="31.3098900" lon="35.2679100">
<ele>325.000000</ele>
<time>2010-01-01T03:08:50.000Z</time>
</trkpt>
<trkpt lat="31.3096800" lon="35.2681400">
<ele>325.000000</ele>
<time>2010-01-01T03:09:01.000Z</time>
</trkpt>
<trkpt lat="31.3090400" lon="35.2687000">
<ele>318.000000</ele>
<time>2010-01-01T03:09:33.000Z</time>
</trkpt>
<trkpt lat="31.3088800" lon="35.2687500">
<ele>316.000000</ele>
<time>2010-01-01T03:09:40.000Z</time>
</trkpt>
<trkpt lat="31.3081600" lon="35.2689800">
<ele>315.000000</ele>
<time>2010-01-01T03:10:10.000Z</time>
</trkpt>
<trkpt lat="31.3079500" lon="35.2692600">
<ele>314.000000</ele>
<time>2010-01-01T03:10:22.000Z</time>
</trkpt>
<trkpt lat="31.3077900" lon="35.2694000">
<ele>312.999969</ele>
<time>2010-01-01T03:10:30.000Z</time>
</trkpt>
<trkpt lat="31.3074800" lon="35.2694200">
<ele>310.000000</ele>
<time>2010-01-01T03:10:43.000Z</time>
</trkpt>
<trkpt lat="31.3073700" lon="35.2694600">
<ele>310.000000</ele>
<time>2010-01-01T03:10:47.000Z</time>
</trkpt>
<trkpt lat="31.3073000" lon="35.2695200">
<ele>310.000000</ele>
<time>2010-01-01T03:10:51.000Z</time>
</trkpt>
<trkpt lat="31.3068200" lon="35.2693300">
<ele>316.000000</ele>
<time>2010-01-01T03:11:11.000Z</time>
</trkpt>
<trkpt lat="31.3068100" lon="35.2693300">
<ele>316.000000</ele>
<time>2010-01-01T03:11:12.000Z</time>
</trkpt>
<trkpt lat="31.3066700" lon="35.2692700">
<ele>317.000000</ele>
<time>2010-01-01T03:11:18.000Z</time>
</trkpt>
<trkpt lat="31.3061700" lon="35.2688100">
<ele>320.000000</ele>
<time>2010-01-01T03:11:43.000Z</time>
</trkpt>
<trkpt lat="31.3061200" lon="35.2688300">
<ele>320.000000</ele>
<time>2010-01-01T03:11:45.000Z</time>
</trkpt>
<trkpt lat="31.3060000" lon="35.2688300">
<ele>321.000031</ele>
<time>2010-01-01T03:11:50.000Z</time>
</trkpt>
<trkpt lat="31.3059700" lon="35.2688800">
<ele>321.000031</ele>
<time>2010-01-01T03:11:52.000Z</time>
</trkpt>
<trkpt lat="31.3059200" lon="35.2689100">
<ele>321.000031</ele>
<time>2010-01-01T03:11:54.000Z</time>
</trkpt>
<trkpt lat="31.3055200" lon="35.2687800">
<ele>321.000031</ele>
<time>2010-01-01T03:12:11.000Z</time>
</trkpt>
<trkpt lat="31.3053200" lon="35.2687300">
<ele>321.000031</ele>
<time>2010-01-01T03:12:19.000Z</time>
</trkpt>
</trkseg>
</trk>
</gpx>
